Provisional Data: Blockhouse Creek near English Center, PA


Please select a monitoring station.
Please select start date.
Please select start date.

Toggle Unit: C/F Toggle Unit: C/F
Sample Time Temperature (C) Temperature (F) Specific Conductivity (mS/cm) pH   Turbidity (NTU+) DO (mg/L)
12/23/2021 12:00:00 AM 1.61 34.898 0.092 7.25 17.75 13.92
12/23/2021 12:15:00 AM 1.61 34.898 0.092 7.25 17.78 13.93
12/23/2021 12:30:00 AM 1.6 34.88 0.092 7.25 17.68 13.93
12/23/2021 12:45:00 AM 1.59 34.862 0.092 7.25 18.18 13.94
12/23/2021 1:00:00 AM 1.57 34.826 0.092 7.25 17.42 13.96
12/23/2021 1:15:00 AM 1.56 34.808 0.092 7.24 17.34 13.96
12/23/2021 1:30:00 AM 1.55 34.79 0.092 7.25 17.63 13.96
12/23/2021 1:45:00 AM 1.54 34.772 0.092 7.24 17.79 13.97
12/23/2021 2:00:00 AM 1.52 34.736 0.092 7.24 17.73 13.98
12/23/2021 2:15:00 AM 1.5 34.7 0.092 7.25 17.88 13.99
12/23/2021 2:30:00 AM 1.47 34.646 0.092 7.24 17.41 14
12/23/2021 2:45:00 AM 1.43 34.574 0.092 7.24 17.5 14.01
12/23/2021 3:00:00 AM 1.39 34.502 0.092 7.24 17.77 14.03
12/23/2021 3:15:00 AM 1.35 34.43 0.092 7.25 17.7 14.04
12/23/2021 3:30:00 AM 1.32 34.376 0.092 7.24 17.48 14.06
12/23/2021 3:45:00 AM 1.27 34.286 0.092 7.24 17.6 14.08
12/23/2021 4:00:00 AM 1.24 34.232 0.092 7.24 17.52 14.09
12/23/2021 4:15:00 AM 1.21 34.178 0.092 7.24 17.67 14.11
12/23/2021 4:30:00 AM 1.2 34.16 0.092 7.24 17.68 14.12
12/23/2021 4:45:00 AM 1.19 34.142 0.092 7.24 17.32 14.13
12/23/2021 5:00:00 AM 1.17 34.106 0.092 7.24 17.99 14.14
12/23/2021 5:15:00 AM 1.16 34.088 0.092 7.24 17.72 14.16
12/23/2021 5:30:00 AM 1.15 34.07 0.092 7.24 17.67 14.16
12/23/2021 5:45:00 AM 1.14 34.052 0.092 7.24 17.47 14.17
12/23/2021 6:00:00 AM 1.12 34.016 0.093 7.24 17.49 14.18
12/23/2021 6:15:00 AM 1.11 33.998 0.093 7.24 18.27 14.19
12/23/2021 6:30:00 AM 1.09 33.962 0.093 7.24 17.61 14.2
12/23/2021 6:45:00 AM 1.07 33.926 0.093 7.24 17.79 14.21
12/23/2021 7:00:00 AM 1.05 33.89 0.093 7.24 17.57 14.22
12/23/2021 7:15:00 AM 1.03 33.854 0.093 7.24 17.59 14.23
12/23/2021 7:30:00 AM 1.02 33.836 0.093 7.24 17.51 14.25
12/23/2021 7:45:00 AM 1.01 33.818 0.093 7.24 17.87 14.29
12/23/2021 8:00:00 AM 1 33.8 0.093 7.25 17.41 14.36
12/23/2021 8:15:00 AM 0.99 33.782 0.092 7.26 17.72 14.46
12/23/2021 8:30:00 AM 1 33.8 0.092 7.28 18.05 14.59
12/23/2021 8:45:00 AM 1 33.8 0.092 7.29 18.24 14.71
12/23/2021 9:00:00 AM 1 33.8 0.092 7.32 18.43 14.81
12/23/2021 9:15:00 AM 1 33.8 0.092 7.33 18.07 14.88
12/23/2021 9:30:00 AM 1.01 33.818 0.092 7.35 17.95 14.94
12/23/2021 9:45:00 AM 1.02 33.836 0.092 7.37 17.48 14.98
12/23/2021 10:00:00 AM 1.03 33.854 0.092 7.38 17.42 14.99
12/23/2021 10:15:00 AM 1.05 33.89 0.092 7.4 17.54 15.03
12/23/2021 10:30:00 AM 1.08 33.944 0.092 7.41 16.82 15.06
12/23/2021 10:45:00 AM 1.16 34.088 0.092 7.42 17.61 15.1
12/23/2021 11:00:00 AM 1.21 34.178 0.091 7.44 17.54 15.1
12/23/2021 11:15:00 AM 1.27 34.286 0.091 7.45 17.17 15.09
12/23/2021 11:30:00 AM 1.32 34.376 0.091 7.46 17.09 15.09
12/23/2021 11:45:00 AM 1.38 34.484 0.091 7.47 16.67 15.1
12/23/2021 12:00:00 PM 1.45 34.61 0.091 7.48 17.28 15.09
12/23/2021 12:15:00 PM 1.53 34.754 0.091 7.49 16.96 15.06
12/23/2021 12:30:00 PM 1.6 34.88 0.091 7.49 17.13 15
12/23/2021 12:45:00 PM 1.67 35.006 0.091 7.49 17 14.96
12/23/2021 1:00:00 PM 1.73 35.114 0.091 7.49 17.27 14.92
12/23/2021 1:15:00 PM 1.78 35.204 0.091 7.5 17.03 14.83
12/23/2021 1:30:00 PM 1.81 35.258 0.091 7.5 16.41 14.81
12/23/2021 1:45:00 PM 1.86 35.348 0.091 7.5 16.21 14.8
12/23/2021 2:00:00 PM 1.93 35.474 0.09 7.5 17.14 14.83
12/23/2021 2:15:00 PM 2 35.6 0.09 7.51 18.08 14.84
12/23/2021 2:30:00 PM 2.08 35.744 0.09 7.52 16.94 14.81
12/23/2021 2:45:00 PM 2.14 35.852 0.09 7.54 16.38 14.77
12/23/2021 3:00:00 PM 2.18 35.924 0.09 7.54 16.59 14.73
12/23/2021 3:15:00 PM 2.19 35.942 0.09 7.53 16.92 14.69
12/23/2021 3:30:00 PM 2.19 35.942 0.09 7.53 16.84 14.65
12/23/2021 3:45:00 PM 2.19 35.942 0.09 7.53 16.5 14.6
12/23/2021 4:00:00 PM 2.17 35.906 0.09 7.52 16.76 14.54
12/23/2021 4:15:00 PM 2.15 35.87 0.09 7.5 16.84 14.44
12/23/2021 4:30:00 PM 2.13 35.834 0.09 7.48 16.72 14.31
12/23/2021 4:45:00 PM 2.11 35.798 0.09 7.45 16.76 14.19
12/23/2021 5:00:00 PM 2.1 35.78 0.091 7.42 16.97 14.09
12/23/2021 5:15:00 PM 2.08 35.744 0.091 7.4 17.05 14.02
12/23/2021 5:30:00 PM 2.07 35.726 0.091 7.37 17.57 13.96
12/23/2021 5:45:00 PM 2.08 35.744 0.091 7.35 16.78 13.93
12/23/2021 6:00:00 PM 2.07 35.726 0.091 7.34 17.13 13.9
12/23/2021 6:15:00 PM 2.07 35.726 0.091 7.33 16.94 13.87
12/23/2021 6:30:00 PM 2.07 35.726 0.091 7.32 17.19 13.86
12/23/2021 6:45:00 PM 2.06 35.708 0.091 7.31 17.47 13.85
12/23/2021 7:00:00 PM 2.06 35.708 0.091 7.31 17.38 13.83
12/23/2021 7:15:00 PM 2.05 35.69 0.091 7.29 17.13 13.83
12/23/2021 7:30:00 PM 2.05 35.69 0.091 7.29 17.23 13.82
12/23/2021 7:45:00 PM 2.05 35.69 0.09 7.29 17.25 13.81
12/23/2021 8:00:00 PM 2.04 35.672 0.091 7.28 17.28 13.8
12/23/2021 8:15:00 PM 2.03 35.654 0.091 7.28 17.29 13.8
12/23/2021 8:30:00 PM 2.01 35.618 0.091 7.27 17.17 13.8
12/23/2021 8:45:00 PM 2 35.6 0.091 7.26 17.25 13.8
12/23/2021 9:00:00 PM 2 35.6 0.091 7.27 17.26 13.8
12/23/2021 9:15:00 PM 1.99 35.582 0.091 7.27 17.39 13.8
12/23/2021 9:30:00 PM 1.99 35.582 0.091 7.27 17.54 13.8
12/23/2021 9:45:00 PM 1.98 35.564 0.091 7.26 17.09 13.8
12/23/2021 10:00:00 PM 1.96 35.528 0.091 7.26 17.48 13.81
12/23/2021 10:15:00 PM 1.95 35.51 0.091 7.26 16.81 13.81
12/23/2021 10:30:00 PM 1.94 35.492 0.091 7.26 17.32 13.81
12/23/2021 10:45:00 PM 1.95 35.51 0.091 7.26 17.29 13.81
12/23/2021 11:00:00 PM 1.94 35.492 0.091 7.25 17.27 13.81
12/23/2021 11:15:00 PM 1.92 35.456 0.091 7.26 17.16 13.81
12/23/2021 11:30:00 PM 1.91 35.438 0.091 7.25 17.16 13.82
12/23/2021 11:45:00 PM 1.9 35.42 0.091 7.25 17.63 13.82
12/24/2021 12:00:00 AM 1.89 35.402 0.091 7.25 17.47 13.82
12/24/2021 12:15:00 AM 1.86 35.348 0.091 7.25 17.44 13.82
12/24/2021 12:30:00 AM 1.83 35.294 0.091 7.25 17.69 13.83
12/24/2021 12:45:00 AM 1.79 35.222 0.091 7.25 17.76 13.84
12/24/2021 1:00:00 AM 1.78 35.204 0.091 7.24 17.4 13.85
12/24/2021 1:15:00 AM 1.77 35.186 0.091 7.24 17.49 13.86
12/24/2021 1:30:00 AM 1.76 35.168 0.091 7.24 17.34 13.86
12/24/2021 1:45:00 AM 1.75 35.15 0.091 7.24 17.28 13.87
12/24/2021 2:00:00 AM 1.74 35.132 0.091 7.25 17.21 13.87
12/24/2021 2:15:00 AM 1.74 35.132 0.091 7.25 17.8 13.88
12/24/2021 2:30:00 AM 1.74 35.132 0.091 7.24 17.22 13.88
12/24/2021 2:45:00 AM 1.75 35.15 0.091 7.24 17.21 13.88
12/24/2021 3:00:00 AM 1.75 35.15 0.092 7.25 17.27 13.87
12/24/2021 3:15:00 AM 1.75 35.15 0.092 7.24 17.62 13.87
12/24/2021 3:30:00 AM 1.76 35.168 0.092 7.24 17.53 13.87
12/24/2021 3:45:00 AM 1.76 35.168 0.092 7.24 17.69 13.86
12/24/2021 4:00:00 AM 1.77 35.186 0.092 7.24 17.37 13.87
12/24/2021 4:15:00 AM 1.77 35.186 0.092 7.24 17.57 13.87
12/24/2021 4:30:00 AM 1.77 35.186 0.092 7.24 17.75 13.86
12/24/2021 4:45:00 AM 1.77 35.186 0.092 7.24 17.55 13.87
12/24/2021 5:00:00 AM 1.78 35.204 0.092 7.24 17.42 13.87
12/24/2021 5:15:00 AM 1.78 35.204 0.092 7.24 17.76 13.87
12/24/2021 5:30:00 AM 1.79 35.222 0.092 7.24 17.82 13.86
12/24/2021 5:45:00 AM 1.79 35.222 0.092 7.24 17.35 13.86
12/24/2021 6:00:00 AM 1.79 35.222 0.092 7.24 17.68 13.86
12/24/2021 6:15:00 AM 1.8 35.24 0.092 7.24 17.55 13.86
12/24/2021 6:30:00 AM 1.8 35.24 0.092 7.24 17.44 13.87
12/24/2021 6:45:00 AM 1.81 35.258 0.092 7.24 17.68 13.86
12/24/2021 7:00:00 AM 1.81 35.258 0.092 7.24 17.42 13.87
12/24/2021 7:15:00 AM 1.82 35.276 0.092 7.23 17.54 13.87
12/24/2021 7:30:00 AM 1.82 35.276 0.092 7.24 17.5 13.87
12/24/2021 7:45:00 AM 1.83 35.294 0.092 7.24 17.58 13.87
12/24/2021 8:00:00 AM 1.84 35.312 0.092 7.24 18.03 13.88
12/24/2021 8:15:00 AM 1.85 35.33 0.092 7.24 17.58 13.92
12/24/2021 8:30:00 AM 1.86 35.348 0.092 7.25 17.65 13.96
12/24/2021 8:45:00 AM 1.88 35.384 0.092 7.26 17.85 14.03
12/24/2021 9:00:00 AM 1.89 35.402 0.092 7.27 17.69 14.11
12/24/2021 9:15:00 AM 1.91 35.438 0.092 7.28 17.78 14.17
12/24/2021 9:30:00 AM 1.94 35.492 0.092 7.29 17.29 14.25
12/24/2021 9:45:00 AM 1.97 35.546 0.092 7.31 17.52 14.35
12/24/2021 10:00:00 AM 2.01 35.618 0.091 7.33 17.79 14.43
12/24/2021 10:15:00 AM 2.06 35.708 0.091 7.36 17.66 14.51
12/24/2021 10:30:00 AM 2.11 35.798 0.091 7.39 17.33 14.56
12/24/2021 10:45:00 AM 2.18 35.924 0.091 7.4 17.5 14.61
12/24/2021 11:00:00 AM 2.25 36.05 0.091 7.42 17.63 14.65
12/24/2021 11:15:00 AM 2.32 36.176 0.091 7.45 17.25 14.66
12/24/2021 11:30:00 AM 2.36 36.248 0.091 7.46 17.38 14.63
12/24/2021 11:45:00 AM 2.37 36.266 0.091 7.47 17.32 14.61
12/24/2021 12:00:00 PM 2.43 36.374 0.091 7.48 17.47 14.59
12/24/2021 12:15:00 PM 2.51 36.518 0.091 7.48 17.36 14.56
12/24/2021 12:30:00 PM 2.61 36.698 0.091 7.49 17.43 14.54
12/24/2021 12:45:00 PM 2.71 36.878 0.091 7.51 16.8 14.51
12/24/2021 1:00:00 PM 2.8 37.04 0.091 7.51 16.8 14.47
12/24/2021 1:15:00 PM 2.9 37.22 0.091 7.52 16.81 14.45
12/24/2021 1:30:00 PM 3 37.4 0.09 7.53 17.03 14.43
12/24/2021 1:45:00 PM 3.05 37.49 0.09 7.55 17.33 14.38
12/24/2021 2:00:00 PM 3.07 37.526 0.09 7.55 17 14.35
12/24/2021 2:15:00 PM 3.1 37.58 0.09 7.56 16.84 14.34
12/24/2021 2:30:00 PM 3.17 37.706 0.09 7.56 16.94 14.31
12/24/2021 2:45:00 PM 3.23 37.814 0.09 7.57 16.85 14.27
12/24/2021 3:00:00 PM 3.28 37.904 0.09 7.57 17.01 14.22
12/24/2021 3:15:00 PM 3.31 37.958 0.09 7.57 17.06 14.17
12/24/2021 3:30:00 PM 3.32 37.976 0.09 7.56 16.83 14.13
12/24/2021 3:45:00 PM 3.32 37.976 0.09 7.56 17.34 14.12
12/24/2021 4:00:00 PM 3.29 37.922 0.09 7.55 17.18 14.08
12/24/2021 4:15:00 PM 3.25 37.85 0.09 7.54 17.05 13.96
12/24/2021 4:30:00 PM 3.21 37.778 0.09 7.51 17.15 13.81
12/24/2021 4:45:00 PM 3.16 37.688 0.091 7.47 16.98 13.69
12/24/2021 5:00:00 PM 3.12 37.616 0.091 7.44 17.53 13.59
12/24/2021 5:15:00 PM 3.08 37.544 0.091 7.41 16.92 13.52
12/24/2021 5:30:00 PM 3.05 37.49 0.091 7.39 17.57 13.47
12/24/2021 5:45:00 PM 3.03 37.454 0.091 7.37 17.56 13.44
12/24/2021 6:00:00 PM 3.02 37.436 0.091 7.35 17.02 13.42
12/24/2021 6:15:00 PM 3.03 37.454 0.091 7.34 17.18 13.4
12/24/2021 6:30:00 PM 3.03 37.454 0.091 7.33 17.14 13.38
12/24/2021 6:45:00 PM 3.03 37.454 0.091 7.32 17.31 13.37
12/24/2021 7:00:00 PM 3.04 37.472 0.091 7.31 17.26 13.35
12/24/2021 7:15:00 PM 3.05 37.49 0.091 7.3 17.05 13.34
12/24/2021 7:30:00 PM 3.05 37.49 0.091 7.3 17.49 13.33
12/24/2021 7:45:00 PM 3.06 37.508 0.087 7.29 17.23 13.32
12/24/2021 8:00:00 PM 3.06 37.508 0.091 7.29 17.4 13.31
12/24/2021 8:15:00 PM 3.07 37.526 0.091 7.28 17.16 13.3
12/24/2021 8:30:00 PM 3.09 37.562 0.091 7.27 17.69 13.29
12/24/2021 8:45:00 PM 3.1 37.58 0.091 7.27 17.42 13.29
12/24/2021 9:00:00 PM 3.11 37.598 0.091 7.27 17.35 13.28
12/24/2021 9:15:00 PM 3.12 37.616 0.09 7.27 17.05 13.28
12/24/2021 9:30:00 PM 3.13 37.634 0.091 7.26 17.68 13.27
12/24/2021 9:45:00 PM 3.13 37.634 0.091 7.26 17.77 13.27
12/24/2021 10:00:00 PM 3.14 37.652 0.09 7.26 17.52 13.26
12/24/2021 10:15:00 PM 3.15 37.67 0.09 7.26 17.33 13.26
12/24/2021 10:30:00 PM 3.15 37.67 0.091 7.26 17.44 13.25
12/24/2021 10:45:00 PM 3.16 37.688 0.09 7.26 17.17 13.25
12/24/2021 11:00:00 PM 3.16 37.688 0.091 7.26 17.42 13.24
12/24/2021 11:15:00 PM 3.17 37.706 0.091 7.25 17.45 13.24
12/24/2021 11:30:00 PM 3.17 37.706 0.091 7.25 17.71 13.24
12/24/2021 11:45:00 PM 3.18 37.724 0.091 7.25 17.69 13.23
12/25/2021 12:00:00 AM 3.19 37.742 0.091 7.25 18.13 13.23
12/25/2021 12:15:00 AM 3.19 37.742 0.091 7.26 17.46 13.23
12/25/2021 12:30:00 AM 3.19 37.742 0.091 7.25 17.72 13.23
12/25/2021 12:45:00 AM 3.2 37.76 0.091 7.26 18.04 13.22
12/25/2021 1:00:00 AM 3.2 37.76 0.091 7.25 17.55 13.21
12/25/2021 1:15:00 AM 3.2 37.76 0.091 7.25 17.92 13.2
12/25/2021 1:30:00 AM 3.21 37.778 0.092 7.25 17.65 13.19
12/25/2021 1:45:00 AM 3.22 37.796 0.092 7.25 17.55 13.19
12/25/2021 2:00:00 AM 3.23 37.814 0.092 7.25 17.61 13.18
12/25/2021 2:15:00 AM 3.24 37.832 0.092 7.25 17.35 13.17
12/25/2021 2:30:00 AM 3.25 37.85 0.092 7.24 17.29 13.17
12/25/2021 2:45:00 AM 3.26 37.868 0.092 7.25 17.52 13.16
12/25/2021 3:00:00 AM 3.27 37.886 0.092 7.25 17.44 13.15
12/25/2021 3:15:00 AM 3.29 37.922 0.092 7.25 17.95 13.14
12/25/2021 3:30:00 AM 3.3 37.94 0.092 7.25 17.6 13.13
12/25/2021 3:45:00 AM 3.31 37.958 0.092 7.25 17.65 13.12
12/25/2021 4:00:00 AM 3.32 37.976 0.092 7.25 17.46 13.11
12/25/2021 4:15:00 AM 3.34 38.012 0.092 7.25 17.93 13.1
12/25/2021 4:30:00 AM 3.35 38.03 0.092 7.24 17.66 13.09
12/25/2021 4:45:00 AM 3.37 38.066 0.092 7.25 17.57 13.08
12/25/2021 5:00:00 AM 3.38 38.084 0.092 7.25 17.67 13.07
12/25/2021 5:15:00 AM 3.4 38.12 0.092 7.25 17.6 13.06
12/25/2021 5:30:00 AM 3.41 38.138 0.092 7.24 17.51 13.05
12/25/2021 5:45:00 AM 3.42 38.156 0.092 7.25 17.84 13.05
12/25/2021 6:00:00 AM 3.43 38.174 0.092 7.25 17.61 13.05
12/25/2021 6:15:00 AM 3.44 38.192 0.092 7.25 17.66 13.04
12/25/2021 6:30:00 AM 3.45 38.21 0.092 7.25 17.66 13.03
12/25/2021 6:45:00 AM 3.46 38.228 0.092 7.26 18.15 13.03
12/25/2021 7:00:00 AM 3.47 38.246 0.092 7.25 17.72 13.02
12/25/2021 7:15:00 AM 3.48 38.264 0.092 7.25 18.36 13.02
12/25/2021 7:30:00 AM 3.49 38.282 0.092 7.25 17.93 13.01
12/25/2021 7:45:00 AM 3.5 38.3 0.092 7.24 17.69 13.01
12/25/2021 8:00:00 AM 3.51 38.318 0.092 7.25 17.84 13.02
12/25/2021 8:15:00 AM 3.52 38.336 0.092 7.26 17.82 13.03
12/25/2021 8:30:00 AM 3.53 38.354 0.091 7.26 18.18 13.07
12/25/2021 8:45:00 AM 3.54 38.372 0.091 7.27 17.81 13.1
12/25/2021 9:00:00 AM 3.56 38.408 0.091 7.28 17.79 13.17
12/25/2021 9:15:00 AM 3.58 38.444 0.091 7.29 17.76 13.24
12/25/2021 9:30:00 AM 3.59 38.462 0.091 7.3 17.46 13.22
12/25/2021 9:45:00 AM 3.61 38.498 0.091 7.3 17.9 13.25
12/25/2021 10:00:00 AM 3.63 38.534 0.091 7.31 17.8 13.3
12/25/2021 10:15:00 AM 3.66 38.588 0.091 7.33 18.22 13.41
12/25/2021 10:30:00 AM 3.7 38.66 0.091 7.35 18 13.52
12/25/2021 10:45:00 AM 3.76 38.768 0.091 7.37 18.02 13.62
12/25/2021 11:00:00 AM 3.79 38.822 0.091 7.39 18.22 13.64
12/25/2021 11:15:00 AM 3.83 38.894 0.091 7.42 18.36 13.65
12/25/2021 11:30:00 AM 3.86 38.948 0.091 7.42 18.17 13.61
12/25/2021 11:45:00 AM 3.88 38.984 0.091 7.44 18.81 13.54
12/25/2021 12:00:00 PM 3.9 39.02 0.091 7.44 18.15 13.53
12/25/2021 12:15:00 PM 3.92 39.056 0.091 7.44 18.44 13.52
12/25/2021 12:30:00 PM 3.95 39.11 0.091 7.45 18.47 13.52
12/25/2021 12:45:00 PM 3.98 39.164 0.091 7.45 18.61 13.5
12/25/2021 1:00:00 PM 4.02 39.236 0.091 7.46 18.42 13.53
12/25/2021 1:15:00 PM 4.07 39.326 0.09 7.47 18.68 13.59
12/25/2021 1:30:00 PM 4.11 39.398 0.09 7.48 18.55 13.54
12/25/2021 1:45:00 PM 4.15 39.47 0.09 7.49 18.63 13.54
12/25/2021 2:00:00 PM 4.19 39.542 0.09 7.5 18.37 13.53
12/25/2021 2:15:00 PM 4.24 39.632 0.09 7.5 18.41 13.53
12/25/2021 2:30:00 PM 4.28 39.704 0.09 7.51 18.14 13.52
12/25/2021 2:45:00 PM 4.32 39.776 0.09 7.52 18.92 13.51
12/25/2021 3:00:00 PM 4.36 39.848 0.09 7.52 17.89 13.5
12/25/2021 3:15:00 PM 4.4 39.92 0.09 7.52 17.41 13.46
12/25/2021 3:30:00 PM 4.44 39.992 0.09 7.53 17.73 13.44
12/25/2021 3:45:00 PM 4.47 40.046 0.09 7.52 17.3 13.38
12/25/2021 4:00:00 PM 4.49 40.082 0.091 7.5 17.96 13.17
12/25/2021 4:15:00 PM 4.51 40.118 0.091 7.48 18.07 13.12
12/25/2021 4:30:00 PM 4.52 40.136 0.091 7.46 18.33 13.05
12/25/2021 4:45:00 PM 4.53 40.154 0.091 7.44 18.62 12.94
12/25/2021 5:00:00 PM 4.54 40.172 0.091 7.41 17.71 12.84
12/25/2021 5:15:00 PM 4.55 40.19 0.092 7.39 17.87 12.77
12/25/2021 5:30:00 PM 4.57 40.226 0.092 7.37 17.98 12.72
12/25/2021 5:45:00 PM 4.57 40.226 0.092 7.35 18.19 12.68
12/25/2021 6:00:00 PM 4.57 40.226 0.092 7.34 18.18 12.67
12/25/2021 6:15:00 PM 4.58 40.244 0.093 7.32 18.44 12.66
12/25/2021 6:30:00 PM 4.58 40.244 0.093 7.32 18.05 12.64
12/25/2021 6:45:00 PM 4.59 40.262 0.093 7.31 18.22 12.63
12/25/2021 7:00:00 PM 4.58 40.244 0.093 7.3 18.73 12.63
12/25/2021 7:15:00 PM 4.58 40.244 0.094 7.3 18.25 12.62
12/25/2021 7:30:00 PM 4.58 40.244 0.094 7.29 18.24 12.61
12/25/2021 7:45:00 PM 4.58 40.244 0.094 7.29 18.52 12.61
12/25/2021 8:00:00 PM 4.58 40.244 0.094 7.28 18.59 12.61
12/25/2021 8:15:00 PM 4.58 40.244 0.094 7.28 18.26 12.61
12/25/2021 8:30:00 PM 4.59 40.262 0.094 7.28 18.04 12.61
12/25/2021 8:45:00 PM 4.59 40.262 0.094 7.27 18.38 12.61
12/25/2021 9:00:00 PM 4.59 40.262 0.094 7.27 17.96 12.62
12/25/2021 9:15:00 PM 4.6 40.28 0.094 7.27 18.28 12.62
12/25/2021 9:30:00 PM 4.6 40.28 0.095 7.27 18.37 12.62
12/25/2021 9:45:00 PM 4.61 40.298 0.095 7.27 18.73 12.61
12/25/2021 10:00:00 PM 4.61 40.298 0.095 7.26 18.25 12.61
12/25/2021 10:15:00 PM 4.61 40.298 0.095 7.26 18.2 12.61
12/25/2021 10:30:00 PM 4.62 40.316 0.095 7.27 18.67 12.62
12/25/2021 10:45:00 PM 4.62 40.316 0.095 7.26 19.09 12.63
12/25/2021 11:00:00 PM 4.61 40.298 0.095 7.26 18.45 12.63
12/25/2021 11:15:00 PM 4.61 40.298 0.096 7.26 18.31 12.63
12/25/2021 11:30:00 PM 4.59 40.262 0.096 7.26 18.5 12.62
12/25/2021 11:45:00 PM 4.58 40.244 0.096 7.26 18.67 12.64
12/26/2021 12:00:00 AM 4.57 40.226 0.096 7.26 18.84 12.65
12/26/2021 12:15:00 AM 4.56 40.208 0.097 7.26 18.3 12.65
12/26/2021 12:30:00 AM 4.57 40.226 0.097 7.26 18.46 12.65
12/26/2021 12:45:00 AM 4.58 40.244 0.097 7.26 18.42 12.66
12/26/2021 1:00:00 AM 4.58 40.244 0.098 7.26 18.49 12.65
12/26/2021 1:15:00 AM 4.58 40.244 0.098 7.26 18.39 12.65
12/26/2021 1:30:00 AM 4.58 40.244 0.098 7.26 18.49 12.65
12/26/2021 1:45:00 AM 4.56 40.208 0.098 7.26 18.79 12.67
12/26/2021 2:00:00 AM 4.53 40.154 0.099 7.26 18.53 12.67
12/26/2021 2:15:00 AM 4.51 40.118 0.099 7.27 18.35 12.69
12/26/2021 2:30:00 AM 4.5 40.1 0.099 7.27 18.43 12.7
12/26/2021 2:45:00 AM 4.49 40.082 0.099 7.26 18.65 12.7
12/26/2021 3:00:00 AM 4.47 40.046 0.099 7.26 18.6 12.72
12/26/2021 3:15:00 AM 4.46 40.028 0.099 7.26 18.7 12.73
12/26/2021 3:30:00 AM 4.44 39.992 0.1 7.26 18.55 12.74
12/26/2021 3:45:00 AM 4.42 39.956 0.1 7.26 18.92 12.75
12/26/2021 4:00:00 AM 4.4 39.92 0.1 7.27 18.88 12.76
12/26/2021 4:15:00 AM 4.38 39.884 0.1 7.27 18.84 12.77
12/26/2021 4:30:00 AM 4.36 39.848 0.1 7.27 18.63 12.78
12/26/2021 4:45:00 AM 4.34 39.812 0.1 7.27 18.34 12.79
12/26/2021 5:00:00 AM 4.31 39.758 0.1 7.27 18.54 12.8
12/26/2021 5:15:00 AM 4.28 39.704 0.1 7.27 18.51 12.81
12/26/2021 5:30:00 AM 4.24 39.632 0.1 7.27 18.92 12.82
12/26/2021 5:45:00 AM 4.19 39.542 0.1 7.27 18.7 12.84
12/26/2021 6:00:00 AM 4.15 39.47 0.1 7.27 19.15 12.84
12/26/2021 6:15:00 AM 4.11 39.398 0.1 7.28 18.56 12.86
12/26/2021 6:30:00 AM 4.08 39.344 0.1 7.27 18.87 12.87
12/26/2021 6:45:00 AM 4.06 39.308 0.1 7.27 18.86 12.89
12/26/2021 7:00:00 AM 4.05 39.29 0.1 7.27 19.01 12.89
12/26/2021 7:15:00 AM 4.03 39.254 0.1 7.28 18.8 12.9
12/26/2021 7:30:00 AM 4 39.2 0.1 7.27 18.82 12.92
12/26/2021 7:45:00 AM 3.96 39.128 0.1 7.27 18.61 12.96
12/26/2021 8:00:00 AM 3.93 39.074 0.101 7.28 18.77 13.03
12/26/2021 8:15:00 AM 3.89 39.002 0.101 7.29 19.19 13.13
12/26/2021 8:30:00 AM 3.87 38.966 0.101 7.3 18.87 13.23
12/26/2021 8:45:00 AM 3.85 38.93 0.101 7.32 18.58 13.32
12/26/2021 9:00:00 AM 3.83 38.894 0.101 7.33 19.09 13.39
12/26/2021 9:15:00 AM 3.82 38.876 0.101 7.35 18.58 13.45
12/26/2021 9:30:00 AM 3.81 38.858 0.101 7.36 18.52 13.5
12/26/2021 9:45:00 AM 3.82 38.876 0.101 7.38 18.92 13.57
12/26/2021 10:00:00 AM 3.82 38.876 0.101 7.4 18.57 13.6
12/26/2021 10:15:00 AM 3.84 38.912 0.101 7.41 18.5 13.64
12/26/2021 10:30:00 AM 3.88 38.984 0.101 7.42 18.18 13.68
12/26/2021 10:45:00 AM 3.93 39.074 0.101 7.44 18.35 13.72
12/26/2021 11:00:00 AM 3.99 39.182 0.101 7.46 18.33 13.76
12/26/2021 11:15:00 AM 4.05 39.29 0.101 7.47 18.47 13.8
12/26/2021 11:30:00 AM 4.09 39.362 0.101 7.49 18.44 13.79
12/26/2021 11:45:00 AM 4.17 39.506 0.101 7.5 17.84 13.81
12/26/2021 12:00:00 PM 4.25 39.65 0.101 7.52 18.77 13.81
12/26/2021 12:15:00 PM 4.32 39.776 0.1 7.53 19.23 13.82
12/26/2021 12:30:00 PM 4.38 39.884 0.1 7.55 18.86 13.8
12/26/2021 12:45:00 PM 4.46 40.028 0.1 7.56 18.25 13.82
12/26/2021 1:00:00 PM 4.55 40.19 0.1 7.58 17.94 13.85
12/26/2021 1:15:00 PM 4.67 40.406 0.1 7.6 18.23 13.86
12/26/2021 1:30:00 PM 4.68 40.424 0.1 7.62 18.38 13.82
12/26/2021 1:45:00 PM 4.67 40.406 0.099 7.62 18.23 13.78
12/26/2021 2:00:00 PM 4.68 40.424 0.099 7.63 18.35 13.78
12/26/2021 2:15:00 PM 4.7 40.46 0.099 7.63 18.1 13.74
12/26/2021 2:30:00 PM 4.73 40.514 0.099 7.64 18.3 13.72
12/26/2021 2:45:00 PM 4.76 40.568 0.099 7.65 18.83 13.71
12/26/2021 3:00:00 PM 4.78 40.604 0.099 7.65 18.81 13.66
12/26/2021 3:15:00 PM 4.82 40.676 0.098 7.64 18.72 13.64
12/26/2021 3:30:00 PM 4.82 40.676 0.098 7.64 18.88 13.61
12/26/2021 3:45:00 PM 4.78 40.604 0.098 7.62 19.83 13.54
12/26/2021 4:00:00 PM 4.75 40.55 0.098 7.61 18.78 13.47
12/26/2021 4:15:00 PM 4.68 40.424 0.098 7.58 18.78 13.33
12/26/2021 4:30:00 PM 4.63 40.334 0.098 7.55 19.49 13.2
12/26/2021 4:45:00 PM 4.58 40.244 0.098 7.51 19.14 13.1
12/26/2021 5:00:00 PM 4.54 40.172 0.098 7.48 18.65 13.02
12/26/2021 5:15:00 PM 4.48 40.064 0.098 7.45 18.69 12.96
12/26/2021 5:30:00 PM 4.43 39.974 0.098 7.42 18.79 12.93
12/26/2021 5:45:00 PM 4.38 39.884 0.098 7.4 18.61 12.91
12/26/2021 6:00:00 PM 4.32 39.776 0.098 7.38 19.1 12.9
12/26/2021 6:15:00 PM 4.26 39.668 0.098 7.37 19.09 12.91
12/26/2021 6:30:00 PM 4.2 39.56 0.098 7.35 19.01 12.92
12/26/2021 6:45:00 PM 4.15 39.47 0.098 7.34 19.31 12.93
12/26/2021 7:00:00 PM 4.1 39.38 0.098 7.33 18.94 12.94
12/26/2021 7:15:00 PM 4.04 39.272 0.098 7.32 19.1 12.96
12/26/2021 7:30:00 PM 3.98 39.164 0.098 7.32 18.89 12.97
12/26/2021 7:45:00 PM 3.92 39.056 0.098 7.31 19.05 13
12/26/2021 8:00:00 PM 3.87 38.966 0.098 7.3 19 13.02
12/26/2021 8:15:00 PM 3.84 38.912 0.098 7.3 19.09 13.04
12/26/2021 8:30:00 PM 3.78 38.804 0.098 7.29 19.39 13.05
12/26/2021 8:45:00 PM 3.7 38.66 0.098 7.29 19.28 13.08
12/26/2021 9:00:00 PM 3.64 38.552 0.098 7.29 19.04 13.11
12/26/2021 9:15:00 PM 3.59 38.462 0.098 7.29 19.24 13.13
12/26/2021 9:30:00 PM 3.56 38.408 0.098 7.28 18.81 13.14
12/26/2021 9:45:00 PM 3.53 38.354 0.098 7.28 19.27 13.16
12/26/2021 10:00:00 PM 3.51 38.318 0.098 7.27 19.06 13.18
12/26/2021 10:15:00 PM 3.49 38.282 0.098 7.28 19.7 13.19
12/26/2021 10:30:00 PM 3.46 38.228 0.098 7.27 19 13.21
12/26/2021 10:45:00 PM 3.45 38.21 0.098 7.27 18.97 13.21
12/26/2021 11:00:00 PM 3.44 38.192 0.098 7.27 19.12 13.22
12/26/2021 11:15:00 PM 3.41 38.138 0.098 7.26 18.82 13.24
12/26/2021 11:30:00 PM 3.39 38.102 0.098 7.27 19.2 13.25
12/26/2021 11:45:00 PM 3.38 38.084 0.098 7.27 18.84 13.26
12/27/2021 12:00:00 AM 3.37 38.066 0.098 7.27 19.36 13.26
12/27/2021 12:15:00 AM 3.37 38.066 0.098 7.27 19.07 13.26
12/27/2021 12:30:00 AM 3.36 38.048 0.098 7.27 18.66 13.27
12/27/2021 12:45:00 AM 3.36 38.048 0.098 7.27 18.83 13.27
12/27/2021 1:00:00 AM 3.36 38.048 0.098 7.26 18.95 13.27
12/27/2021 1:15:00 AM 3.34 38.012 0.098 7.27 18.86 13.27
12/27/2021 1:30:00 AM 3.3 37.94 0.098 7.27 19.33 13.27
12/27/2021 1:45:00 AM 3.28 37.904 0.098 7.27 18.43 13.29
12/27/2021 2:00:00 AM 3.27 37.886 0.098 7.26 19.16 13.3
12/27/2021 2:15:00 AM 3.25 37.85 0.098 7.26 18.77 13.3
12/27/2021 2:30:00 AM 3.22 37.796 0.098 7.26 19.16 13.31
12/27/2021 2:45:00 AM 3.19 37.742 0.098 7.26 18.86 13.31
12/27/2021 3:00:00 AM 3.14 37.652 0.098 7.27 18.99 13.33
12/27/2021 3:15:00 AM 3.1 37.58 0.098 7.26 18.64 13.35
12/27/2021 3:30:00 AM 3.07 37.526 0.098 7.26 18.96 13.35
12/27/2021 3:45:00 AM 3.05 37.49 0.098 7.26 18.72 13.36
12/27/2021 4:00:00 AM 3.03 37.454 0.098 7.26 18.71 13.37
12/27/2021 4:15:00 AM 3.01 37.418 0.098 7.26 18.86 13.38
12/27/2021 4:30:00 AM 3 37.4 0.098 7.26 19.38 13.39
12/27/2021 4:45:00 AM 2.98 37.364 0.098 7.26 18.93 13.39
12/27/2021 5:00:00 AM 2.97 37.346 0.098 7.26 19.01 13.4
12/27/2021 5:15:00 AM 2.96 37.328 0.098 7.26 18.91 13.4
12/27/2021 5:30:00 AM 2.95 37.31 0.098 7.26 19.01 13.41
12/27/2021 5:45:00 AM 2.93 37.274 0.098 7.26 18.59 13.41
12/27/2021 6:00:00 AM 2.92 37.256 0.098 7.26 18.97 13.41
12/27/2021 6:15:00 AM 2.91 37.238 0.098 7.26 18.89 13.41
12/27/2021 6:30:00 AM 2.9 37.22 0.098 7.27 18.67 13.41
12/27/2021 6:45:00 AM 2.89 37.202 0.098 7.26 18.74 13.43
12/27/2021 7:00:00 AM 2.88 37.184 0.098 7.26 19.1 13.43
12/27/2021 7:15:00 AM 2.87 37.166 0.098 7.26 18.96 13.43
12/27/2021 7:30:00 AM 2.86 37.148 0.098 7.27 19.08 13.43
12/27/2021 7:45:00 AM 2.86 37.148 0.098 7.27 18.89 13.44
12/27/2021 8:00:00 AM 2.86 37.148 0.098 7.26 18.86 13.45
12/27/2021 8:15:00 AM 2.86 37.148 0.098 7.27 18.77 13.48
12/27/2021 8:30:00 AM 2.86 37.148 0.098 7.27 18.96 13.49
12/27/2021 8:45:00 AM 2.86 37.148 0.098 7.27 19.04 13.5
12/27/2021 9:00:00 AM 2.86 37.148 0.098 7.28 18.9 13.55
12/27/2021 9:15:00 AM 2.85 37.13 0.098 7.29 18.94 13.64
12/27/2021 9:30:00 AM 2.86 37.148 0.098 7.3 19.41 13.71
12/27/2021 9:45:00 AM 2.89 37.202 0.098 7.32 19.08 13.86
12/27/2021 10:00:00 AM 2.91 37.238 0.097 7.34 19.18 14
12/27/2021 10:15:00 AM 2.92 37.256 0.097 7.37 18.99 14.07
12/27/2021 10:30:00 AM 2.93 37.274 0.097 7.39 19.36 14.11
12/27/2021 10:45:00 AM 2.87 37.166 0.097 7.41 18.94 14.17
12/27/2021 11:00:00 AM 2.88 37.184 0.097 7.43 19.02 14.19
12/27/2021 11:15:00 AM 2.9 37.22 0.097 7.44 18.9 14.19
12/27/2021 11:30:00 AM 2.93 37.274 0.097 7.46 18.87 14.25
12/27/2021 11:45:00 AM 2.97 37.346 0.097 7.49 18.57 14.3
12/27/2021 12:00:00 PM 3.02 37.436 0.097 7.51 18.58 14.32
12/27/2021 12:15:00 PM 3.05 37.49 0.097 7.52 18.61 14.29
12/27/2021 12:30:00 PM 3.06 37.508 0.097 7.53 18.95 14.24
12/27/2021 12:45:00 PM 3.04 37.472 0.097 7.52 18.36 14.14
12/27/2021 1:00:00 PM 2.97 37.346 0.096 7.51 19.18 14.09
12/27/2021 1:15:00 PM 2.98 37.364 0.096 7.51 18.46 14.05
12/27/2021 1:30:00 PM 2.99 37.382 0.096 7.51 18.51 14.07
12/27/2021 1:45:00 PM 2.99 37.382 0.096 7.51 18.65 14.08
12/27/2021 2:00:00 PM 2.99 37.382 0.096 7.5 19.32 14.06
12/27/2021 2:15:00 PM 3.01 37.418 0.096 7.52 18.7 14.1
12/27/2021 2:30:00 PM 3.02 37.436 0.096 7.51 18.95 14.03
12/27/2021 2:45:00 PM 3.02 37.436 0.096 7.5 18.77 13.97
12/27/2021 3:00:00 PM 3.02 37.436 0.096 7.5 18.5 13.98
12/27/2021 3:15:00 PM 3.02 37.436 0.096 7.49 18.99 13.87
12/27/2021 3:30:00 PM 3.02 37.436 0.096 7.47 19.37 13.8
12/27/2021 3:45:00 PM 3.01 37.418 0.096 7.46 18.86 13.7
12/27/2021 4:00:00 PM 3.01 37.418 0.096 7.44 19.33 13.63
12/27/2021 4:15:00 PM 3 37.4 0.096 7.42 19.07 13.57
12/27/2021 4:30:00 PM 2.99 37.382 0.096 7.41 19.1 13.52
12/27/2021 4:45:00 PM 2.98 37.364 0.096 7.39 19.02 13.47
12/27/2021 5:00:00 PM 2.97 37.346 0.096 7.37 19.38 13.43
12/27/2021 5:15:00 PM 2.96 37.328 0.096 7.36 19.67 13.41
12/27/2021 5:30:00 PM 2.96 37.328 0.096 7.35 19.47 13.38
12/27/2021 5:45:00 PM 2.95 37.31 0.096 7.33 19.53 13.37
12/27/2021 6:00:00 PM 2.94 37.292 0.096 7.33 19.28 13.36
12/27/2021 6:15:00 PM 2.94 37.292 0.096 7.32 19.56 13.34
12/27/2021 6:30:00 PM 2.92 37.256 0.095 7.31 20.01 13.35
12/27/2021 6:45:00 PM 2.93 37.274 0.095 7.31 19.49 13.34
12/27/2021 7:00:00 PM 2.93 37.274 0.095 7.3 19.96 13.33
12/27/2021 7:15:00 PM 2.93 37.274 0.095 7.3 19.3 13.32
12/27/2021 7:30:00 PM 2.93 37.274 0.095 7.3 19.29 13.32
12/27/2021 7:45:00 PM 2.93 37.274 0.095 7.29 19.07 13.32
12/27/2021 8:00:00 PM 2.93 37.274 0.096 7.29 19.86 13.31
12/27/2021 8:15:00 PM 2.92 37.256 0.095 7.28 19.27 13.31
12/27/2021 8:30:00 PM 2.91 37.238 0.095 7.29 19.36 13.31
12/27/2021 8:45:00 PM 2.92 37.256 0.096 7.28 19.53 13.31
12/27/2021 9:00:00 PM 2.91 37.238 0.096 7.29 19.51 13.31
12/27/2021 9:15:00 PM 2.91 37.238 0.096 7.28 19.24 13.31
12/27/2021 9:30:00 PM 2.9 37.22 0.096 7.28 19.36 13.31
12/27/2021 9:45:00 PM 2.9 37.22 0.096 7.28 19.46 13.31
12/27/2021 10:00:00 PM 2.9 37.22 0.096 7.27 19.28 13.31
12/27/2021 10:15:00 PM 2.9 37.22 0.096 7.28 19.52 13.31
12/27/2021 10:30:00 PM 2.9 37.22 0.096 7.28 19.52 13.31
12/27/2021 10:45:00 PM 2.89 37.202 0.096 7.27 20 13.31
12/27/2021 11:00:00 PM 2.89 37.202 0.096 7.27 19.68 13.31
12/27/2021 11:15:00 PM 2.89 37.202 0.096 7.28 19.65 13.32
12/27/2021 11:30:00 PM 2.89 37.202 0.096 7.27 19.82 13.31
12/27/2021 11:45:00 PM 2.9 37.22 0.096 7.27 19.93 13.31
12/28/2021 12:00:00 AM 2.9 37.22 0.096 7.27 19.66 13.31
12/28/2021 12:15:00 AM 2.9 37.22 0.096 7.27 19.71 13.31
12/28/2021 12:30:00 AM 2.91 37.238 0.096 7.27 19.52 13.31
12/28/2021 12:45:00 AM 2.91 37.238 0.096 7.27 19.96 13.31
12/28/2021 1:00:00 AM 2.91 37.238 0.096 7.27 19.59 13.3
12/28/2021 1:15:00 AM 2.92 37.256 0.096 7.27 19.8 13.3
12/28/2021 1:30:00 AM 2.92 37.256 0.096 7.27 19.74 13.3
12/28/2021 1:45:00 AM 2.93 37.274 0.096 7.27 19.45 13.31
12/28/2021 2:00:00 AM 2.93 37.274 0.096 7.27 20.07 13.31
12/28/2021 2:15:00 AM 2.94 37.292 0.096 7.27 19.27 13.3
12/28/2021 2:30:00 AM 2.94 37.292 0.096 7.27 19.85 13.3
12/28/2021 2:45:00 AM 2.94 37.292 0.096 7.27 19.87 13.3
12/28/2021 3:00:00 AM 2.95 37.31 0.096 7.27 19.51 13.3
12/28/2021 3:15:00 AM 2.96 37.328 0.097 7.27 19.9 13.3
12/28/2021 3:30:00 AM 2.96 37.328 0.097 7.26 20.15 13.3
12/28/2021 3:45:00 AM 2.96 37.328 0.097 7.27 19.81 13.3
12/28/2021 4:00:00 AM 2.95 37.31 0.097 7.27 19.55 13.3
12/28/2021 4:15:00 AM 2.95 37.31 0.097 7.27 20.01 13.3
12/28/2021 4:30:00 AM 2.95 37.31 0.097 7.27 19.47 13.3
12/28/2021 4:45:00 AM 2.94 37.292 0.097 7.26 19.9 13.3
12/28/2021 5:00:00 AM 2.94 37.292 0.097 7.27 19.71 13.3
12/28/2021 5:15:00 AM 2.93 37.274 0.097 7.26 19.72 13.3
12/28/2021 5:30:00 AM 2.91 37.238 0.098 7.26 19.66 13.31
12/28/2021 5:45:00 AM 2.87 37.166 0.098 7.26 19.76 13.32
12/28/2021 6:00:00 AM 2.85 37.13 0.098 7.26 19.6 13.33
12/28/2021 6:15:00 AM 2.83 37.094 0.098 7.26 19.86 13.34
12/28/2021 6:30:00 AM 2.83 37.094 0.098 7.26 19.87 13.35
12/28/2021 6:45:00 AM 2.85 37.13 0.098 7.26 19.44 13.35
12/28/2021 7:00:00 AM 2.86 37.148 0.098 7.26 19.8 13.35
12/28/2021 7:15:00 AM 2.87 37.166 0.098 7.26 19.97 13.35
12/28/2021 7:30:00 AM 2.88 37.184 0.098 7.27 19.73 13.35
12/28/2021 7:45:00 AM 2.89 37.202 0.098 7.27 19.84 13.37
12/28/2021 8:00:00 AM 2.88 37.184 0.098 7.27 19.85 13.42
12/28/2021 8:15:00 AM 2.88 37.184 0.098 7.28 20.28 13.47
12/28/2021 8:30:00 AM 2.88 37.184 0.098 7.29 19.78 13.57
12/28/2021 8:45:00 AM 2.88 37.184 0.098 7.31 19.59 13.65
12/28/2021 9:00:00 AM 2.88 37.184 0.098 7.32 19.7 13.74
12/28/2021 9:15:00 AM 2.88 37.184 0.098 7.34 19.61 13.86
12/28/2021 9:30:00 AM 2.9 37.22 0.098 7.36 19.74 13.95
12/28/2021 9:45:00 AM 2.92 37.256 0.098 7.38 19.68 14.04
12/28/2021 10:00:00 AM 2.96 37.328 0.098 7.41 19.66 14.13
12/28/2021 10:15:00 AM 2.99 37.382 0.098 7.43 19.46 14.17
12/28/2021 10:30:00 AM 3 37.4 0.098 7.45 19.65 14.18
12/28/2021 10:45:00 AM 3.01 37.418 0.098 7.46 19.28 14.18
12/28/2021 11:00:00 AM 3.06 37.508 0.098 7.48 19.33 14.23
12/28/2021 11:15:00 AM 3.14 37.652 0.098 7.5 19.54 14.27
12/28/2021 11:30:00 AM 3.22 37.796 0.098 7.52 19.59 14.29
12/28/2021 11:45:00 AM 3.32 37.976 0.098 7.54 19.22 14.28
12/28/2021 12:00:00 PM 3.42 38.156 0.098 7.56 19.77 14.26
12/28/2021 12:15:00 PM 3.49 38.282 0.098 7.57 19.13 14.22
12/28/2021 12:30:00 PM 3.52 38.336 0.098 7.58 19.4 14.19
12/28/2021 12:45:00 PM 3.5 38.3 0.099 7.58 19.34 14.1
12/28/2021 1:00:00 PM 3.48 38.264 0.099 7.57 20.13 14.01
12/28/2021 1:15:00 PM 3.45 38.21 0.099 7.56 19.55 13.97
12/28/2021 1:30:00 PM 3.44 38.192 0.099 7.55 19.84 13.91
12/28/2021 1:45:00 PM 3.44 38.192 0.099 7.54 19.48 13.86
12/28/2021 2:00:00 PM 3.46 38.228 0.099 7.52 19.66 13.82
12/28/2021 2:15:00 PM 3.49 38.282 0.099 7.53 19.6 13.85
12/28/2021 2:30:00 PM 3.53 38.354 0.099 7.53 19.57 13.88
12/28/2021 2:45:00 PM 3.56 38.408 0.099 7.54 19.34 13.86
12/28/2021 3:00:00 PM 3.57 38.426 0.099 7.53 19.44 13.75
12/28/2021 3:15:00 PM 3.57 38.426 0.099 7.51 19.56 13.65
12/28/2021 3:30:00 PM 3.56 38.408 0.099 7.49 20.03 13.56
12/28/2021 3:45:00 PM 3.55 38.39 0.099 7.46 19.5 13.48
12/28/2021 4:00:00 PM 3.54 38.372 0.099 7.44 19.69 13.43
12/28/2021 4:15:00 PM 3.54 38.372 0.099 7.43 19.86 13.38
12/28/2021 4:30:00 PM 3.54 38.372 0.099 7.41 19.53 13.33
12/28/2021 4:45:00 PM 3.55 38.39 0.099 7.39 19.96 13.27
12/28/2021 5:00:00 PM 3.56 38.408 0.099 7.37 19.75 13.23
12/28/2021 5:15:00 PM 3.57 38.426 0.099 7.36 19.95 13.19
12/28/2021 5:30:00 PM 3.58 38.444 0.099 7.35 20 13.16
12/28/2021 5:45:00 PM 3.6 38.48 0.099 7.33 19.99 13.13
12/28/2021 6:00:00 PM 3.6 38.48 0.099 7.33 19.56 13.12
12/28/2021 6:15:00 PM 3.61 38.498 0.099 7.32 19.82 13.11
12/28/2021 6:30:00 PM 3.58 38.444 0.098 7.31 20.41 13.1
12/28/2021 6:45:00 PM 3.51 38.318 0.098 7.31 20.09 13.1
12/28/2021 7:00:00 PM 3.41 38.138 0.098 7.3 20.06 13.11
12/28/2021 7:15:00 PM 3.35 38.03 0.098 7.3 20.25 13.11
12/28/2021 7:30:00 PM 3.24 37.832 0.098 7.29 20.15 13.12
12/28/2021 7:45:00 PM 3.1 37.58 0.098 7.29 19.98 13.14
12/28/2021 8:00:00 PM 3.03 37.454 0.098 7.29 20.02 13.17
12/28/2021 8:15:00 PM 2.98 37.364 0.098 7.29 20.28 13.19
12/28/2021 8:30:00 PM 2.92 37.256 0.097 7.28 19.75 13.21
12/28/2021 8:45:00 PM 2.61 36.698 0.097 7.28 20.33 13.25
12/28/2021 9:00:00 PM 2.55 36.59 0.097 7.28 20.66 13.29
12/28/2021 9:15:00 PM 2.59 36.662 0.097 7.27 20.44 13.34
12/28/2021 9:30:00 PM 2.62 36.716 0.098 7.28 20.41 13.36
12/28/2021 9:45:00 PM 2.63 36.734 0.098 7.27 20.34 13.37
12/28/2021 10:00:00 PM 2.68 36.824 0.098 7.27 20.37 13.37
12/28/2021 10:15:00 PM 2.7 36.86 0.098 7.27 20.67 13.38
12/28/2021 10:30:00 PM 2.67 36.806 0.098 7.27 20.58 13.39
12/28/2021 10:45:00 PM 2.66 36.788 0.098 7.27 20.65 13.39
12/28/2021 11:00:00 PM 2.66 36.788 0.098 7.26 5.74 13.4
12/28/2021 11:15:00 PM 2.66 36.788 0.098 7.27 5.49 13.4
12/28/2021 11:30:00 PM 2.66 36.788 0.098 7.27 5.77 13.4
12/28/2021 11:45:00 PM 2.67 36.806 0.098 7.27 6.05 13.4
12/29/2021 12:00:00 AM 2.69 36.842 0.098 7.26 5.32 13.4
12/29/2021 12:15:00 AM 2.71 36.878 0.098 7.27 5.64 13.39
12/29/2021 12:30:00 AM 2.72 36.896 0.098 7.26 5.56 13.38
12/29/2021 12:45:00 AM 2.74 36.932 0.098 7.27 5.32 13.37
12/29/2021 1:00:00 AM 2.77 36.986 0.098 7.26 5.5 13.36
12/29/2021 1:15:00 AM 2.79 37.022 0.098 7.26 7.58 13.35
12/29/2021 1:30:00 AM 2.81 37.058 0.098 7.26 8.28 13.34
12/29/2021 1:45:00 AM 2.83 37.094 0.098 7.26 7.61 13.33
12/29/2021 2:00:00 AM 2.84 37.112 0.098 7.26 7.95 13.32
12/29/2021 2:15:00 AM 2.85 37.13 0.098 7.26 7.54 13.31
12/29/2021 2:30:00 AM 2.86 37.148 0.098 7.26 7.8 13.31
12/29/2021 2:45:00 AM 2.87 37.166 0.098 7.26 8.19 13.31
12/29/2021 3:00:00 AM 2.87 37.166 0.098 7.26 9.33 13.31
12/29/2021 3:15:00 AM 2.88 37.184 0.098 7.26 7.9 13.31
12/29/2021 3:30:00 AM 2.89 37.202 0.099 7.26 9.34 13.31
12/29/2021 3:45:00 AM 2.89 37.202 0.099 7.26 8.81 13.31
12/29/2021 4:00:00 AM 2.9 37.22 0.099 7.26 8.91 13.3
12/29/2021 4:15:00 AM 2.91 37.238 0.099 7.26 8.62 13.3
12/29/2021 4:30:00 AM 2.92 37.256 0.099 7.26 7.61 13.3
12/29/2021 4:45:00 AM 2.93 37.274 0.1 7.25 8.82 13.29
12/29/2021 5:00:00 AM 2.94 37.292 0.1 7.26 8.43 13.29
12/29/2021 5:15:00 AM 2.95 37.31 0.1 7.25 8.46 13.28
12/29/2021 5:30:00 AM 2.96 37.328 0.1 7.25 8.32 13.28
12/29/2021 5:45:00 AM 2.97 37.346 0.101 7.26 7.42 13.27
12/29/2021 6:00:00 AM 2.98 37.364 0.101 7.26 8.32 13.27
12/29/2021 6:15:00 AM 2.99 37.382 0.101 7.26 7.73 13.27
12/29/2021 6:30:00 AM 3.01 37.418 0.102 7.26 7.63 13.27
12/29/2021 6:45:00 AM 3.02 37.436 0.102 7.26 7.75 13.26
12/29/2021 7:00:00 AM 3.02 37.436 0.103 7.26 7.8 13.27
12/29/2021 7:15:00 AM 3.04 37.472 0.103 7.26 9.22 13.26
12/29/2021 7:30:00 AM 3.04 37.472 0.103 7.25 7.05 13.27
12/29/2021 7:45:00 AM 3.05 37.49 0.104 7.25 8.72 13.27
12/29/2021 8:00:00 AM 3.07 37.526 0.104 7.26 7.58 13.28
12/29/2021 8:15:00 AM 3.08 37.544 0.104 7.26 8.93 13.29
12/29/2021 8:30:00 AM 3.09 37.562 0.104 7.26 7.51 13.32
12/29/2021 8:45:00 AM 3.11 37.598 0.104 7.27 7.95 13.39
12/29/2021 9:00:00 AM 3.12 37.616 0.104 7.28 7.74 13.45
12/29/2021 9:15:00 AM 3.15 37.67 0.104 7.29 9.02 13.54
12/29/2021 9:30:00 AM 3.17 37.706 0.104 7.31 8.08 13.61
12/29/2021 9:45:00 AM 3.2 37.76 0.104 7.32 8.69 13.68
12/29/2021 10:00:00 AM 3.23 37.814 0.105 7.34 7.89 13.74
12/29/2021 10:15:00 AM 3.26 37.868 0.105 7.35 8.01 13.77
12/29/2021 10:30:00 AM 3.29 37.922 0.105 7.38 9.21 13.82
12/29/2021 10:45:00 AM 3.34 38.012 0.105 7.39 7.59 13.88
12/29/2021 11:00:00 AM 3.39 38.102 0.105 7.41 7.24 13.92
12/29/2021 11:15:00 AM 3.42 38.156 0.105 7.43 8.36 13.93
12/29/2021 11:30:00 AM 3.46 38.228 0.105 7.44 8.52 13.91
12/29/2021 11:45:00 AM 3.51 38.318 0.105 7.45 8.36 13.93
12/29/2021 12:00:00 PM 3.56 38.408 0.105 7.47 7.71 13.95
12/29/2021 12:15:00 PM 3.6 38.48 0.106 7.48 7.75 13.91
12/29/2021 12:30:00 PM 3.63 38.534 0.106 7.48 5.01 13.87
12/29/2021 12:45:00 PM 3.67 38.606 0.106 7.48 4.75 13.85
12/29/2021 1:00:00 PM 3.7 38.66 0.106 7.49 5.05 13.84
12/29/2021 1:15:00 PM 3.75 38.75 0.107 7.49 5.33 13.85
12/29/2021 1:30:00 PM 3.8 38.84 0.107 7.51 4.95 13.85
12/29/2021 1:45:00 PM 3.84 38.912 0.107 7.51 4.71 13.84
12/29/2021 2:00:00 PM 3.88 38.984 0.107 7.52 4.78 13.83
12/29/2021 2:15:00 PM 3.92 39.056 0.108 7.53 4.71 13.8
12/29/2021 2:30:00 PM 3.96 39.128 0.108 7.53 4.75 13.77
12/29/2021 2:45:00 PM 3.99 39.182 0.108 7.53 4.74 13.74
12/29/2021 3:00:00 PM 4.03 39.254 0.108 7.53 4.72 13.73
12/29/2021 3:15:00 PM 4.06 39.308 0.108 7.53 4.85 13.68
12/29/2021 3:30:00 PM 4.09 39.362 0.109 7.52 4.71 13.65
12/29/2021 3:45:00 PM 4.11 39.398 0.109 7.52 4.85 13.59
12/29/2021 4:00:00 PM 4.13 39.434 0.109 7.5 4.73 13.48
12/29/2021 4:15:00 PM 4.15 39.47 0.109 7.48 4.73 13.38
12/29/2021 4:30:00 PM 4.16 39.488 0.11 7.46 4.73 13.27
12/29/2021 4:45:00 PM 4.17 39.506 0.11 7.44 4.8 13.16
12/29/2021 5:00:00 PM 4.18 39.524 0.11 7.41 5.21 13.09
12/29/2021 5:15:00 PM 4.19 39.542 0.11 7.39 4.93 13.04
12/29/2021 5:30:00 PM 4.19 39.542 0.111 7.38 4.95 12.99
12/29/2021 5:45:00 PM 4.2 39.56 0.111 7.36 4.91 12.97
12/29/2021 6:00:00 PM 4.21 39.578 0.112 7.35 4.79 12.95
12/29/2021 6:15:00 PM 4.21 39.578 0.112 7.34 5.08 12.94
12/29/2021 6:30:00 PM 4.22 39.596 0.113 7.33 5.09 12.94
12/29/2021 6:45:00 PM 4.22 39.596 0.113 7.33 4.94 12.93
12/29/2021 7:00:00 PM 4.22 39.596 0.114 7.32 4.98 12.92
12/29/2021 7:15:00 PM 4.23 39.614 0.114 7.31 5.01 12.91
12/29/2021 7:30:00 PM 4.23 39.614 0.115 7.3 4.89 12.91
12/29/2021 7:45:00 PM 4.23 39.614 0.115 7.3 5.13 12.91
12/29/2021 8:00:00 PM 4.24 39.632 0.116 7.3 7.65 12.91
12/29/2021 8:15:00 PM 4.24 39.632 0.116 7.3 4.64 12.91
12/29/2021 8:30:00 PM 4.25 39.65 0.116 7.29 4.78 12.9
12/29/2021 8:45:00 PM 4.25 39.65 0.117 7.3 4.89 12.9
12/29/2021 9:00:00 PM 4.26 39.668 0.117 7.3 4.9 12.9
12/29/2021 9:15:00 PM 4.26 39.668 0.118 7.3 4.74 12.9
12/29/2021 9:30:00 PM 4.27 39.686 0.118 7.29 4.89 12.89
12/29/2021 9:45:00 PM 4.27 39.686 0.118 7.29 8.26 12.89
12/29/2021 10:00:00 PM 4.28 39.704 0.119 7.29 4.7 12.88
12/29/2021 10:15:00 PM 4.28 39.704 0.119 7.29 4.83 12.88
12/29/2021 10:30:00 PM 4.28 39.704 0.12 7.29 7.67 12.88
12/29/2021 10:45:00 PM 4.29 39.722 0.12 7.29 4.84 12.89
12/29/2021 11:00:00 PM 4.29 39.722 0.12 7.29 4.66 12.89
12/29/2021 11:15:00 PM 4.29 39.722 0.121 7.29 5.19 12.88
12/29/2021 11:30:00 PM 4.29 39.722 0.121 7.29 4.8 12.88
12/29/2021 11:45:00 PM 4.3 39.74 0.122 7.29 5.13 12.88
12/30/2021 12:00:00 AM 4.3 39.74 0.122 7.29 5.17 12.88
12/30/2021 12:15:00 AM 4.3 39.74 0.122 7.29 4.83 12.88
12/30/2021 12:30:00 AM 4.3 39.74 0.123 7.29 4.81 12.87
12/30/2021 12:45:00 AM 4.3 39.74 0.123 7.29 4.77 12.87
12/30/2021 1:00:00 AM 4.3 39.74 0.124 7.29 4.87 12.87
12/30/2021 1:15:00 AM 4.3 39.74 0.124 7.29 5.02 12.86
12/30/2021 1:30:00 AM 4.3 39.74 0.124 7.29 4.89 12.86
12/30/2021 1:45:00 AM 4.31 39.758 0.125 7.29 4.81 12.86
12/30/2021 2:00:00 AM 4.31 39.758 0.125 7.29 4.87 12.86
12/30/2021 2:15:00 AM 4.31 39.758 0.126 7.29 4.82 12.86
12/30/2021 2:30:00 AM 4.31 39.758 0.126 7.29 4.98 12.85
12/30/2021 2:45:00 AM 4.31 39.758 0.127 7.29 4.73 12.86
12/30/2021 3:00:00 AM 4.31 39.758 0.127 7.29 4.76 12.85
12/30/2021 3:15:00 AM 4.31 39.758 0.128 7.29 4.87 12.85
12/30/2021 3:30:00 AM 4.31 39.758 0.129 7.29 4.82 12.85
12/30/2021 3:45:00 AM 4.31 39.758 0.129 7.29 5.01 12.85
12/30/2021 4:00:00 AM 4.31 39.758 0.13 7.29 5.14 12.85
12/30/2021 4:15:00 AM 4.32 39.776 0.13 7.29 5.04 12.84
12/30/2021 4:30:00 AM 4.32 39.776 0.131 7.29 5.05 12.84
12/30/2021 4:45:00 AM 4.32 39.776 0.131 7.29 5.19 12.83
12/30/2021 5:00:00 AM 4.33 39.794 0.132 7.29 5.16 12.83
12/30/2021 5:15:00 AM 4.33 39.794 0.132 7.29 5.31 12.82
12/30/2021 5:30:00 AM 4.33 39.794 0.132 7.29 5.41 12.82
12/30/2021 5:45:00 AM 4.34 39.812 0.132 7.29 8.07 12.83
12/30/2021 6:00:00 AM 4.34 39.812 0.133 7.29 5.32 12.83
12/30/2021 6:15:00 AM 4.35 39.83 0.133 7.29 5.36 12.83
12/30/2021 6:30:00 AM 4.35 39.83 0.133 7.3 5.19 12.82
12/30/2021 6:45:00 AM 4.36 39.848 0.133 7.29 5.34 12.82
12/30/2021 7:00:00 AM 4.36 39.848 0.133 7.29 5.39 12.82
12/30/2021 7:15:00 AM 4.36 39.848 0.133 7.29 5.45 12.82
12/30/2021 7:30:00 AM 4.37 39.866 0.133 7.29 5.53 12.81
12/30/2021 7:45:00 AM 4.37 39.866 0.133 7.29 5.38 12.82
12/30/2021 8:00:00 AM 4.38 39.884 0.133 7.29 5.39 12.83
12/30/2021 8:15:00 AM 4.39 39.902 0.133 7.29 5.39 12.85
12/30/2021 8:30:00 AM 4.4 39.92 0.133 7.3 5.37 12.88
12/30/2021 8:45:00 AM 4.41 39.938 0.133 7.3 5.78 12.92
12/30/2021 9:00:00 AM 4.42 39.956 0.132 7.31 5.58 12.94
12/30/2021 9:15:00 AM 4.43 39.974 0.132 7.32 5.82 12.97
12/30/2021 9:30:00 AM 4.44 39.992 0.132 7.32 6.56 13.02
12/30/2021 9:45:00 AM 4.46 40.028 0.131 7.34 5.95 13.07
12/30/2021 10:00:00 AM 4.48 40.064 0.131 7.35 5.96 13.12
12/30/2021 10:15:00 AM 4.51 40.118 0.131 7.36 5.8 13.2
12/30/2021 10:30:00 AM 4.54 40.172 0.13 7.38 5.83 13.26
12/30/2021 10:45:00 AM 4.57 40.226 0.13 7.39 6.08 13.3
12/30/2021 11:00:00 AM 4.59 40.262 0.13 7.4 5.86 13.31
12/30/2021 11:15:00 AM 4.63 40.334 0.129 7.42 5.85 13.35
12/30/2021 11:30:00 AM 4.66 40.388 0.129 7.43 5.77 13.37
12/30/2021 11:45:00 AM 4.71 40.478 0.129 7.45 5.92 13.43
12/30/2021 12:00:00 PM 4.76 40.568 0.128 7.47 5.59 13.44
12/30/2021 12:15:00 PM 4.8 40.64 0.128 7.48 5.76 13.45
12/30/2021 12:30:00 PM 4.83 40.694 0.128 7.49 5.36 13.42
12/30/2021 12:45:00 PM 4.86 40.748 0.128 7.5 5.39 13.38
12/30/2021 1:00:00 PM 4.89 40.802 0.127 7.5 5.52 13.37
12/30/2021 1:15:00 PM 4.92 40.856 0.127 7.51 5.32 13.36
12/30/2021 1:30:00 PM 4.94 40.892 0.127 7.5 5.45 13.3
12/30/2021 1:45:00 PM 4.96 40.928 0.126 7.5 5.1 13.29
12/30/2021 2:00:00 PM 4.99 40.982 0.126 7.51 5.1 13.27
12/30/2021 2:15:00 PM 5.02 41.036 0.126 7.51 4.69 13.23
12/30/2021 2:30:00 PM 5.04 41.072 0.125 7.5 4.82 13.21
12/30/2021 2:45:00 PM 5.06 41.108 0.125 7.5 4.81 13.14
12/30/2021 3:00:00 PM 5.08 41.144 0.125 7.48 4.75 13.08
12/30/2021 3:15:00 PM 5.09 41.162 0.124 7.47 4.81 12.99
12/30/2021 3:30:00 PM 5.1 41.18 0.124 7.46 4.8 12.91
12/30/2021 3:45:00 PM 5.11 41.198 0.124 7.44 7.23 12.88
12/30/2021 4:00:00 PM 5.13 41.234 0.124 7.43 4.87 12.87
12/30/2021 4:15:00 PM 5.15 41.27 0.123 7.42 5.02 12.82
12/30/2021 4:30:00 PM 5.15 41.27 0.123 7.4 4.86 12.77
12/30/2021 4:45:00 PM 5.16 41.288 0.123 7.39 5.15 12.7
12/30/2021 5:00:00 PM 5.17 41.306 0.123 7.37 4.97 12.65
12/30/2021 5:15:00 PM 5.18 41.324 0.123 7.36 4.75 12.61
12/30/2021 5:30:00 PM 5.19 41.342 0.122 7.35 4.93 12.58
12/30/2021 5:45:00 PM 5.19 41.342 0.122 7.34 5.03 12.57
12/30/2021 6:00:00 PM 5.19 41.342 0.122 7.33 4.82 12.54
12/30/2021 6:15:00 PM 5.2 41.36 0.122 7.32 5.02 12.54
12/30/2021 6:30:00 PM 5.2 41.36 0.122 7.32 4.79 12.53
12/30/2021 6:45:00 PM 5.2 41.36 0.122 7.3 5.02 12.53
12/30/2021 7:00:00 PM 5.21 41.378 0.122 7.3 4.77 12.52
12/30/2021 7:15:00 PM 5.22 41.396 0.122 7.3 5.05 12.52
12/30/2021 7:30:00 PM 5.22 41.396 0.122 7.3 4.92 12.51
12/30/2021 7:45:00 PM 5.23 41.414 0.121 7.29 5.14 12.51
12/30/2021 8:00:00 PM 5.23 41.414 0.121 7.29 4.99 12.5
12/30/2021 8:15:00 PM 5.23 41.414 0.121 7.28 5.58 12.5
12/30/2021 8:30:00 PM 5.24 41.432 0.121 7.28 6.07 12.5
12/30/2021 8:45:00 PM 5.24 41.432 0.121 7.28 5.21 12.5
12/30/2021 9:00:00 PM 5.23 41.414 0.121 7.28 4.89 12.49
12/30/2021 9:15:00 PM 5.23 41.414 0.121 7.27 4.77 12.49
12/30/2021 9:30:00 PM 5.22 41.396 0.121 7.28 4.98 12.49
12/30/2021 9:45:00 PM 5.22 41.396 0.121 7.27 5.06 12.5
12/30/2021 10:00:00 PM 5.21 41.378 0.121 7.27 4.9 12.5
12/30/2021 10:15:00 PM 5.21 41.378 0.121 7.27 4.76 12.5
12/30/2021 10:30:00 PM 5.21 41.378 0.121 7.27 4.89 12.5
12/30/2021 10:45:00 PM 5.21 41.378 0.121 7.27 5.15 12.5
12/30/2021 11:00:00 PM 5.21 41.378 0.121 7.27 4.94 12.5
12/30/2021 11:15:00 PM 5.22 41.396 0.12 7.27 4.74 12.5
12/30/2021 11:30:00 PM 5.22 41.396 0.12 7.26 277.23 12.5
12/30/2021 11:45:00 PM 5.23 41.414 0.12 7.26 4.73 12.5
12/31/2021 12:00:00 AM 5.23 41.414 0.12 7.26 5.96 12.5
12/31/2021 12:15:00 AM 5.23 41.414 0.12 7.26 4.75 12.49
12/31/2021 12:30:00 AM 5.23 41.414 0.12 7.26 4.78 12.5
12/31/2021 12:45:00 AM 5.23 41.414 0.12 7.27 5.12 12.5
12/31/2021 1:00:00 AM 5.24 41.432 0.12 7.26 4.77 12.5
12/31/2021 1:15:00 AM 5.24 41.432 0.12 7.26 5.11 12.49
12/31/2021 1:30:00 AM 5.24 41.432 0.12 7.26 4.87 12.49
12/31/2021 1:45:00 AM 5.24 41.432 0.12 7.26 4.94 12.49
12/31/2021 2:00:00 AM 5.25 41.45 0.12 7.26 6.02 12.49
12/31/2021 2:15:00 AM 5.25 41.45 0.12 7.26 4.98 12.49
12/31/2021 2:30:00 AM 5.25 41.45 0.12 7.26 5.07 12.49
12/31/2021 2:45:00 AM 5.25 41.45 0.12 7.26 5.03 12.49
12/31/2021 3:00:00 AM 5.25 41.45 0.12 7.26 5.45 12.49
12/31/2021 3:15:00 AM 5.25 41.45 0.12 7.26 10.03 12.5
12/31/2021 3:30:00 AM 5.25 41.45 0.12 7.26 5.17 12.49
12/31/2021 3:45:00 AM 5.25 41.45 0.12 7.26 5.12 12.5
12/31/2021 4:00:00 AM 5.25 41.45 0.12 7.26 5.1 12.5
12/31/2021 4:15:00 AM 5.25 41.45 0.121 7.26 5.56 12.49
12/31/2021 4:30:00 AM 5.25 41.45 0.121 7.26 5.65 12.5
12/31/2021 4:45:00 AM 5.25 41.45 0.121 7.26 5.17 12.49
12/31/2021 5:00:00 AM 5.25 41.45 0.121 7.27 5.26 12.49
12/31/2021 5:15:00 AM 5.25 41.45 0.121 7.26 5.67 12.49
12/31/2021 5:30:00 AM 5.25 41.45 0.121 7.27 5.18 12.49
12/31/2021 5:45:00 AM 5.25 41.45 0.121 7.27 5.55 12.48
12/31/2021 6:00:00 AM 5.25 41.45 0.121 7.27 9.22 12.48
12/31/2021 6:15:00 AM 5.24 41.432 0.121 7.27 8.53 12.48
12/31/2021 6:30:00 AM 5.24 41.432 0.121 7.27 8.55 12.48
12/31/2021 6:45:00 AM 5.24 41.432 0.121 7.27 5.58 12.49
12/31/2021 7:00:00 AM 5.24 41.432 0.121 7.27 5.4 12.49
12/31/2021 7:15:00 AM 5.24 41.432 0.121 7.27 5.66 12.49
12/31/2021 7:30:00 AM 5.23 41.414 0.121 7.28 5.37 12.5
12/31/2021 7:45:00 AM 5.23 41.414 0.121 7.27 5.47 12.52
12/31/2021 8:00:00 AM 5.22 41.396 0.121 7.28 5.42 12.55
12/31/2021 8:15:00 AM 5.23 41.414 0.12 7.28 5.5 12.64
12/31/2021 8:30:00 AM 5.24 41.432 0.12 7.3 5.47 12.71
12/31/2021 8:45:00 AM 5.25 41.45 0.12 7.31 5.41 12.77
12/31/2021 9:00:00 AM 5.27 41.486 0.12 7.33 5.29 12.87
12/31/2021 9:15:00 AM 5.3 41.54 0.12 7.35 5.33 12.96
12/31/2021 9:30:00 AM 5.36 41.648 0.12 7.37 5.26 13.07
12/31/2021 9:45:00 AM 5.38 41.684 0.12 7.4 5.08 13.09
12/31/2021 10:00:00 AM 5.39 41.702 0.12 7.41 5.47 13.08
12/31/2021 10:15:00 AM 5.4 41.72 0.12 7.42 5.11 13.09
12/31/2021 10:30:00 AM 5.43 41.774 0.12 7.44 5.44 13.11
12/31/2021 10:45:00 AM 5.44 41.792 0.12 7.45 5.06 13.1
12/31/2021 11:00:00 AM 5.48 41.864 0.121 7.46 5.14 13.12
12/31/2021 11:15:00 AM 5.57 42.026 0.121 7.48 5.21 13.16
12/31/2021 11:30:00 AM 5.67 42.206 0.121 7.5 5.01 13.2
12/31/2021 11:45:00 AM 5.79 42.422 0.121 7.52 5.07 13.23
12/31/2021 12:00:00 PM 5.87 42.566 0.121 7.54 5.27 13.21
12/31/2021 12:15:00 PM 5.92 42.656 0.121 7.55 5.33 13.14
12/31/2021 12:30:00 PM 6 42.8 0.12 7.56 4.94 13.18
12/31/2021 12:45:00 PM 6.06 42.908 0.12 7.57 4.95 13.17
12/31/2021 1:00:00 PM 6.08 42.944 0.12 7.58 4.86 13.16
12/31/2021 1:15:00 PM 6.18 43.124 0.12 7.6 5.1 13.16
12/31/2021 1:30:00 PM 6.26 43.268 0.12 7.61 5.21 13.1
12/31/2021 1:45:00 PM 6.33 43.394 0.12 7.61 5.15 13.06
12/31/2021 2:00:00 PM 6.38 43.484 0.12 7.62 5.7 13.02
12/31/2021 2:15:00 PM 6.46 43.628 0.12 7.62 5.78 13.02
12/31/2021 2:30:00 PM 6.54 43.772 0.12 7.63 5.31 13.01
12/31/2021 2:45:00 PM 6.58 43.844 0.12 7.64 5.29 12.98
12/31/2021 3:00:00 PM 6.62 43.916 0.119 7.64 5.37 12.96
12/31/2021 3:15:00 PM 6.65 43.97 0.119 7.64 5.33 12.88
12/31/2021 3:30:00 PM 6.65 43.97 0.119 7.62 6.03 12.75
12/31/2021 3:45:00 PM 6.65 43.97 0.119 7.6 5.25 12.64
12/31/2021 4:00:00 PM 6.64 43.952 0.119 7.57 5.42 12.57
12/31/2021 4:15:00 PM 6.61 43.898 0.119 7.54 5.36 12.47
12/31/2021 4:30:00 PM 6.58 43.844 0.119 7.51 5.67 12.37
12/31/2021 4:45:00 PM 6.55 43.79 0.119 7.48 5.43 12.28
12/31/2021 5:00:00 PM 6.53 43.754 0.119 7.46 76.66 12.2
12/31/2021 5:15:00 PM 6.51 43.718 0.119 7.43 5.29 12.16
12/31/2021 5:30:00 PM 6.5 43.7 0.119 7.41 5.91 12.13
12/31/2021 5:45:00 PM 6.49 43.682 0.118 7.39 6.24 12.11
12/31/2021 6:00:00 PM 6.48 43.664 0.118 7.37 8.27 12.1
12/31/2021 6:15:00 PM 6.47 43.646 0.118 7.36 5.43 12.09
12/31/2021 6:30:00 PM 6.46 43.628 0.118 7.35 6.22 12.08
12/31/2021 6:45:00 PM 6.45 43.61 0.118 7.34 5.81 12.08
12/31/2021 7:00:00 PM 6.44 43.592 0.117 7.33 7.31 12.08
12/31/2021 7:15:00 PM 6.44 43.592 0.117 7.32 6.44 12.07
12/31/2021 7:30:00 PM 6.44 43.592 0.117 7.32 7.34 12.06
12/31/2021 7:45:00 PM 6.45 43.61 0.117 7.31 7.07 12.06
12/31/2021 8:00:00 PM 6.45 43.61 0.117 7.31 10.26 12.05
12/31/2021 8:15:00 PM 6.46 43.628 0.116 7.3 8.7 12.05
12/31/2021 8:30:00 PM 6.46 43.628 0.116 7.3 35.53 12.04
12/31/2021 8:45:00 PM 6.47 43.646 0.116 7.3 9.66 12.04
12/31/2021 9:00:00 PM 6.47 43.646 0.116 7.29 15.75 12.04
12/31/2021 9:15:00 PM 6.47 43.646 0.116 7.29 13.74 12.04
12/31/2021 9:30:00 PM 6.47 43.646 0.116 7.29 6.23 12.04
12/31/2021 9:45:00 PM 6.46 43.628 0.115 7.29 5.97 12.03
12/31/2021 10:00:00 PM 6.46 43.628 0.115 7.29 5.41 12.03
12/31/2021 10:15:00 PM 6.46 43.628 0.115 7.29 4.92 12.04
12/31/2021 10:30:00 PM 6.45 43.61 0.115 7.29 4.96 12.03
12/31/2021 10:45:00 PM 6.46 43.628 0.115 7.29 15.82 12.03
12/31/2021 11:00:00 PM 6.46 43.628 0.115 7.28 118.89 12.03
12/31/2021 11:15:00 PM 6.45 43.61 0.115 7.29 21.4 12.03
12/31/2021 11:30:00 PM 6.45 43.61 0.115 7.28 8.94 12.03
12/31/2021 11:45:00 PM 6.44 43.592 0.115 7.28 54.91 12.03
1/1/2022 12:00:00 AM 6.44 43.592 0.114 7.28 211.9 12.02
1/1/2022 12:15:00 AM 6.45 43.61 0.114 7.28 53.54 12.02
1/1/2022 12:30:00 AM 6.45 43.61 0.114 7.28 44.42 12.02
1/1/2022 12:45:00 AM 6.45 43.61 0.114 7.28 5.59 12.01
1/1/2022 1:00:00 AM 6.45 43.61 0.114 7.28 13.39 12.01
1/1/2022 1:15:00 AM 6.46 43.628 0.114 7.28 7.81 12.01
1/1/2022 1:30:00 AM 6.46 43.628 0.114 7.27 9.12 12.01
1/1/2022 1:45:00 AM 6.47 43.646 0.114 7.28 14.1 12.01
1/1/2022 2:00:00 AM 6.47 43.646 0.113 7.28 9.4 12.01
1/1/2022 2:15:00 AM 6.48 43.664 0.113 7.28 6.13 12
1/1/2022 2:30:00 AM 6.48 43.664 0.113 7.28 8.58 12
1/1/2022 2:45:00 AM 6.48 43.664 0.113 7.28 10.7 11.99
1/1/2022 3:00:00 AM 6.49 43.682 0.113 7.28 12.84 12
1/1/2022 3:15:00 AM 6.49 43.682 0.113 7.28 4.96 11.99
1/1/2022 3:30:00 AM 6.49 43.682 0.113 7.27 10.78 11.99
1/1/2022 3:45:00 AM 6.5 43.7 0.113 7.27 10.62 11.99
1/1/2022 4:00:00 AM 6.5 43.7 0.113 7.27 8.36 11.99
1/1/2022 4:15:00 AM 6.5 43.7 0.113 7.27 10.86 11.99
1/1/2022 4:30:00 AM 6.5 43.7 0.113 7.27 7.61 11.98
1/1/2022 4:45:00 AM 6.5 43.7 0.113 7.28 5.36 11.98
1/1/2022 5:00:00 AM 6.5 43.7 0.113 7.28 5.56 11.97
1/1/2022 5:15:00 AM 6.5 43.7 0.113 7.27 5.52 11.98
1/1/2022 5:30:00 AM 6.5 43.7 0.113 7.28 5.58 11.97
1/1/2022 5:45:00 AM 6.51 43.718 0.113 7.27 5.52 11.98
1/1/2022 6:00:00 AM 6.51 43.718 0.113 7.28 5.51 11.97
1/1/2022 6:15:00 AM 6.51 43.718 0.113 7.27 5.68 11.97
1/1/2022 6:30:00 AM 6.51 43.718 0.113 7.27 5.52 11.97
1/1/2022 6:45:00 AM 6.51 43.718 0.112 7.27 5.5 11.97
1/1/2022 7:00:00 AM 6.52 43.736 0.112 7.27 5.65 11.97
1/1/2022 7:15:00 AM 6.52 43.736 0.112 7.27 5.64 11.97
1/1/2022 7:30:00 AM 6.52 43.736 0.112 7.27 5.52 11.97
1/1/2022 7:45:00 AM 6.52 43.736 0.112 7.27 5.6 11.97
1/1/2022 8:00:00 AM 6.52 43.736 0.112 7.28 5.45 12
1/1/2022 8:15:00 AM 6.53 43.754 0.112 7.27 5.82 12.02
1/1/2022 8:30:00 AM 6.53 43.754 0.112 7.28 5.77 12.05
1/1/2022 8:45:00 AM 6.54 43.772 0.112 7.28 5.61 12.07
1/1/2022 9:00:00 AM 6.55 43.79 0.112 7.29 5.45 12.12
1/1/2022 9:15:00 AM 6.57 43.826 0.111 7.3 5.92 12.18
1/1/2022 9:30:00 AM 6.59 43.862 0.111 7.31 5.39 12.25
1/1/2022 9:45:00 AM 6.62 43.916 0.111 7.33 5.78 12.33
1/1/2022 10:00:00 AM 6.64 43.952 0.111 7.35 5.57 12.39
1/1/2022 10:15:00 AM 6.67 44.006 0.111 7.36 5.77 12.45
1/1/2022 10:30:00 AM 6.71 44.078 0.111 7.39 5.58 12.5
1/1/2022 10:45:00 AM 6.73 44.114 0.11 7.4 5.73 12.51
1/1/2022 11:00:00 AM 6.76 44.168 0.11 7.41 5.77 12.48
1/1/2022 11:15:00 AM 6.79 44.222 0.11 7.42 5.51 12.51
1/1/2022 11:30:00 AM 6.83 44.294 0.11 7.44 5.83 12.58
1/1/2022 11:45:00 AM 6.86 44.348 0.11 7.45 5.69 12.59
1/1/2022 12:00:00 PM 6.89 44.402 0.11 7.47 5.77 12.6
1/1/2022 12:15:00 PM 6.92 44.456 0.11 7.48 5.6 12.59
1/1/2022 12:30:00 PM 6.95 44.51 0.11 7.5 5.54 12.61
1/1/2022 12:45:00 PM 6.99 44.582 0.109 7.5 5.59 12.62
1/1/2022 1:00:00 PM 7.03 44.654 0.109 7.51 5.83 12.62
1/1/2022 1:15:00 PM 7.08 44.744 0.109 7.53 5.67 12.63
1/1/2022 1:30:00 PM 7.11 44.798 0.109 7.53 5.68 12.59
1/1/2022 1:45:00 PM 7.14 44.852 0.109 7.54 5.65 12.56
1/1/2022 2:00:00 PM 7.18 44.924 0.109 7.55 5.91 12.53
1/1/2022 2:15:00 PM 7.19 44.942 0.109 7.54 5.71 12.47
1/1/2022 2:30:00 PM 7.2 44.96 0.109 7.53 5.47 12.42
1/1/2022 2:45:00 PM 7.21 44.978 0.108 7.52 5.69 12.32
1/1/2022 3:00:00 PM 7.21 44.978 0.108 7.5 5.8 12.24
1/1/2022 3:15:00 PM 7.22 44.996 0.108 7.49 5.71 12.16
1/1/2022 3:30:00 PM 7.23 45.014 0.108 7.46 5.75 12.1
1/1/2022 3:45:00 PM 7.23 45.014 0.108 7.44 5.71 12.06
1/1/2022 4:00:00 PM 7.24 45.032 0.108 7.42 5.81 11.99
1/1/2022 4:15:00 PM 7.25 45.05 0.108 7.4 6.75 11.94
1/1/2022 4:30:00 PM 7.25 45.05 0.108 7.39 7.09 11.89
1/1/2022 4:45:00 PM 7.25 45.05 0.107 7.37 6.82 11.84
1/1/2022 5:00:00 PM 7.25 45.05 0.107 7.36 6.85 11.8
1/1/2022 5:15:00 PM 7.24 45.032 0.107 7.34 6.66 11.76
1/1/2022 5:30:00 PM 7.24 45.032 0.107 7.33 6.13 11.74
1/1/2022 5:45:00 PM 7.23 45.014 0.107 7.32 6.18 11.74
1/1/2022 6:00:00 PM 7.23 45.014 0.107 7.31 6.64 11.73
1/1/2022 6:15:00 PM 7.22 44.996 0.107 7.29 5.67 11.72
1/1/2022 6:30:00 PM 7.21 44.978 0.107 7.29 5.92 11.72
1/1/2022 6:45:00 PM 7.2 44.96 0.107 7.28 6.94 11.72
1/1/2022 7:00:00 PM 7.2 44.96 0.107 7.27 7.5 11.71
1/1/2022 7:15:00 PM 7.19 44.942 0.106 7.27 7.28 11.71
1/1/2022 7:30:00 PM 7.19 44.942 0.106 7.27 6.1 11.71
1/1/2022 7:45:00 PM 7.18 44.924 0.106 7.26 6.97 11.71
1/1/2022 8:00:00 PM 7.18 44.924 0.106 7.26 9.65 11.71
1/1/2022 8:15:00 PM 7.17 44.906 0.106 7.26 6.49 11.71
1/1/2022 8:30:00 PM 7.17 44.906 0.106 7.25 6.22 11.71
1/1/2022 8:45:00 PM 7.16 44.888 0.106 7.25 6.12 11.71
1/1/2022 9:00:00 PM 7.16 44.888 0.106 7.24 6.33 11.71
1/1/2022 9:15:00 PM 7.16 44.888 0.106 7.24 6.62 11.7
1/1/2022 9:30:00 PM 7.16 44.888 0.106 7.25 10.4 11.7
1/1/2022 9:45:00 PM 7.15 44.87 0.106 7.25 7.25 11.7
1/1/2022 10:00:00 PM 7.15 44.87 0.106 7.25 6.16 11.7
1/1/2022 10:15:00 PM 7.14 44.852 0.106 7.25 6.39 11.7
1/1/2022 10:30:00 PM 7.13 44.834 0.106 7.24 6.8 11.7
1/1/2022 10:45:00 PM 7.13 44.834 0.106 7.24 7.04 11.7
1/1/2022 11:00:00 PM 7.12 44.816 0.105 7.24 7.13 11.7
1/1/2022 11:15:00 PM 7.12 44.816 0.105 7.25 6.38 11.7
1/1/2022 11:30:00 PM 7.12 44.816 0.105 7.24 6.79 11.7
1/1/2022 11:45:00 PM 7.12 44.816 0.105 7.24 11.27 11.7
1/2/2022 12:00:00 AM 7.12 44.816 0.105 7.24 6.34 11.7
1/2/2022 12:15:00 AM 7.13 44.834 0.105 7.24 6.6 11.7
1/2/2022 12:30:00 AM 7.12 44.816 0.105 7.25 6.08 11.71
1/2/2022 12:45:00 AM 7.1 44.78 0.105 7.25 7.83 11.71
1/2/2022 1:00:00 AM 7.09 44.762 0.105 7.25 7.16 11.72
1/2/2022 1:15:00 AM 7.06 44.708 0.105 7.25 7.99 11.73
1/2/2022 1:30:00 AM 7.04 44.672 0.105 7.25 6.91 11.74
1/2/2022 1:45:00 AM 7.02 44.636 0.105 7.25 8.02 11.75
1/2/2022 2:00:00 AM 7 44.6 0.105 7.26 7.74 11.74
1/2/2022 2:15:00 AM 6.98 44.564 0.105 7.26 11.66 11.75
1/2/2022 2:30:00 AM 6.96 44.528 0.105 7.26 7.55 11.76
1/2/2022 2:45:00 AM 6.94 44.492 0.106 7.26 8.21 11.77
1/2/2022 3:00:00 AM 6.91 44.438 0.105 7.26 7.55 11.77
1/2/2022 3:15:00 AM 6.89 44.402 0.106 7.26 8.22 11.78
1/2/2022 3:30:00 AM 6.86 44.348 0.106 7.26 7.8 11.79
1/2/2022 3:45:00 AM 6.84 44.312 0.106 7.26 8.37 11.8
1/2/2022 4:00:00 AM 6.81 44.258 0.106 7.26 7.47 11.81
1/2/2022 4:15:00 AM 6.79 44.222 0.106 7.27 8.23 11.82
1/2/2022 4:30:00 AM 6.76 44.168 0.107 7.26 8.32 11.83
1/2/2022 4:45:00 AM 6.74 44.132 0.107 7.27 8.13 11.84
1/2/2022 5:00:00 AM 6.72 44.096 0.107 7.27 7.18 11.85
1/2/2022 5:15:00 AM 6.69 44.042 0.108 7.26 9.92 11.85
1/2/2022 5:30:00 AM 6.67 44.006 0.108 7.27 14.04 11.86
1/2/2022 5:45:00 AM 6.64 43.952 0.108 7.27 13.38 11.87
1/2/2022 6:00:00 AM 6.61 43.898 0.108 7.27 9.94 11.88
1/2/2022 6:15:00 AM 6.58 43.844 0.108 7.27 8.98 11.9
1/2/2022 6:30:00 AM 6.55 43.79 0.109 7.27 8.85 11.91
1/2/2022 6:45:00 AM 6.52 43.736 0.109 7.27 7.25 11.92
1/2/2022 7:00:00 AM 6.49 43.682 0.109 7.28 9.66 11.93
1/2/2022 7:15:00 AM 6.47 43.646 0.11 7.27 8 11.94
1/2/2022 7:30:00 AM 6.44 43.592 0.111 7.27 8.57 11.96
1/2/2022 7:45:00 AM 6.41 43.538 0.111 7.27 10.61 11.98
1/2/2022 8:00:00 AM 6.38 43.484 0.112 7.28 9.57 12
1/2/2022 8:15:00 AM 6.35 43.43 0.112 7.28 8.13 12.04
1/2/2022 8:30:00 AM 6.33 43.394 0.113 7.3 9.17 12.12
1/2/2022 8:45:00 AM 6.3 43.34 0.113 7.31 9.17 12.19
1/2/2022 9:00:00 AM 6.29 43.322 0.113 7.32 7.12 12.27
1/2/2022 9:15:00 AM 6.28 43.304 0.114 7.33 8.13 12.36
1/2/2022 9:30:00 AM 6.28 43.304 0.114 7.35 7.7 12.43
1/2/2022 9:45:00 AM 6.27 43.286 0.114 7.37 8 12.47
1/2/2022 10:00:00 AM 6.26 43.268 0.115 7.38 6.54 12.48
1/2/2022 10:15:00 AM 6.25 43.25 0.115 7.39 6.9 12.52
1/2/2022 10:30:00 AM 6.24 43.232 0.115 7.41 6.76 12.55
1/2/2022 10:45:00 AM 6.21 43.178 0.115 7.41 6.8 12.49
1/2/2022 11:00:00 AM 6.19 43.142 0.116 7.41 6.54 12.53
1/2/2022 11:15:00 AM 6.18 43.124 0.116 7.43 6.42 12.61
1/2/2022 11:30:00 AM 6.18 43.124 0.116 7.44 6.7 12.67
1/2/2022 11:45:00 AM 6.16 43.088 0.116 7.45 6.76 12.69
1/2/2022 12:00:00 PM 6.14 43.052 0.116 7.46 6.47 12.68
1/2/2022 12:15:00 PM 6.13 43.034 0.116 7.47 6.86 12.71
1/2/2022 12:30:00 PM 6.12 43.016 0.116 7.48 6.9 12.72
1/2/2022 12:45:00 PM 6.11 42.998 0.116 7.48 7.74 12.75
1/2/2022 1:00:00 PM 6.13 43.034 0.116 7.5 6.54 12.81
1/2/2022 1:15:00 PM 6.15 43.07 0.116 7.51 6.63 12.83
1/2/2022 1:30:00 PM 6.14 43.052 0.116 7.52 9.34 12.81
1/2/2022 1:45:00 PM 6.12 43.016 0.116 7.52 7.82 12.78
1/2/2022 2:00:00 PM 6.11 42.998 0.116 7.52 6.73 12.79
1/2/2022 2:15:00 PM 6.08 42.944 0.117 7.52 7.7 12.75
1/2/2022 2:30:00 PM 6.05 42.89 0.117 7.51 8.66 12.71
1/2/2022 2:45:00 PM 6.02 42.836 0.117 7.5 7.2 12.67
1/2/2022 3:00:00 PM 5.98 42.764 0.117 7.5 7.29 12.63
1/2/2022 3:15:00 PM 5.94 42.692 0.117 7.48 7.51 12.63
1/2/2022 3:30:00 PM 5.91 42.638 0.117 7.47 6.61 12.62
1/2/2022 3:45:00 PM 5.87 42.566 0.117 7.46 7.16 12.59
1/2/2022 4:00:00 PM 5.82 42.476 0.117 7.46 7.15 12.56
1/2/2022 4:15:00 PM 5.75 42.35 0.117 7.44 6.46 12.53
1/2/2022 4:30:00 PM 5.71 42.278 0.117 7.43 6.62 12.5
1/2/2022 4:45:00 PM 5.65 42.17 0.117 7.41 7.21 12.47
1/2/2022 5:00:00 PM 5.6 42.08 0.117 7.4 8.16 12.46
1/2/2022 5:15:00 PM 5.55 41.99 0.117 7.39 7.26 12.44
1/2/2022 5:30:00 PM 5.51 41.918 0.117 7.38 11.08 12.44
1/2/2022 5:45:00 PM 5.46 41.828 0.117 7.36 6.64 12.44
1/2/2022 6:00:00 PM 5.42 41.756 0.117 7.36 11.56 12.46
1/2/2022 6:15:00 PM 5.36 41.648 0.117 7.35 9.92 12.47
1/2/2022 6:30:00 PM 5.31 41.558 0.117 7.35 9.58 12.49
1/2/2022 6:45:00 PM 5.25 41.45 0.117 7.34 6.83 12.5
1/2/2022 7:00:00 PM 5.19 41.342 0.117 7.34 12.3 12.53
1/2/2022 7:15:00 PM 5.15 41.27 0.117 7.33 13.39 12.54
1/2/2022 7:30:00 PM 5.11 41.198 0.117 7.33 8.28 12.56
1/2/2022 7:45:00 PM 5.06 41.108 0.117 7.32 11.95 12.57
1/2/2022 8:00:00 PM 5.02 41.036 0.117 7.33 6.24 12.6
1/2/2022 8:15:00 PM 4.97 40.946 0.117 7.32 9.42 12.63
1/2/2022 8:30:00 PM 4.91 40.838 0.117 7.32 12.45 12.64
1/2/2022 8:45:00 PM 4.86 40.748 0.116 7.32 7.41 12.65
1/2/2022 9:00:00 PM 4.82 40.676 0.116 7.32 8.43 12.67
1/2/2022 9:15:00 PM 4.77 40.586 0.116 7.31 8.13 12.69
1/2/2022 9:30:00 PM 4.72 40.496 0.116 7.32 88.9 12.71
1/2/2022 9:45:00 PM 4.67 40.406 0.116 7.31 59.64 12.74
1/2/2022 10:00:00 PM 4.62 40.316 0.116 7.31 16.26 12.75
1/2/2022 10:15:00 PM 4.59 40.262 0.116 7.31 7.12 12.76
1/2/2022 10:30:00 PM 4.56 40.208 0.116 7.31 6.19 12.78
1/2/2022 10:45:00 PM 4.52 40.136 0.116 7.3 6.05 12.79
1/2/2022 11:00:00 PM 4.47 40.046 0.116 7.31 75.19 12.82
1/2/2022 11:15:00 PM 4.42 39.956 0.116 7.3 20.96 12.83
1/2/2022 11:30:00 PM 4.37 39.866 0.116 7.3 6.22 12.85
1/2/2022 11:45:00 PM 4.32 39.776 0.116 7.31 6.03 12.87
1/3/2022 12:00:00 AM 4.27 39.686 0.116 7.3 34.77 12.89
1/3/2022 12:15:00 AM 4.22 39.596 0.115 7.31 7.06 12.9
1/3/2022 12:30:00 AM 4.17 39.506 0.115 7.3 68.98 12.93
1/3/2022 12:45:00 AM 4.12 39.416 0.115 7.3 47.52 12.95
1/3/2022 1:00:00 AM 4.09 39.362 0.115 7.3 13.71 12.96
1/3/2022 1:15:00 AM 4.05 39.29 0.115 7.3 6.75 12.98
1/3/2022 1:30:00 AM 4 39.2 0.115 7.3 36.6 13
1/3/2022 1:45:00 AM 3.95 39.11 0.115 7.3 10.93 13.02
1/3/2022 2:00:00 AM 3.91 39.038 0.115 7.29 9.55 13.05
1/3/2022 2:15:00 AM 3.86 38.948 0.115 7.29 13.63 13.07
1/3/2022 2:30:00 AM 3.81 38.858 0.115 7.3 22.85 13.09
1/3/2022 2:45:00 AM 3.77 38.786 0.115 7.29 61.45 13.11
1/3/2022 3:00:00 AM 3.73 38.714 0.114 7.29 31.85 13.12
1/3/2022 3:15:00 AM 3.68 38.624 0.114 7.3 6.37 13.14
1/3/2022 3:30:00 AM 3.64 38.552 0.114 7.29 39.46 13.16
1/3/2022 3:45:00 AM 3.58 38.444 0.114 7.29 74.47 13.18
1/3/2022 4:00:00 AM 3.54 38.372 0.114 7.29 6.38 13.2
1/3/2022 4:15:00 AM 3.51 38.318 0.114 7.29 38.13 13.21
1/3/2022 4:30:00 AM 3.47 38.246 0.114 7.29 46.27 13.23
1/3/2022 4:45:00 AM 3.4 38.12 0.114 7.29 124.61 13.26
1/3/2022 5:00:00 AM 3.36 38.048 0.113 7.29 9.71 13.27
1/3/2022 5:15:00 AM 3.3 37.94 0.113 7.28 14.45 13.29
1/3/2022 5:30:00 AM 3.23 37.814 0.113 7.28 6.98 13.31
1/3/2022 5:45:00 AM 3.17 37.706 0.113 7.29 10.39 13.33
1/3/2022 6:00:00 AM 3.1 37.58 0.113 7.28 45.76 13.35
1/3/2022 6:15:00 AM 3.05 37.49 0.113 7.28 53.16 13.37
1/3/2022 6:30:00 AM 3.01 37.418 0.113 7.28 23.96 13.39
1/3/2022 6:45:00 AM 2.95 37.31 0.113 7.28 10.03 13.42
1/3/2022 7:00:00 AM 2.9 37.22 0.113 7.28 63.56 13.44
1/3/2022 7:15:00 AM 2.84 37.112 0.112 7.28 6.33 13.46
1/3/2022 7:30:00 AM 2.78 37.004 0.112 7.28 5.71 13.49
1/3/2022 7:45:00 AM 2.73 36.914 0.112 7.28 6.11 13.52
1/3/2022 8:00:00 AM 2.68 36.824 0.112 7.28 18.68 13.56
1/3/2022 8:15:00 AM 2.61 36.698 0.112 7.29 116.5 13.6
1/3/2022 8:30:00 AM 2.55 36.59 0.112 7.29 36.7 13.67
1/3/2022 8:45:00 AM 2.5 36.5 0.112 7.29 19.95 13.75
1/3/2022 9:00:00 AM 2.46 36.428 0.111 7.3 11.95 13.82
1/3/2022 9:15:00 AM 2.42 36.356 0.111 7.31 7.78 13.9
1/3/2022 9:30:00 AM 2.38 36.284 0.111 7.32 74.41 13.99
1/3/2022 9:45:00 AM 2.35 36.23 0.111 7.33 7.66 14.07
1/3/2022 10:00:00 AM 2.33 36.194 0.111 7.35 6.18 14.14
1/3/2022 10:15:00 AM 2.32 36.176 0.11 7.36 7.31 14.19
1/3/2022 10:30:00 AM 2.32 36.176 0.11 7.37 11.11 14.23
1/3/2022 10:45:00 AM 2.33 36.194 0.11 7.38 6.37 14.28
1/3/2022 11:00:00 AM 2.33 36.194 0.11 7.39 6.71 14.29
1/3/2022 11:15:00 AM 2.32 36.176 0.11 7.4 9.73 14.32
1/3/2022 11:30:00 AM 2.32 36.176 0.109 7.41 6.53 14.34
1/3/2022 11:45:00 AM 2.32 36.176 0.109 7.42 6.25 14.35
1/3/2022 12:00:00 PM 2.33 36.194 0.109 7.42 146.65 14.36
1/3/2022 12:15:00 PM 2.35 36.23 0.109 7.43 6.33 14.36
1/3/2022 12:30:00 PM 2.37 36.266 0.109 7.44 5.68 14.37
1/3/2022 12:45:00 PM 2.4 36.32 0.109 7.44 5.99 14.36
1/3/2022 1:00:00 PM 2.4 36.32 0.108 7.44 52.59 14.35
1/3/2022 1:15:00 PM 2.43 36.374 0.108 7.45 6.86 14.35
1/3/2022 1:30:00 PM 2.41 36.338 0.108 7.45 5.37 14.34
1/3/2022 1:45:00 PM 2.41 36.338 0.108 7.45 7.07 14.33
1/3/2022 2:00:00 PM 2.41 36.338 0.108 7.45 102.87 14.32
1/3/2022 2:15:00 PM 2.38 36.284 0.108 7.45 158.81 14.28
1/3/2022 2:30:00 PM 2.37 36.266 0.107 7.44 8.11 14.24
1/3/2022 2:45:00 PM 2.36 36.248 0.107 7.44 74.68 14.19
1/3/2022 3:00:00 PM 2.34 36.212 0.107 7.43 16.35 14.15
1/3/2022 3:15:00 PM 2.33 36.194 0.107 7.42 44.42 14.12
1/3/2022 3:30:00 PM 2.32 36.176 0.107 7.42 42.32 14.1
1/3/2022 3:45:00 PM 2.29 36.122 0.107 7.41 12.59 14.09
1/3/2022 4:00:00 PM 2.26 36.068 0.107 7.4 9.88 14.06
1/3/2022 4:15:00 PM 2.2 35.96 0.107 7.39 10.67 14.07
1/3/2022 4:30:00 PM 2.16 35.888 0.107 7.39 36.44 14.06
1/3/2022 4:45:00 PM 2.1 35.78 0.106 7.38 11.31 14.03
1/3/2022 5:00:00 PM 2.04 35.672 0.107 7.36 39.24 13.99
1/3/2022 5:15:00 PM 1.95 35.51 0.106 7.36 56.1 13.98
1/3/2022 5:30:00 PM 1.88 35.384 0.106 7.34 102.47 13.97
1/3/2022 5:45:00 PM 1.81 35.258 0.106 7.33 37.64 13.98
1/3/2022 6:00:00 PM 1.75 35.15 0.106 7.32 10.56 13.99
1/3/2022 6:15:00 PM 1.7 35.06 0.106 7.25 49.74 14
1/3/2022 6:30:00 PM 1.64 34.952 0.106 7.25 68.53 14.03
1/3/2022 6:45:00 PM 1.58 34.844 0.106 7.22 7.96 14.05
1/3/2022 7:00:00 PM 1.52 34.736 0.106 7.24 9.27 14.06
1/3/2022 7:15:00 PM 1.47 34.646 0.106 7.25 41.53 14.08
1/3/2022 7:30:00 PM 1.41 34.538 0.106 7.26 27.7 14.1
1/3/2022 7:45:00 PM 1.36 34.448 0.106 7.26 10.52 14.13
1/3/2022 8:00:00 PM 1.32 34.376 0.105 7.27 9.15 14.15
1/3/2022 8:15:00 PM 1.28 34.304 0.105 7.27 9.14 14.18
1/3/2022 8:30:00 PM 1.23 34.214 0.105 7.27 5.92 14.19
1/3/2022 8:45:00 PM 1.17 34.106 0.105 7.27 6.2 14.21
1/3/2022 9:00:00 PM 1.12 34.016 0.105 7.26 7.32 14.24
1/3/2022 9:15:00 PM 1.07 33.926 0.105 7.27 6.74 14.26
1/3/2022 9:30:00 PM 1.02 33.836 0.105 7.26 20.14 14.29
1/3/2022 9:45:00 PM 0.98 33.764 0.105 7.26 10.87 14.31
1/3/2022 10:00:00 PM 0.93 33.674 0.105 7.26 65.71 14.33
1/3/2022 10:15:00 PM 0.89 33.602 0.105 7.26 39.94 14.34
1/3/2022 10:30:00 PM 0.85 33.53 0.105 7.26 5.51 14.37
1/3/2022 10:45:00 PM 0.81 33.458 0.105 7.26 6.04 14.39
1/3/2022 11:00:00 PM 0.76 33.368 0.105 7.26 22.33 14.4
1/3/2022 11:15:00 PM 0.72 33.296 0.105 7.26 29.57 14.43
1/3/2022 11:30:00 PM 0.67 33.206 0.105 7.27 8.89 14.45
1/3/2022 11:45:00 PM 0.64 33.152 0.104 7.26 11.46 14.47
1/4/2022 12:00:00 AM 0.6 33.08 0.104 7.26 16.96 14.48
1/4/2022 12:15:00 AM 0.56 33.008 0.104 7.25 12.03 14.49
1/4/2022 12:30:00 AM 0.53 32.954 0.104 7.26 192.5 14.51
1/4/2022 12:45:00 AM 0.49 32.882 0.104 7.26 11.94 14.53
1/4/2022 1:00:00 AM 0.45 32.81 0.104 7.25 16.2 14.55
1/4/2022 1:15:00 AM 0.41 32.738 0.104 7.25 68.5 14.56
1/4/2022 1:30:00 AM 0.38 32.684 0.104 7.25 73.31 14.58
1/4/2022 1:45:00 AM 0.36 32.648 0.104 7.25 53.79 14.6
1/4/2022 2:00:00 AM 0.33 32.594 0.104 7.25 11.09 14.61
1/4/2022 2:15:00 AM 0.3 32.54 0.104 7.24 12.32 14.63
1/4/2022 2:30:00 AM 0.28 32.504 0.103 7.25 6.02 14.64
1/4/2022 2:45:00 AM 0.26 32.468 0.103 7.25 34.27 14.66
1/4/2022 3:00:00 AM 0.25 32.45 0.103 7.25 6.45 14.66
1/4/2022 3:15:00 AM 0.23 32.414 0.103 7.26 13.8 14.68
1/4/2022 3:30:00 AM 0.22 32.396 0.103 7.25 12.77 14.68
1/4/2022 3:45:00 AM 0.21 32.378 0.103 7.25 8.32 14.69
1/4/2022 4:00:00 AM 0.18 32.324 0.103 7.25 6.1 14.69
1/4/2022 4:15:00 AM 0.14 32.252 0.103 7.24 70.54 14.7
1/4/2022 4:30:00 AM 0.13 32.234 0.102 7.24 6.8 14.72
1/4/2022 4:45:00 AM 0.12 32.216 0.102 7.24 7.43 14.72
1/4/2022 5:00:00 AM 0.1 32.18 0.102 7.24 84.78 14.73
1/4/2022 5:15:00 AM 0.07 32.126 0.102 7.24 120.58 14.74
1/4/2022 5:30:00 AM 0.05 32.09 0.102 7.23 6.42 14.75
1/4/2022 5:45:00 AM 0.03 32.054 0.102 7.23 5.81 14.75
1/4/2022 6:00:00 AM 0 32 0.101 7.23 67.77 14.77
1/4/2022 6:15:00 AM -0.02 31.964 0.101 7.22 43.92 14.78
1/4/2022 6:30:00 AM -0.03 31.946 0.101 7.23 119.85 14.78
1/4/2022 6:45:00 AM -0.04 31.928 0.101 7.23 13.92 14.79
1/4/2022 7:00:00 AM -0.04 31.928 0.101 7.22 73.66 14.8
1/4/2022 7:15:00 AM -0.04 31.928 0.101 7.22 5.97 14.81
1/4/2022 7:30:00 AM -0.04 31.928 0.101 7.22 6.02 14.83
1/4/2022 7:45:00 AM -0.04 31.928 0.1 7.22 6.28 14.86
1/4/2022 8:00:00 AM -0.04 31.928 0.1 7.24 6.79 14.89
1/4/2022 8:15:00 AM -0.03 31.946 0.1 7.24 7.15 14.95
1/4/2022 8:30:00 AM -0.03 31.946 0.1 7.24 6.74 15.01
1/4/2022 8:45:00 AM -0.03 31.946 0.1 7.25 8.58 15.06
1/4/2022 9:00:00 AM -0.03 31.946 0.099 7.25 7.29 15.09
1/4/2022 9:15:00 AM -0.02 31.964 0.099 7.26 6.77 15.12
1/4/2022 9:30:00 AM -0.02 31.964 0.099 7.27 9.56 15.15
1/4/2022 9:45:00 AM -0.02 31.964 0.099 7.28 6.09 15.16
1/4/2022 10:00:00 AM -0.01 31.982 0.099 7.29 5.93 15.17
1/4/2022 10:15:00 AM 0 32 0.099 7.28 5.55 15.18
1/4/2022 10:30:00 AM 0.03 32.054 0.098 7.3 13.27 15.19
1/4/2022 10:45:00 AM 0.09 32.162 0.098 7.3 7.37 15.18
1/4/2022 11:00:00 AM 0.17 32.306 0.098 7.3 6.53 15.17
1/4/2022 11:15:00 AM 0.26 32.468 0.098 7.31 6.2 15.15
1/4/2022 11:30:00 AM 0.39 32.702 0.098 7.31 6.1 15.14
1/4/2022 11:45:00 AM 0.51 32.918 0.098 7.32 7.63 15.12
1/4/2022 12:00:00 PM 0.61 33.098 0.098 7.32 9.05 15.09
1/4/2022 12:15:00 PM 0.7 33.26 0.098 7.33 7.38 15.06
1/4/2022 12:30:00 PM 0.8 33.44 0.097 7.34 6.18 15.05
1/4/2022 12:45:00 PM 0.89 33.602 0.097 7.34 6.42 15.02
1/4/2022 1:00:00 PM 0.96 33.728 0.097 7.34 6.74 14.98
1/4/2022 1:15:00 PM 1.04 33.872 0.097 7.34 5.97 14.95
1/4/2022 1:30:00 PM 1.09 33.962 0.096 7.34 7.21 14.87
1/4/2022 1:45:00 PM 1.14 34.052 0.096 7.34 6.28 14.83
1/4/2022 2:00:00 PM 1.19 34.142 0.096 7.34 12.96 14.78
1/4/2022 2:15:00 PM 1.24 34.232 0.096 7.34 6.31 14.72
1/4/2022 2:30:00 PM 1.29 34.322 0.096 7.34 5.79 14.68
1/4/2022 2:45:00 PM 1.33 34.394 0.096 7.34 6.12 14.64
1/4/2022 3:00:00 PM 1.36 34.448 0.096 7.34 5.95 14.61
1/4/2022 3:15:00 PM 1.4 34.52 0.096 7.34 7.8 14.6
1/4/2022 3:30:00 PM 1.43 34.574 0.096 7.34 6.21 14.57
1/4/2022 3:45:00 PM 1.45 34.61 0.096 7.34 9.42 14.52
1/4/2022 4:00:00 PM 1.45 34.61 0.096 7.34 6 14.48
1/4/2022 4:15:00 PM 1.45 34.61 0.096 7.33 6.49 14.44
1/4/2022 4:30:00 PM 1.45 34.61 0.096 7.33 10.26 14.4
1/4/2022 4:45:00 PM 1.44 34.592 0.097 7.32 7.14 14.35
1/4/2022 5:00:00 PM 1.43 34.574 0.097 7.31 11.37 14.3
1/4/2022 5:15:00 PM 1.42 34.556 0.097 7.3 11.22 14.26
1/4/2022 5:30:00 PM 1.41 34.538 0.097 7.3 6.49 14.23
1/4/2022 5:45:00 PM 1.4 34.52 0.097 7.29 7.58 14.2
1/4/2022 6:00:00 PM 1.41 34.538 0.098 7.29 7.03 14.18
1/4/2022 6:15:00 PM 1.41 34.538 0.098 7.28 9.1 14.17
1/4/2022 6:30:00 PM 1.41 34.538 0.098 7.28 7.13 14.15
1/4/2022 6:45:00 PM 1.41 34.538 0.099 7.28 6.04 14.15
1/4/2022 7:00:00 PM 1.41 34.538 0.099 7.27 6.92 14.14
1/4/2022 7:15:00 PM 1.4 34.52 0.099 7.27 6.59 14.14
1/4/2022 7:30:00 PM 1.39 34.502 0.1 7.27 7.06 14.14
1/4/2022 7:45:00 PM 1.37 34.466 0.1 7.27 6.43 14.14
1/4/2022 8:00:00 PM 1.36 34.448 0.1 7.27 5.7 14.14
1/4/2022 8:15:00 PM 1.34 34.412 0.101 7.27 6.65 14.14
1/4/2022 8:30:00 PM 1.31 34.358 0.101 7.27 7 14.15
1/4/2022 8:45:00 PM 1.29 34.322 0.101 7.26 6.36 14.15
1/4/2022 9:00:00 PM 1.26 34.268 0.101 7.27 6.85 14.17
1/4/2022 9:15:00 PM 1.24 34.232 0.101 7.27 7.4 14.17
1/4/2022 9:30:00 PM 1.22 34.196 0.101 7.27 7.19 14.18
1/4/2022 9:45:00 PM 1.19 34.142 0.101 7.27 6.12 14.19
1/4/2022 10:00:00 PM 1.16 34.088 0.102 7.26 7.45 14.19
1/4/2022 10:15:00 PM 1.14 34.052 0.102 7.26 7.34 14.2
1/4/2022 10:30:00 PM 1.11 33.998 0.102 7.26 12.05 14.21
1/4/2022 10:45:00 PM 1.09 33.962 0.102 7.26 10.89 14.22
1/4/2022 11:00:00 PM 1.05 33.89 0.101 7.25 6.99 14.23
1/4/2022 11:15:00 PM 1.02 33.836 0.101 7.26 6.37 14.24
1/4/2022 11:30:00 PM 1 33.8 0.101 7.26 6.09 14.24
1/4/2022 11:45:00 PM 0.99 33.782 0.101 7.26 6.03 14.25
1/5/2022 12:00:00 AM 0.97 33.746 0.101 7.26 6.66 14.25
1/5/2022 12:15:00 AM 0.96 33.728 0.101 7.25 8.98 14.26
1/5/2022 12:30:00 AM 0.94 33.692 0.101 7.25 6.9 14.27
1/5/2022 12:45:00 AM 0.91 33.638 0.101 7.25 6.29 14.28
1/5/2022 1:00:00 AM 0.9 33.62 0.1 7.25 7.36 14.28
1/5/2022 1:15:00 AM 0.89 33.602 0.1 7.25 7.32 14.27
1/5/2022 1:30:00 AM 0.88 33.584 0.1 7.25 6.69 14.28
1/5/2022 1:45:00 AM 0.86 33.548 0.1 7.24 7.89 14.28
1/5/2022 2:00:00 AM 0.85 33.53 0.1 7.25 6.89 14.29
1/5/2022 2:15:00 AM 0.85 33.53 0.1 7.25 7.4 14.29
1/5/2022 2:30:00 AM 0.84 33.512 0.099 7.25 9.96 14.3
1/5/2022 2:45:00 AM 0.83 33.494 0.099 7.25 8.47 14.3
1/5/2022 3:00:00 AM 0.82 33.476 0.099 7.24 7.21 14.3
1/5/2022 3:15:00 AM 0.81 33.458 0.099 7.24 8.23 14.3
1/5/2022 3:30:00 AM 0.81 33.458 0.099 7.24 6.57 14.29
1/5/2022 3:45:00 AM 0.8 33.44 0.098 7.24 7.72 14.3
1/5/2022 4:00:00 AM 0.79 33.422 0.098 7.24 6.1 14.29
1/5/2022 4:15:00 AM 0.78 33.404 0.098 7.24 12.18 14.29
1/5/2022 4:30:00 AM 0.77 33.386 0.098 7.24 6.22 14.29
1/5/2022 4:45:00 AM 0.77 33.386 0.098 7.24 6.25 14.29
1/5/2022 5:00:00 AM 0.77 33.386 0.098 7.24 6.67 14.29
1/5/2022 5:15:00 AM 0.78 33.404 0.097 7.23 6.21 14.28
1/5/2022 5:30:00 AM 0.78 33.404 0.097 7.23 6.12 14.28
1/5/2022 5:45:00 AM 0.78 33.404 0.097 7.23 7.26 14.27
1/5/2022 6:00:00 AM 0.78 33.404 0.097 7.23 6 14.27
1/5/2022 6:15:00 AM 0.78 33.404 0.097 7.23 6.9 14.27
1/5/2022 6:30:00 AM 0.79 33.422 0.097 7.24 6.14 14.26
1/5/2022 6:45:00 AM 0.78 33.404 0.097 7.23 6.79 14.26
1/5/2022 7:00:00 AM 0.78 33.404 0.097 7.23 6.83 14.26
1/5/2022 7:15:00 AM 0.77 33.386 0.096 7.23 6.35 14.26
1/5/2022 7:30:00 AM 0.77 33.386 0.096 7.23 6 14.25
1/5/2022 7:45:00 AM 0.77 33.386 0.096 7.23 7.88 14.26
1/5/2022 8:00:00 AM 0.77 33.386 0.096 7.23 6.28 14.29
1/5/2022 8:15:00 AM 0.79 33.422 0.096 7.24 6.17 14.34
1/5/2022 8:30:00 AM -99999.99 -179968 -99999.99 -99999.99 -99999.99 -99999.99
1/5/2022 8:45:00 AM -99999.99 -179968 -99999.99 -99999.99 -99999.99 -99999.99
1/5/2022 9:00:00 AM -99999.99 -179968 -99999.99 -99999.99 -99999.99 -99999.99
1/5/2022 9:15:00 AM -99999.99 -179968 -99999.99 -99999.99 -99999.99 -99999.99
1/5/2022 9:30:00 AM -99999.99 -179968 -99999.99 -99999.99 -99999.99 -99999.99
1/5/2022 9:45:00 AM -99999.99 -179968 -99999.99 -99999.99 -99999.99 -99999.99
1/5/2022 10:00:00 AM -99999.99 -179968 -99999.99 -99999.99 -99999.99 -99999.99
1/5/2022 10:15:00 AM -99999.99 -179968 -99999.99 -99999.99 -99999.99 -99999.99
1/5/2022 10:30:00 AM -99999.99 -179968 -99999.99 -99999.99 -99999.99 -99999.99
1/5/2022 10:45:00 AM -99999.99 -179968 -99999.99 -99999.99 -99999.99 -99999.99
1/5/2022 11:00:00 AM -99999.99 -179968 -99999.99 -99999.99 -99999.99 -99999.99
1/5/2022 11:15:00 AM -99999.99 -179968 -99999.99 -99999.99 -99999.99 -99999.99
1/5/2022 11:30:00 AM -99999.99 -179968 -99999.99 -99999.99 -99999.99 -99999.99
1/5/2022 11:45:00 AM -99999.99 -179968 -99999.99 -99999.99 -99999.99 -99999.99
1/5/2022 12:00:00 PM -99999.99 -179968 -99999.99 -99999.99 -99999.99 -99999.99
1/5/2022 12:15:00 PM -99999.99 -179968 -99999.99 -99999.99 -99999.99 -99999.99
1/5/2022 12:30:00 PM -99999.99 -179968 -99999.99 -99999.99 -99999.99 -99999.99
1/5/2022 12:45:00 PM -99999.99 -179968 -99999.99 -99999.99 -99999.99 -99999.99
1/5/2022 1:00:00 PM -99999.99 -179968 -99999.99 -99999.99 -99999.99 -99999.99
1/5/2022 1:15:00 PM -99999.99 -179968 -99999.99 -99999.99 -99999.99 -99999.99
1/5/2022 1:30:00 PM -99999.99 -179968 -99999.99 -99999.99 -99999.99 -99999.99
1/5/2022 1:45:00 PM -99999.99 -179968 -99999.99 -99999.99 -99999.99 -99999.99
1/5/2022 2:00:00 PM -99999.99 -179968 -99999.99 -99999.99 -99999.99 -99999.99
1/5/2022 2:15:00 PM -99999.99 -179968 -99999.99 -99999.99 -99999.99 -99999.99
1/5/2022 2:30:00 PM -99999.99 -179968 -99999.99 -99999.99 -99999.99 -99999.99
1/5/2022 2:45:00 PM -99999.99 -179968 -99999.99 -99999.99 -99999.99 -99999.99
1/5/2022 3:00:00 PM -99999.99 -179968 -99999.99 -99999.99 -99999.99 -99999.99
1/5/2022 3:15:00 PM -99999.99 -179968 -99999.99 -99999.99 -99999.99 -99999.99
1/5/2022 3:30:00 PM -99999.99 -179968 -99999.99 -99999.99 -99999.99 -99999.99
1/5/2022 3:45:00 PM -99999.99 -179968 -99999.99 -99999.99 -99999.99 -99999.99
1/5/2022 4:00:00 PM -99999.99 -179968 -99999.99 -99999.99 -99999.99 -99999.99
1/5/2022 4:15:00 PM -99999.99 -179968 -99999.99 -99999.99 -99999.99 -99999.99
1/5/2022 4:30:00 PM -99999.99 -179968 -99999.99 -99999.99 -99999.99 -99999.99
1/5/2022 4:45:00 PM -99999.99 -179968 -99999.99 -99999.99 -99999.99 -99999.99
1/5/2022 5:00:00 PM -99999.99 -179968 -99999.99 -99999.99 -99999.99 -99999.99
1/5/2022 5:15:00 PM -99999.99 -179968 -99999.99 -99999.99 -99999.99 -99999.99
1/5/2022 5:30:00 PM -99999.99 -179968 -99999.99 -99999.99 -99999.99 -99999.99
1/5/2022 5:45:00 PM -99999.99 -179968 -99999.99 -99999.99 -99999.99 -99999.99
1/5/2022 6:00:00 PM -99999.99 -179968 -99999.99 -99999.99 -99999.99 -99999.99
1/5/2022 6:15:00 PM -99999.99 -179968 -99999.99 -99999.99 -99999.99 -99999.99
1/5/2022 6:30:00 PM -99999.99 -179968 -99999.99 -99999.99 -99999.99 -99999.99
1/5/2022 6:45:00 PM -99999.99 -179968 -99999.99 -99999.99 -99999.99 -99999.99
1/5/2022 7:00:00 PM -99999.99 -179968 -99999.99 -99999.99 -99999.99 -99999.99
1/5/2022 7:15:00 PM -99999.99 -179968 -99999.99 -99999.99 -99999.99 -99999.99
1/5/2022 7:30:00 PM -99999.99 -179968 -99999.99 -99999.99 -99999.99 -99999.99
1/5/2022 7:45:00 PM -99999.99 -179968 -99999.99 -99999.99 -99999.99 -99999.99
1/5/2022 8:00:00 PM -99999.99 -179968 -99999.99 -99999.99 -99999.99 -99999.99
1/5/2022 8:15:00 PM -99999.99 -179968 -99999.99 -99999.99 -99999.99 -99999.99
1/5/2022 8:30:00 PM -99999.99 -179968 -99999.99 -99999.99 -99999.99 -99999.99
1/5/2022 8:45:00 PM -99999.99 -179968 -99999.99 -99999.99 -99999.99 -99999.99
1/5/2022 9:00:00 PM -99999.99 -179968 -99999.99 -99999.99 -99999.99 -99999.99
1/5/2022 9:15:00 PM -99999.99 -179968 -99999.99 -99999.99 -99999.99 -99999.99
1/5/2022 9:30:00 PM -99999.99 -179968 -99999.99 -99999.99 -99999.99 -99999.99
1/5/2022 9:45:00 PM -99999.99 -179968 -99999.99 -99999.99 -99999.99 -99999.99
1/5/2022 10:00:00 PM -99999.99 -179968 -99999.99 -99999.99 -99999.99 -99999.99
1/5/2022 10:15:00 PM -99999.99 -179968 -99999.99 -99999.99 -99999.99 -99999.99
1/5/2022 10:30:00 PM -99999.99 -179968 -99999.99 -99999.99 -99999.99 -99999.99
1/5/2022 10:45:00 PM -99999.99 -179968 -99999.99 -99999.99 -99999.99 -99999.99
1/5/2022 11:00:00 PM -99999.99 -179968 -99999.99 -99999.99 -99999.99 -99999.99
1/5/2022 11:15:00 PM -99999.99 -179968 -99999.99 -99999.99 -99999.99 -99999.99
1/5/2022 11:30:00 PM -99999.99 -179968 -99999.99 -99999.99 -99999.99 -99999.99
1/5/2022 11:45:00 PM -99999.99 -179968 -99999.99 -99999.99 -99999.99 -99999.99
1/6/2022 12:00:00 AM -99999.99 -179968 -99999.99 -99999.99 -99999.99 -99999.99
1/6/2022 12:15:00 AM -99999.99 -179968 -99999.99 -99999.99 -99999.99 -99999.99
1/6/2022 12:30:00 AM -99999.99 -179968 -99999.99 -99999.99 -99999.99 -99999.99
1/6/2022 12:45:00 AM -99999.99 -179968 -99999.99 -99999.99 -99999.99 -99999.99
1/6/2022 1:00:00 AM -99999.99 -179968 -99999.99 -99999.99 -99999.99 -99999.99
1/6/2022 1:15:00 AM -99999.99 -179968 -99999.99 -99999.99 -99999.99 -99999.99
1/6/2022 1:30:00 AM -99999.99 -179968 -99999.99 -99999.99 -99999.99 -99999.99
1/6/2022 1:45:00 AM -99999.99 -179968 -99999.99 -99999.99 -99999.99 -99999.99
1/6/2022 2:00:00 AM -99999.99 -179968 -99999.99 -99999.99 -99999.99 -99999.99
1/6/2022 2:15:00 AM -99999.99 -179968 -99999.99 -99999.99 -99999.99 -99999.99
1/6/2022 2:30:00 AM -99999.99 -179968 -99999.99 -99999.99 -99999.99 -99999.99
1/6/2022 2:45:00 AM -99999.99 -179968 -99999.99 -99999.99 -99999.99 -99999.99
1/6/2022 3:00:00 AM -99999.99 -179968 -99999.99 -99999.99 -99999.99 -99999.99
1/6/2022 3:15:00 AM -99999.99 -179968 -99999.99 -99999.99 -99999.99 -99999.99
1/6/2022 3:30:00 AM -99999.99 -179968 -99999.99 -99999.99 -99999.99 -99999.99
1/6/2022 3:45:00 AM -99999.99 -179968 -99999.99 -99999.99 -99999.99 -99999.99
1/6/2022 4:00:00 AM -99999.99 -179968 -99999.99 -99999.99 -99999.99 -99999.99
1/6/2022 4:15:00 AM -99999.99 -179968 -99999.99 -99999.99 -99999.99 -99999.99
1/6/2022 4:30:00 AM -99999.99 -179968 -99999.99 -99999.99 -99999.99 -99999.99
1/6/2022 4:45:00 AM -99999.99 -179968 -99999.99 -99999.99 -99999.99 -99999.99
1/6/2022 5:00:00 AM -99999.99 -179968 -99999.99 -99999.99 -99999.99 -99999.99
1/6/2022 5:15:00 AM -99999.99 -179968 -99999.99 -99999.99 -99999.99 -99999.99
1/6/2022 5:30:00 AM -99999.99 -179968 -99999.99 -99999.99 -99999.99 -99999.99
1/6/2022 5:45:00 AM -99999.99 -179968 -99999.99 -99999.99 -99999.99 -99999.99
1/6/2022 6:00:00 AM -99999.99 -179968 -99999.99 -99999.99 -99999.99 -99999.99
1/6/2022 6:15:00 AM -99999.99 -179968 -99999.99 -99999.99 -99999.99 -99999.99
1/6/2022 6:30:00 AM -99999.99 -179968 -99999.99 -99999.99 -99999.99 -99999.99
1/6/2022 6:45:00 AM -99999.99 -179968 -99999.99 -99999.99 -99999.99 -99999.99
1/6/2022 7:00:00 AM -99999.99 -179968 -99999.99 -99999.99 -99999.99 -99999.99
1/6/2022 7:15:00 AM 0.99 33.782 0.091 7.41 1.51 13.77
1/6/2022 7:30:00 AM 0.96 33.728 0.091 7.43 1.47 13.79
1/6/2022 7:45:00 AM 0.94 33.692 0.091 7.43 1.45 13.82
1/6/2022 8:00:00 AM 0.9 33.62 0.091 7.43 1.49 13.87
1/6/2022 8:15:00 AM 0.9 33.62 0.091 7.44 1.44 13.94
1/6/2022 8:30:00 AM 0.89 33.602 0.091 7.45 1.48 14
1/6/2022 8:45:00 AM 0.89 33.602 0.091 7.46 1.43 14.04
1/6/2022 9:00:00 AM 0.9 33.62 0.091 7.47 1.46 14.09
1/6/2022 9:15:00 AM 0.91 33.638 0.091 7.48 1.41 14.14
1/6/2022 9:30:00 AM 0.94 33.692 0.091 7.49 1.42 14.17
1/6/2022 9:45:00 AM 0.96 33.728 0.091 7.5 1.37 14.2
1/6/2022 10:00:00 AM 1 33.8 0.091 7.51 1.45 14.23
1/6/2022 10:15:00 AM 1.05 33.89 0.091 7.52 1.46 14.26
1/6/2022 10:30:00 AM 1.09 33.962 0.09 7.54 1.44 14.26
1/6/2022 10:45:00 AM 1.14 34.052 0.09 7.53 1.38 14.27
1/6/2022 11:00:00 AM 1.22 34.196 0.09 7.54 1.38 14.28
1/6/2022 11:15:00 AM 1.23 34.214 0.09 7.55 1.36 14.27
1/6/2022 11:30:00 AM 1.3 34.34 0.09 7.56 1.44 14.26
1/6/2022 11:45:00 AM 1.37 34.466 0.09 7.57 1.32 14.25
1/6/2022 12:00:00 PM 1.39 34.502 0.09 7.55 1.35 14.22
1/6/2022 12:15:00 PM 1.44 34.592 0.09 7.56 1.32 14.2
1/6/2022 12:30:00 PM 1.51 34.718 0.09 7.57 1.45 14.17
1/6/2022 12:45:00 PM 1.58 34.844 0.09 7.56 1.35 14.14
1/6/2022 1:00:00 PM 1.61 34.898 0.09 7.57 1.41 14.11
1/6/2022 1:15:00 PM 1.66 34.988 0.09 7.57 1.41 14.1
1/6/2022 1:30:00 PM 1.72 35.096 0.09 7.58 1.35 14.09
1/6/2022 1:45:00 PM 1.75 35.15 0.09 7.57 1.38 14.09
1/6/2022 2:00:00 PM 1.78 35.204 0.09 7.58 1.4 14.08
1/6/2022 2:15:00 PM 1.8 35.24 0.09 7.57 1.4 14.06
1/6/2022 2:30:00 PM 1.81 35.258 0.09 7.58 1.38 14.03
1/6/2022 2:45:00 PM 1.85 35.33 0.089 7.59 1.39 14.03
1/6/2022 3:00:00 PM 1.87 35.366 0.089 7.57 1.36 14.01
1/6/2022 3:15:00 PM 1.86 35.348 0.089 7.58 1.42 13.99
1/6/2022 3:30:00 PM 1.86 35.348 0.089 7.57 1.35 13.98
1/6/2022 3:45:00 PM 1.84 35.312 0.089 7.57 1.39 13.96
1/6/2022 4:00:00 PM 1.81 35.258 0.089 7.55 1.35 13.9
1/6/2022 4:15:00 PM 1.8 35.24 0.089 7.54 1.35 13.85
1/6/2022 4:30:00 PM 1.79 35.222 0.089 7.51 1.41 13.78
1/6/2022 4:45:00 PM 1.78 35.204 0.089 7.52 1.4 13.73
1/6/2022 5:00:00 PM 1.77 35.186 0.089 7.5 1.34 13.69
1/6/2022 5:15:00 PM 1.77 35.186 0.089 7.48 1.52 13.66
1/6/2022 5:30:00 PM 1.76 35.168 0.089 7.48 1.45 13.63
1/6/2022 5:45:00 PM 1.75 35.15 0.089 7.46 1.38 13.62
1/6/2022 6:00:00 PM 1.73 35.114 0.089 7.46 1.44 13.61
1/6/2022 6:15:00 PM 1.72 35.096 0.089 7.45 1.41 13.61
1/6/2022 6:30:00 PM 1.7 35.06 0.089 7.44 1.36 13.6
1/6/2022 6:45:00 PM 1.7 35.06 0.089 7.44 1.39 13.6
1/6/2022 7:00:00 PM 1.68 35.024 0.089 7.43 1.38 13.6
1/6/2022 7:15:00 PM 1.68 35.024 0.089 7.43 1.39 13.6
1/6/2022 7:30:00 PM 1.68 35.024 0.089 7.43 1.39 13.6
1/6/2022 7:45:00 PM 1.66 34.988 0.089 7.42 1.39 13.61
1/6/2022 8:00:00 PM 1.63 34.934 0.089 7.42 1.4 13.61
1/6/2022 8:15:00 PM 1.59 34.862 0.089 7.42 1.4 13.62
1/6/2022 8:30:00 PM 1.57 34.826 0.089 7.41 1.39 13.62
1/6/2022 8:45:00 PM 1.53 34.754 0.089 7.41 1.43 13.63
1/6/2022 9:00:00 PM 1.48 34.664 0.089 7.41 1.42 13.65
1/6/2022 9:15:00 PM 1.43 34.574 0.089 7.4 1.37 13.66
1/6/2022 9:30:00 PM 1.41 34.538 0.089 7.4 1.39 13.67
1/6/2022 9:45:00 PM 1.38 34.484 0.089 7.4 1.39 13.69
1/6/2022 10:00:00 PM 1.34 34.412 0.089 7.4 1.35 13.7
1/6/2022 10:15:00 PM 1.31 34.358 0.089 7.41 1.39 13.71
1/6/2022 10:30:00 PM 1.27 34.286 0.089 7.4 1.44 13.73
1/6/2022 10:45:00 PM 1.24 34.232 0.089 7.39 1.43 13.74
1/6/2022 11:00:00 PM 1.21 34.178 0.089 7.4 1.38 13.75
1/6/2022 11:15:00 PM 1.18 34.124 0.089 7.39 1.39 13.77
1/6/2022 11:30:00 PM 1.14 34.052 0.089 7.4 1.38 13.78
1/6/2022 11:45:00 PM 1.13 34.034 0.089 7.39 1.44 13.78
1/7/2022 12:00:00 AM 1.12 34.016 0.089 7.41 1.35 13.79
1/7/2022 12:15:00 AM 1.1 33.98 0.089 7.39 1.38 13.8
1/7/2022 12:30:00 AM 1.07 33.926 0.089 7.4 1.41 13.8
1/7/2022 12:45:00 AM 1.01 33.818 0.089 7.4 1.41 13.81
1/7/2022 1:00:00 AM 0.94 33.692 0.088 7.38 1.43 13.82
1/7/2022 1:15:00 AM 0.9 33.62 0.088 7.39 1.41 13.84
1/7/2022 1:30:00 AM 0.88 33.584 0.088 7.39 1.36 13.85
1/7/2022 1:45:00 AM 0.86 33.548 0.088 7.39 1.51 13.86
1/7/2022 2:00:00 AM 0.84 33.512 0.088 7.4 1.58 13.87
1/7/2022 2:15:00 AM 0.8 33.44 0.088 7.39 1.57 13.88
1/7/2022 2:30:00 AM 0.78 33.404 0.088 7.38 1.55 13.9
1/7/2022 2:45:00 AM 0.77 33.386 0.088 7.39 1.46 13.91
1/7/2022 3:00:00 AM 0.76 33.368 0.088 7.39 1.47 13.92
1/7/2022 3:15:00 AM 0.76 33.368 0.088 7.39 1.5 13.93
1/7/2022 3:30:00 AM 0.76 33.368 0.088 7.39 1.5 13.93
1/7/2022 3:45:00 AM 0.76 33.368 0.088 7.4 1.47 13.94
1/7/2022 4:00:00 AM 0.75 33.35 0.089 7.38 1.57 13.94
1/7/2022 4:15:00 AM 0.73 33.314 0.089 7.4 1.48 13.95
1/7/2022 4:30:00 AM 0.72 33.296 0.089 7.4 1.44 13.95
1/7/2022 4:45:00 AM 0.71 33.278 0.089 7.38 1.46 13.96
1/7/2022 5:00:00 AM 0.7 33.26 0.089 7.4 1.47 13.97
1/7/2022 5:15:00 AM 0.7 33.26 0.089 7.39 1.45 13.98
1/7/2022 5:30:00 AM 0.69 33.242 0.089 7.4 1.38 13.98
1/7/2022 5:45:00 AM 0.69 33.242 0.089 7.39 1.41 13.99
1/7/2022 6:00:00 AM 0.68 33.224 0.089 7.39 1.39 13.99
1/7/2022 6:15:00 AM 0.67 33.206 0.089 7.39 1.4 13.99
1/7/2022 6:30:00 AM 0.67 33.206 0.089 7.4 1.39 14
1/7/2022 6:45:00 AM 0.67 33.206 0.089 7.39 1.46 14
1/7/2022 7:00:00 AM 0.66 33.188 0.089 7.39 1.41 14.01
1/7/2022 7:15:00 AM 0.66 33.188 0.089 7.39 1.36 14.01
1/7/2022 7:30:00 AM 0.65 33.17 0.089 7.39 1.41 14.02
1/7/2022 7:45:00 AM 0.63 33.134 0.089 7.4 1.42 14.04
1/7/2022 8:00:00 AM 0.63 33.134 0.089 7.4 1.38 14.07
1/7/2022 8:15:00 AM 0.64 33.152 0.089 7.42 1.42 14.12
1/7/2022 8:30:00 AM 0.64 33.152 0.089 7.42 1.4 14.17
1/7/2022 8:45:00 AM 0.65 33.17 0.089 7.43 1.37 14.24
1/7/2022 9:00:00 AM 0.66 33.188 0.089 7.44 1.36 14.3
1/7/2022 9:15:00 AM 0.68 33.224 0.089 7.46 1.32 14.34
1/7/2022 9:30:00 AM 0.69 33.242 0.089 7.46 1.37 14.37
1/7/2022 9:45:00 AM 0.69 33.242 0.089 7.48 1.37 14.39
1/7/2022 10:00:00 AM 0.69 33.242 0.089 7.47 1.36 14.41
1/7/2022 10:15:00 AM 0.7 33.26 0.089 7.49 1.33 14.42
1/7/2022 10:30:00 AM 0.7 33.26 0.089 7.48 1.39 14.43
1/7/2022 10:45:00 AM 0.74 33.332 0.089 7.49 1.33 14.44
1/7/2022 11:00:00 AM 0.79 33.422 0.089 7.51 1.4 14.44
1/7/2022 11:15:00 AM 0.81 33.458 0.089 7.5 1.36 14.44
1/7/2022 11:30:00 AM 0.83 33.494 0.089 7.51 1.36 14.44
1/7/2022 11:45:00 AM 0.84 33.512 0.089 7.51 1.37 14.43
1/7/2022 12:00:00 PM 0.91 33.638 0.089 7.52 1.33 14.43
1/7/2022 12:15:00 PM 1.03 33.854 0.089 7.52 1.36 14.42
1/7/2022 12:30:00 PM 1.04 33.872 0.089 7.52 1.33 14.39
1/7/2022 12:45:00 PM 1.09 33.962 0.089 7.52 1.33 14.36
1/7/2022 1:00:00 PM 1.17 34.106 0.089 7.53 1.39 14.34
1/7/2022 1:15:00 PM 1.19 34.142 0.089 7.53 1.32 14.33
1/7/2022 1:30:00 PM 1.18 34.124 0.089 7.54 1.34 14.32
1/7/2022 1:45:00 PM 1.21 34.178 0.089 7.54 1.34 14.32
1/7/2022 2:00:00 PM 1.23 34.214 0.089 7.53 1.32 14.31
1/7/2022 2:15:00 PM 1.22 34.196 0.089 7.54 1.34 14.29
1/7/2022 2:30:00 PM 1.25 34.25 0.089 7.53 1.31 14.27
1/7/2022 2:45:00 PM 1.19 34.142 0.089 7.53 1.29 14.24
1/7/2022 3:00:00 PM 1.19 34.142 0.089 7.53 1.35 14.24
1/7/2022 3:15:00 PM 1.16 34.088 0.089 7.53 1.38 14.24
1/7/2022 3:30:00 PM 1.13 34.034 0.089 7.5 1.35 14.24
1/7/2022 3:45:00 PM 1.12 34.016 0.089 7.52 1.37 14.27
1/7/2022 4:00:00 PM 1.09 33.962 0.089 7.5 1.32 14.26
1/7/2022 4:15:00 PM 1.06 33.908 0.089 7.5 1.34 14.24
1/7/2022 4:30:00 PM 1.03 33.854 0.089 7.5 1.35 14.2
1/7/2022 4:45:00 PM 0.98 33.764 0.089 7.47 1.6 14.17
1/7/2022 5:00:00 PM 0.91 33.638 0.089 7.46 1.33 14.14
1/7/2022 5:15:00 PM 0.84 33.512 0.089 7.44 1.36 14.12
1/7/2022 5:30:00 PM 0.76 33.368 0.089 7.43 1.38 14.11
1/7/2022 5:45:00 PM 0.7 33.26 0.089 7.42 1.35 14.12
1/7/2022 6:00:00 PM 0.66 33.188 0.089 7.41 1.31 14.13
1/7/2022 6:15:00 PM 0.63 33.134 0.089 7.39 1.35 14.14
1/7/2022 6:30:00 PM 0.6 33.08 0.089 7.4 1.35 14.15
1/7/2022 6:45:00 PM 0.57 33.026 0.089 7.4 1.4 14.16
1/7/2022 7:00:00 PM 0.56 33.008 0.089 7.39 1.33 14.17
1/7/2022 7:15:00 PM 0.54 32.972 0.089 7.39 1.3 14.19
1/7/2022 7:30:00 PM 0.51 32.918 0.089 7.38 1.32 14.2
1/7/2022 7:45:00 PM 0.48 32.864 0.089 7.38 1.33 14.21
1/7/2022 8:00:00 PM 0.45 32.81 0.09 7.38 1.3 14.22
1/7/2022 8:15:00 PM 0.44 32.792 0.09 7.39 1.39 14.24
1/7/2022 8:30:00 PM 0.42 32.756 0.09 7.38 1.35 14.25
1/7/2022 8:45:00 PM 0.41 32.738 0.09 7.38 1.39 14.26
1/7/2022 9:00:00 PM 0.39 32.702 0.09 7.39 1.41 14.27
1/7/2022 9:15:00 PM 0.37 32.666 0.09 7.38 1.37 14.28
1/7/2022 9:30:00 PM 0.35 32.63 0.09 7.39 1.39 14.29
1/7/2022 9:45:00 PM 0.34 32.612 0.09 7.38 1.36 14.31
1/7/2022 10:00:00 PM 0.32 32.576 0.09 7.38 1.33 14.32
1/7/2022 10:15:00 PM 0.3 32.54 0.09 7.38 1.36 14.33
1/7/2022 10:30:00 PM 0.26 32.468 0.09 7.37 1.37 14.35
1/7/2022 10:45:00 PM 0.22 32.396 0.09 7.38 1.35 14.36
1/7/2022 11:00:00 PM 0.17 32.306 0.09 7.38 1.34 14.39
1/7/2022 11:15:00 PM 0.09 32.162 0.09 7.37 1.39 14.41
1/7/2022 11:30:00 PM 0.02 32.036 0.09 7.37 1.38 14.44
1/7/2022 11:45:00 PM -0.01 31.982 0.09 7.36 1.34 14.46
1/8/2022 12:00:00 AM -0.04 31.928 0.09 7.38 1.37 14.48
1/8/2022 12:15:00 AM -0.07 31.874 0.09 7.36 1.36 14.49
1/8/2022 12:30:00 AM -0.08 31.856 0.09 7.38 1.33 14.5
1/8/2022 12:45:00 AM -0.09 31.838 0.09 7.36 1.36 14.51
1/8/2022 1:00:00 AM -0.12 31.784 0.09 7.38 1.37 14.53
1/8/2022 1:15:00 AM -0.13 31.766 0.09 7.38 1.37 14.55
1/8/2022 1:30:00 AM -0.12 31.784 0.09 7.37 1.44 14.57
1/8/2022 1:45:00 AM -0.11 31.802 0.091 7.37 1.4 14.59
1/8/2022 2:00:00 AM -0.11 31.802 0.091 7.35 1.46 14.6
1/8/2022 2:15:00 AM -0.11 31.802 0.091 7.33 1.58 14.62
1/8/2022 2:30:00 AM -0.11 31.802 0.091 7.34 1.6 14.62
1/8/2022 2:45:00 AM -0.11 31.802 0.091 7.35 1.61 14.63
1/8/2022 3:00:00 AM -0.11 31.802 0.091 7.35 1.51 14.65
1/8/2022 3:15:00 AM -0.11 31.802 0.091 7.34 1.46 14.65
1/8/2022 3:30:00 AM -0.1 31.82 0.091 7.36 1.51 14.66
1/8/2022 3:45:00 AM -0.1 31.82 0.091 7.34 1.6 14.67
1/8/2022 4:00:00 AM -0.1 31.82 0.091 7.34 1.54 14.67
1/8/2022 4:15:00 AM -0.1 31.82 0.091 7.36 1.57 14.67
1/8/2022 4:30:00 AM -0.1 31.82 0.091 7.36 1.43 14.68
1/8/2022 4:45:00 AM -0.1 31.82 0.091 7.35 1.48 14.68
1/8/2022 5:00:00 AM -0.1 31.82 0.091 7.35 1.59 14.69
1/8/2022 5:15:00 AM -0.1 31.82 0.091 7.35 1.43 14.69
1/8/2022 5:30:00 AM -0.1 31.82 0.091 7.34 1.41 14.7
1/8/2022 5:45:00 AM -0.1 31.82 0.091 7.37 1.44 14.7
1/8/2022 6:00:00 AM -0.1 31.82 0.091 7.35 1.37 14.71
1/8/2022 6:15:00 AM -0.1 31.82 0.091 7.37 1.41 14.71
1/8/2022 6:30:00 AM -0.1 31.82 0.091 7.38 1.42 14.71
1/8/2022 6:45:00 AM -0.1 31.82 0.091 7.36 1.43 14.71
1/8/2022 7:00:00 AM -0.1 31.82 0.091 7.37 1.37 14.72
1/8/2022 7:15:00 AM -0.1 31.82 0.091 7.38 1.43 14.72
1/8/2022 7:30:00 AM -0.1 31.82 0.091 7.38 1.41 14.73
1/8/2022 7:45:00 AM -0.1 31.82 0.091 7.36 1.38 14.75
1/8/2022 8:00:00 AM -0.1 31.82 0.091 7.39 1.34 14.79
1/8/2022 8:15:00 AM -0.1 31.82 0.091 7.39 1.34 14.84
1/8/2022 8:30:00 AM -0.1 31.82 0.092 7.38 1.4 14.89
1/8/2022 8:45:00 AM -0.09 31.838 0.092 7.41 1.34 14.93
1/8/2022 9:00:00 AM -0.09 31.838 0.092 7.39 1.36 14.96
1/8/2022 9:15:00 AM -0.09 31.838 0.092 7.41 1.37 14.99
1/8/2022 9:30:00 AM -0.09 31.838 0.092 7.42 1.42 15.01
1/8/2022 9:45:00 AM -0.09 31.838 0.092 7.42 1.36 15.03
1/8/2022 10:00:00 AM -0.09 31.838 0.092 7.42 1.34 15.05
1/8/2022 10:15:00 AM -0.08 31.856 0.092 7.43 1.36 15.07
1/8/2022 10:30:00 AM -0.07 31.874 0.091 7.44 1.34 15.08
1/8/2022 10:45:00 AM -0.07 31.874 0.091 7.42 1.38 15.08
1/8/2022 11:00:00 AM -0.07 31.874 0.091 7.44 1.33 15.08
1/8/2022 11:15:00 AM -0.07 31.874 0.091 7.44 1.39 15.07
1/8/2022 11:30:00 AM -0.07 31.874 0.091 7.45 1.4 15.07
1/8/2022 11:45:00 AM -0.06 31.892 0.091 7.45 1.45 15.06
1/8/2022 12:00:00 PM -0.06 31.892 0.091 7.46 1.45 15.04
1/8/2022 12:15:00 PM -0.06 31.892 0.091 7.44 1.45 15.03
1/8/2022 12:30:00 PM -0.06 31.892 0.09 7.44 1.48 15.02
1/8/2022 12:45:00 PM -0.06 31.892 0.09 7.45 1.62 15.01
1/8/2022 1:00:00 PM -0.06 31.892 0.09 7.43 1.65 15
1/8/2022 1:15:00 PM -0.06 31.892 0.089 7.44 1.69 14.98
1/8/2022 1:30:00 PM -0.07 31.874 0.089 7.45 1.73 14.96
1/8/2022 1:45:00 PM -0.08 31.856 0.09 7.45 1.86 14.96
1/8/2022 2:00:00 PM -0.1 31.82 0.089 7.43 1.8 14.94
1/8/2022 2:15:00 PM -0.1 31.82 0.089 7.44 1.99 14.92
1/8/2022 2:30:00 PM -0.1 31.82 0.089 7.45 1.98 14.9
1/8/2022 2:45:00 PM -0.1 31.82 0.089 7.42 1.98 14.9
1/8/2022 3:00:00 PM -0.1 31.82 0.088 7.41 2.06 14.89
1/8/2022 3:15:00 PM -0.1 31.82 0.089 7.41 2.04 14.88
1/8/2022 3:30:00 PM -0.1 31.82 0.089 7.41 2.08 14.87
1/8/2022 3:45:00 PM -0.1 31.82 0.088 7.41 1.99 14.86
1/8/2022 4:00:00 PM -0.1 31.82 0.088 7.41 1.99 14.85
1/8/2022 4:15:00 PM -0.1 31.82 0.088 7.41 1.96 14.84
1/8/2022 4:30:00 PM -0.1 31.82 0.088 7.4 1.97 14.83
1/8/2022 4:45:00 PM -0.1 31.82 0.088 7.4 1.9 14.81
1/8/2022 5:00:00 PM -0.1 31.82 0.088 7.4 1.93 14.78
1/8/2022 5:15:00 PM -0.1 31.82 0.088 7.39 1.99 14.76
1/8/2022 5:30:00 PM -0.1 31.82 0.088 7.39 1.87 14.74
1/8/2022 5:45:00 PM -0.1 31.82 0.088 7.38 1.86 14.73
1/8/2022 6:00:00 PM -0.1 31.82 0.088 7.37 2.05 14.72
1/8/2022 6:15:00 PM -0.1 31.82 0.088 7.39 2.07 14.71
1/8/2022 6:30:00 PM -0.1 31.82 0.088 7.39 2.2 14.71
1/8/2022 6:45:00 PM -0.09 31.838 0.088 7.39 2.22 14.71
1/8/2022 7:00:00 PM -0.1 31.82 0.088 7.39 2.04 14.7
1/8/2022 7:15:00 PM -0.1 31.82 0.088 7.39 1.93 14.71
1/8/2022 7:30:00 PM -0.1 31.82 0.089 7.38 1.79 14.71
1/8/2022 7:45:00 PM -0.09 31.838 0.089 7.39 1.81 14.71
1/8/2022 8:00:00 PM -0.09 31.838 0.09 7.38 1.75 14.71
1/8/2022 8:15:00 PM -0.09 31.838 0.09 7.39 1.8 14.7
1/8/2022 8:30:00 PM -0.09 31.838 0.09 7.38 1.69 14.7
1/8/2022 8:45:00 PM -0.09 31.838 0.091 7.39 1.66 14.7
1/8/2022 9:00:00 PM -0.09 31.838 0.091 7.38 1.67 14.69
1/8/2022 9:15:00 PM -0.09 31.838 0.091 7.38 1.59 14.69
1/8/2022 9:30:00 PM -0.09 31.838 0.092 7.4 1.59 14.69
1/8/2022 9:45:00 PM -0.09 31.838 0.092 7.38 1.7 14.68
1/8/2022 10:00:00 PM -0.09 31.838 0.092 7.39 1.57 14.68
1/8/2022 10:15:00 PM -0.08 31.856 0.093 7.4 1.56 14.68
1/8/2022 10:30:00 PM -0.08 31.856 0.093 7.39 1.54 14.67
1/8/2022 10:45:00 PM -0.09 31.838 0.093 7.39 1.61 14.67
1/8/2022 11:00:00 PM -0.08 31.856 0.094 7.4 1.53 14.67
1/8/2022 11:15:00 PM -0.08 31.856 0.094 7.4 1.54 14.66
1/8/2022 11:30:00 PM -0.08 31.856 0.094 7.39 1.57 14.65
1/8/2022 11:45:00 PM -0.08 31.856 0.094 7.39 1.54 14.64
1/9/2022 12:00:00 AM -0.08 31.856 0.095 7.4 1.53 14.63
1/9/2022 12:15:00 AM -0.08 31.856 0.095 7.38 1.49 14.63
1/9/2022 12:30:00 AM -0.07 31.874 0.095 7.4 1.52 14.62
1/9/2022 12:45:00 AM -0.08 31.856 0.095 7.39 1.52 14.62
1/9/2022 1:00:00 AM -0.08 31.856 0.095 7.4 1.54 14.62
1/9/2022 1:15:00 AM -0.08 31.856 0.095 7.39 1.51 14.61
1/9/2022 1:30:00 AM -0.08 31.856 0.096 7.4 1.57 14.6
1/9/2022 1:45:00 AM -0.08 31.856 0.096 7.39 1.51 14.6
1/9/2022 2:00:00 AM -0.08 31.856 0.096 7.4 1.57 14.59
1/9/2022 2:15:00 AM -0.08 31.856 0.096 7.39 1.51 14.59
1/9/2022 2:30:00 AM -0.08 31.856 0.095 7.4 1.52 14.58
1/9/2022 2:45:00 AM -0.08 31.856 0.096 7.39 1.81 14.58
1/9/2022 3:00:00 AM -0.08 31.856 0.096 7.4 1.8 14.58
1/9/2022 3:15:00 AM -0.08 31.856 0.096 7.38 1.61 14.57
1/9/2022 3:30:00 AM -0.08 31.856 0.096 7.4 1.68 14.57
1/9/2022 3:45:00 AM -0.08 31.856 0.095 7.39 1.63 14.58
1/9/2022 4:00:00 AM -0.08 31.856 0.095 7.4 1.67 14.58
1/9/2022 4:15:00 AM -0.07 31.874 0.095 7.39 1.73 14.58
1/9/2022 4:30:00 AM -0.07 31.874 0.095 7.4 1.74 14.57
1/9/2022 4:45:00 AM -0.07 31.874 0.095 7.38 1.58 14.57
1/9/2022 5:00:00 AM -0.06 31.892 0.095 7.4 1.63 14.56
1/9/2022 5:15:00 AM -0.06 31.892 0.095 7.4 1.74 14.55
1/9/2022 5:30:00 AM -0.05 31.91 0.095 7.39 1.63 14.54
1/9/2022 5:45:00 AM -0.05 31.91 0.095 7.39 1.79 14.53
1/9/2022 6:00:00 AM -0.04 31.928 0.095 7.39 1.67 14.52
1/9/2022 6:15:00 AM -0.04 31.928 0.095 7.4 1.58 14.52
1/9/2022 6:30:00 AM -0.04 31.928 0.094 7.38 1.71 14.52
1/9/2022 6:45:00 AM -0.04 31.928 0.094 7.4 1.56 14.51
1/9/2022 7:00:00 AM -0.04 31.928 0.094 7.38 1.53 14.51
1/9/2022 7:15:00 AM -0.09 31.838 0.094 7.39 1.66 14.52
1/9/2022 7:30:00 AM -0.09 31.838 0.094 7.39 1.57 14.52
1/9/2022 7:45:00 AM -0.09 31.838 0.093 7.39 1.59 14.53
1/9/2022 8:00:00 AM -0.08 31.856 0.093 7.38 1.56 14.55
1/9/2022 8:15:00 AM -0.07 31.874 0.093 7.4 1.48 14.57
1/9/2022 8:30:00 AM -0.06 31.892 0.093 7.39 1.55 14.59
1/9/2022 8:45:00 AM -0.05 31.91 0.093 7.41 1.51 14.6
1/9/2022 9:00:00 AM -0.03 31.946 0.093 7.4 1.48 14.6
1/9/2022 9:15:00 AM -0.01 31.982 0.093 7.42 1.63 14.61
1/9/2022 9:30:00 AM 0 32 0.093 7.41 1.53 14.62
1/9/2022 9:45:00 AM 0.02 32.036 0.093 7.43 1.59 14.66
1/9/2022 10:00:00 AM 0.05 32.09 0.093 7.44 1.58 14.67
1/9/2022 10:15:00 AM 0.07 32.126 0.093 7.43 1.55 14.69
1/9/2022 10:30:00 AM 0.1 32.18 0.093 7.44 1.61 14.68
1/9/2022 10:45:00 AM 0.12 32.216 0.093 7.46 1.5 14.69
1/9/2022 11:00:00 AM 0.16 32.288 0.093 7.44 1.59 14.7
1/9/2022 11:15:00 AM 0.19 32.342 0.092 7.47 1.65 14.69
1/9/2022 11:30:00 AM 0.22 32.396 0.092 7.45 1.59 14.66
1/9/2022 11:45:00 AM 0.25 32.45 0.092 7.47 1.58 14.65
1/9/2022 12:00:00 PM 0.28 32.504 0.092 7.46 1.59 14.64
1/9/2022 12:15:00 PM 0.32 32.576 0.092 7.47 1.55 14.64
1/9/2022 12:30:00 PM 0.34 32.612 0.092 7.48 1.53 14.62
1/9/2022 12:45:00 PM 0.37 32.666 0.092 7.46 1.58 14.59
1/9/2022 1:00:00 PM 0.39 32.702 0.092 7.47 1.52 14.56
1/9/2022 1:15:00 PM 0.41 32.738 0.092 7.45 1.6 14.53
1/9/2022 1:30:00 PM 0.44 32.792 0.092 7.47 1.52 14.51
1/9/2022 1:45:00 PM 0.46 32.828 0.092 7.45 1.55 14.49
1/9/2022 2:00:00 PM 0.49 32.882 0.092 7.46 1.57 14.46
1/9/2022 2:15:00 PM 0.52 32.936 0.092 7.46 1.52 14.43
1/9/2022 2:30:00 PM 0.55 32.99 0.092 7.45 1.5 14.42
1/9/2022 2:45:00 PM 0.58 33.044 0.092 7.46 1.51 14.41
1/9/2022 3:00:00 PM 0.61 33.098 0.092 7.46 1.45 14.41
1/9/2022 3:15:00 PM 0.64 33.152 0.092 7.45 1.49 14.39
1/9/2022 3:30:00 PM 0.68 33.224 0.092 7.46 1.48 14.38
1/9/2022 3:45:00 PM 0.7 33.26 0.092 7.46 1.49 14.36
1/9/2022 4:00:00 PM 0.72 33.296 0.092 7.44 1.51 14.33
1/9/2022 4:15:00 PM 0.75 33.35 0.092 7.45 1.52 14.3
1/9/2022 4:30:00 PM 0.77 33.386 0.092 7.43 1.47 14.27
1/9/2022 4:45:00 PM 0.8 33.44 0.092 7.44 1.47 14.23
1/9/2022 5:00:00 PM 0.81 33.458 0.093 7.42 1.49 14.19
1/9/2022 5:15:00 PM 0.84 33.512 0.093 7.43 1.48 14.16
1/9/2022 5:30:00 PM 0.86 33.548 0.093 7.41 1.44 14.14
1/9/2022 5:45:00 PM 0.88 33.584 0.093 7.42 1.53 14.11
1/9/2022 6:00:00 PM 0.9 33.62 0.092 7.4 1.51 14.1
1/9/2022 6:15:00 PM 0.92 33.656 0.092 7.42 1.51 14.09
1/9/2022 6:30:00 PM 0.95 33.71 0.092 7.4 1.89 14.07
1/9/2022 6:45:00 PM 0.97 33.746 0.092 7.41 1.52 14.06
1/9/2022 7:00:00 PM 0.99 33.782 0.092 7.41 1.51 14.06
1/9/2022 7:15:00 PM 1.02 33.836 0.093 7.4 1.55 14.05
1/9/2022 7:30:00 PM 1.04 33.872 0.093 7.41 1.52 14.04
1/9/2022 7:45:00 PM 1.04 33.872 0.093 7.4 1.51 14.04
1/9/2022 8:00:00 PM 1.04 33.872 0.093 7.41 1.49 14.04
1/9/2022 8:15:00 PM 1.04 33.872 0.093 7.42 1.5 14.04
1/9/2022 8:30:00 PM 1.05 33.89 0.093 7.41 1.56 14.04
1/9/2022 8:45:00 PM 1.07 33.926 0.093 7.41 1.85 14.03
1/9/2022 9:00:00 PM 1.08 33.944 0.093 7.41 1.82 14.03
1/9/2022 9:15:00 PM 1.1 33.98 0.093 7.42 1.52 14.03
1/9/2022 9:30:00 PM 1.12 34.016 0.093 7.4 1.55 14.02
1/9/2022 9:45:00 PM 1.14 34.052 0.093 7.41 1.54 14.01
1/9/2022 10:00:00 PM 1.15 34.07 0.094 7.41 1.51 14.01
1/9/2022 10:15:00 PM 1.16 34.088 0.094 7.4 1.49 14.01
1/9/2022 10:30:00 PM 1.15 34.07 0.094 7.4 1.71 14.01
1/9/2022 10:45:00 PM 1.14 34.052 0.094 7.4 1.54 14.02
1/9/2022 11:00:00 PM 1.12 34.016 0.094 7.39 1.56 14.03
1/9/2022 11:15:00 PM 1.12 34.016 0.094 7.4 1.5 14.02
1/9/2022 11:30:00 PM 1.12 34.016 0.094 7.39 1.46 14.03
1/9/2022 11:45:00 PM 1.07 33.926 0.094 7.4 1.52 14.04
1/10/2022 12:00:00 AM 1.06 33.908 0.094 7.38 1.52 14.04
1/10/2022 12:15:00 AM 1.05 33.89 0.094 7.39 1.49 14.05
1/10/2022 12:30:00 AM 1.04 33.872 0.095 7.39 1.55 14.06
1/10/2022 12:45:00 AM 1.02 33.836 0.095 7.4 1.47 14.06
1/10/2022 1:00:00 AM 1.02 33.836 0.095 7.4 1.56 14.07
1/10/2022 1:15:00 AM 1 33.8 0.095 7.39 1.53 14.08
1/10/2022 1:30:00 AM 0.99 33.782 0.096 7.39 1.44 14.09
1/10/2022 1:45:00 AM 0.96 33.728 0.096 7.4 1.49 14.1
1/10/2022 2:00:00 AM 0.94 33.692 0.096 7.4 1.49 14.11
1/10/2022 2:15:00 AM 0.92 33.656 0.097 7.4 1.51 14.12
1/10/2022 2:30:00 AM 0.9 33.62 0.097 7.4 1.5 14.13
1/10/2022 2:45:00 AM 0.87 33.566 0.097 7.39 1.46 14.15
1/10/2022 3:00:00 AM 0.85 33.53 0.097 7.4 1.5 14.16
1/10/2022 3:15:00 AM 0.81 33.458 0.098 7.39 1.55 14.17
1/10/2022 3:30:00 AM 0.76 33.368 0.098 7.4 1.53 14.19
1/10/2022 3:45:00 AM 0.72 33.296 0.098 7.39 1.48 14.21
1/10/2022 4:00:00 AM 0.67 33.206 0.098 7.4 1.45 14.22
1/10/2022 4:15:00 AM 0.62 33.116 0.098 7.38 1.53 14.24
1/10/2022 4:30:00 AM 0.59 33.062 0.098 7.38 1.46 14.26
1/10/2022 4:45:00 AM 0.55 32.99 0.098 7.37 1.47 14.27
1/10/2022 5:00:00 AM 0.5 32.9 0.099 7.38 1.49 14.3
1/10/2022 5:15:00 AM 0.45 32.81 0.099 7.37 1.49 14.32
1/10/2022 5:30:00 AM 0.42 32.756 0.099 7.38 1.44 14.34
1/10/2022 5:45:00 AM 0.37 32.666 0.1 7.38 1.47 14.36
1/10/2022 6:00:00 AM 0.3 32.54 0.1 7.37 1.45 14.38
1/10/2022 6:15:00 AM 0.27 32.486 0.1 7.36 1.45 14.4
1/10/2022 6:30:00 AM 0.23 32.414 0.101 7.37 1.47 14.42
1/10/2022 6:45:00 AM 0.18 32.324 0.102 7.36 1.43 14.44
1/10/2022 7:00:00 AM 0.13 32.234 0.102 7.36 1.46 14.46
1/10/2022 7:15:00 AM 0.07 32.126 0.102 7.37 1.5 14.48
1/10/2022 7:30:00 AM 0.04 32.072 0.102 7.37 1.54 14.51
1/10/2022 7:45:00 AM 0.03 32.054 0.102 7.37 1.49 14.53
1/10/2022 8:00:00 AM 0.02 32.036 0.102 7.38 1.43 14.58
1/10/2022 8:15:00 AM -0.04 31.928 0.102 7.38 1.51 14.65
1/10/2022 8:30:00 AM -0.07 31.874 0.102 7.4 1.49 14.73
1/10/2022 8:45:00 AM -0.09 31.838 0.102 7.4 1.43 14.79
1/10/2022 9:00:00 AM -0.09 31.838 0.102 7.42 1.44 14.85
1/10/2022 9:15:00 AM -0.08 31.856 0.102 7.43 1.43 14.9
1/10/2022 9:30:00 AM -0.06 31.892 0.102 7.44 1.46 14.92
1/10/2022 9:45:00 AM -0.03 31.946 0.102 7.45 1.38 14.94
1/10/2022 10:00:00 AM 0 32 0.102 7.45 1.39 14.95
1/10/2022 10:15:00 AM 0.04 32.072 0.102 7.47 1.43 14.96
1/10/2022 10:30:00 AM 0.1 32.18 0.102 7.47 1.41 14.96
1/10/2022 10:45:00 AM 0.14 32.252 0.102 7.48 1.42 14.96
1/10/2022 11:00:00 AM 0.15 32.27 0.102 7.49 1.42 14.96
1/10/2022 11:15:00 AM 0.2 32.36 0.101 7.49 1.41 14.96
1/10/2022 11:30:00 AM 0.25 32.45 0.101 7.5 1.39 14.94
1/10/2022 11:45:00 AM 0.28 32.504 0.101 7.5 1.41 14.93
1/10/2022 12:00:00 PM 0.32 32.576 0.101 7.51 1.35 14.92
1/10/2022 12:15:00 PM 0.37 32.666 0.101 7.5 1.44 14.91
1/10/2022 12:30:00 PM 0.39 32.702 0.101 7.51 1.37 14.88
1/10/2022 12:45:00 PM 0.42 32.756 0.101 7.5 1.37 14.85
1/10/2022 1:00:00 PM 0.45 32.81 0.101 7.51 1.34 14.82
1/10/2022 1:15:00 PM 0.48 32.864 0.1 7.5 1.39 14.79
1/10/2022 1:30:00 PM 0.5 32.9 0.1 7.51 1.39 14.79
1/10/2022 1:45:00 PM 0.5 32.9 0.1 7.5 1.35 14.78
1/10/2022 2:00:00 PM 0.52 32.936 0.1 7.51 1.34 14.77
1/10/2022 2:15:00 PM 0.54 32.972 0.1 7.52 1.4 14.76
1/10/2022 2:30:00 PM 0.54 32.972 0.1 7.51 1.4 14.76
1/10/2022 2:45:00 PM 0.55 32.99 0.099 7.52 1.37 14.76
1/10/2022 3:00:00 PM 0.55 32.99 0.099 7.51 1.38 14.75
1/10/2022 3:15:00 PM 0.54 32.972 0.099 7.52 1.35 14.74
1/10/2022 3:30:00 PM 0.51 32.918 0.099 7.51 1.37 14.71
1/10/2022 3:45:00 PM 0.48 32.864 0.099 7.5 1.38 14.67
1/10/2022 4:00:00 PM 0.45 32.81 0.099 7.49 1.37 14.68
1/10/2022 4:15:00 PM 0.4 32.72 0.099 7.49 1.39 14.67
1/10/2022 4:30:00 PM 0.35 32.63 0.099 7.48 1.41 14.64
1/10/2022 4:45:00 PM 0.31 32.558 0.099 7.47 1.41 14.61
1/10/2022 5:00:00 PM 0.26 32.468 0.099 7.46 1.37 14.58
1/10/2022 5:15:00 PM 0.2 32.36 0.099 7.45 1.38 14.56
1/10/2022 5:30:00 PM 0.16 32.288 0.099 7.44 1.41 14.54
1/10/2022 5:45:00 PM 0.12 32.216 0.099 7.43 1.43 14.53
1/10/2022 6:00:00 PM 0.07 32.126 0.099 7.41 1.37 14.54
1/10/2022 6:15:00 PM 0.01 32.018 0.099 7.41 1.44 14.55
1/10/2022 6:30:00 PM -0.02 31.964 0.099 7.39 1.47 14.56
1/10/2022 6:45:00 PM -0.04 31.928 0.099 7.4 1.43 14.57
1/10/2022 7:00:00 PM -0.07 31.874 0.099 7.39 1.4 14.58
1/10/2022 7:15:00 PM -0.09 31.838 0.1 7.4 1.39 14.59
1/10/2022 7:30:00 PM -0.1 31.82 0.1 7.4 1.47 14.6
1/10/2022 7:45:00 PM -0.1 31.82 0.1 7.39 1.46 14.61
1/10/2022 8:00:00 PM -0.1 31.82 0.1 7.39 1.48 14.62
1/10/2022 8:15:00 PM -0.1 31.82 0.1 7.39 1.44 14.63
1/10/2022 8:30:00 PM -0.1 31.82 0.101 7.38 1.46 14.64
1/10/2022 8:45:00 PM -0.1 31.82 0.101 7.38 1.49 14.65
1/10/2022 9:00:00 PM -0.1 31.82 0.095 7.38 1.48 14.66
1/10/2022 9:15:00 PM -0.1 31.82 0.101 7.37 1.5 14.66
1/10/2022 9:30:00 PM -0.1 31.82 0.101 7.36 1.49 14.67
1/10/2022 9:45:00 PM -0.11 31.802 0.101 7.38 1.73 14.68
1/10/2022 10:00:00 PM -0.11 31.802 0.102 7.37 1.77 14.69
1/10/2022 10:15:00 PM -0.11 31.802 0.102 7.38 1.76 14.7
1/10/2022 10:30:00 PM -0.11 31.802 0.102 7.38 1.68 14.7
1/10/2022 10:45:00 PM -0.11 31.802 0.102 7.38 1.63 14.71
1/10/2022 11:00:00 PM -0.11 31.802 0.102 7.38 1.56 14.72
1/10/2022 11:15:00 PM -0.11 31.802 0.102 7.39 1.57 14.72
1/10/2022 11:30:00 PM -0.1 31.82 0.102 7.38 1.56 14.72
1/10/2022 11:45:00 PM -0.1 31.82 0.102 7.38 1.54 14.72
1/11/2022 12:00:00 AM -0.11 31.802 0.102 7.37 1.53 14.73
1/11/2022 12:15:00 AM -0.1 31.82 0.102 7.37 1.49 14.74
1/11/2022 12:30:00 AM -0.11 31.802 0.102 7.39 1.56 14.75
1/11/2022 12:45:00 AM -0.11 31.802 0.102 7.38 1.48 14.75
1/11/2022 1:00:00 AM -0.1 31.82 0.102 7.39 1.49 14.75
1/11/2022 1:15:00 AM -0.1 31.82 0.102 7.4 1.48 14.75
1/11/2022 1:30:00 AM -0.1 31.82 0.102 7.41 1.46 14.76
1/11/2022 1:45:00 AM -0.1 31.82 0.102 7.39 1.48 14.76
1/11/2022 2:00:00 AM -0.1 31.82 0.102 7.39 1.54 14.76
1/11/2022 2:15:00 AM -0.1 31.82 0.102 7.4 1.55 14.77
1/11/2022 2:30:00 AM -0.11 31.802 0.102 7.4 1.51 14.77
1/11/2022 2:45:00 AM -0.1 31.82 0.102 7.39 1.55 14.78
1/11/2022 3:00:00 AM -0.1 31.82 0.102 7.4 1.52 14.78
1/11/2022 3:15:00 AM -0.1 31.82 0.102 7.39 1.47 14.78
1/11/2022 3:30:00 AM -0.1 31.82 0.103 7.4 1.4 14.79
1/11/2022 3:45:00 AM -0.1 31.82 0.103 7.39 1.44 14.79
1/11/2022 4:00:00 AM -0.1 31.82 0.103 7.4 1.49 14.79
1/11/2022 4:15:00 AM -0.1 31.82 0.103 7.41 1.44 14.8
1/11/2022 4:30:00 AM -0.1 31.82 0.103 7.39 1.45 14.81
1/11/2022 4:45:00 AM -0.1 31.82 0.103 7.41 1.42 14.81
1/11/2022 5:00:00 AM -0.1 31.82 0.102 7.39 1.44 14.81
1/11/2022 5:15:00 AM -0.09 31.838 0.102 7.4 1.4 14.81
1/11/2022 5:30:00 AM -0.1 31.82 0.102 7.4 1.43 14.81
1/11/2022 5:45:00 AM -0.09 31.838 0.102 7.4 1.38 14.81
1/11/2022 6:00:00 AM -0.09 31.838 0.102 7.4 1.46 14.81
1/11/2022 6:15:00 AM -0.09 31.838 0.102 7.39 1.39 14.81
1/11/2022 6:30:00 AM -0.09 31.838 0.102 7.39 1.42 14.82
1/11/2022 6:45:00 AM -0.09 31.838 0.102 7.39 1.42 14.82
1/11/2022 7:00:00 AM -0.09 31.838 0.102 7.39 1.37 14.82
1/11/2022 7:15:00 AM -0.09 31.838 0.102 7.39 1.38 14.82
1/11/2022 7:30:00 AM -0.09 31.838 0.102 7.39 1.38 14.83
1/11/2022 7:45:00 AM -0.09 31.838 0.102 7.39 1.39 14.84
1/11/2022 8:00:00 AM -0.09 31.838 0.101 7.39 1.4 14.88
1/11/2022 8:15:00 AM -0.09 31.838 0.101 7.39 1.37 14.92
1/11/2022 8:30:00 AM -0.09 31.838 0.101 7.41 1.38 14.97
1/11/2022 8:45:00 AM -0.09 31.838 0.101 7.4 1.37 15.01
1/11/2022 9:00:00 AM -0.09 31.838 0.101 7.41 1.41 15.04
1/11/2022 9:15:00 AM -0.09 31.838 0.101 7.42 1.39 15.08
1/11/2022 9:30:00 AM -0.09 31.838 0.1 7.41 1.37 15.1
1/11/2022 9:45:00 AM -0.09 31.838 0.1 7.42 1.41 15.13
1/11/2022 10:00:00 AM -0.09 31.838 0.1 7.43 1.42 15.15
1/11/2022 10:15:00 AM -0.07 31.874 0.1 7.44 1.41 15.17
1/11/2022 10:30:00 AM -0.08 31.856 0.1 7.44 1.43 15.19
1/11/2022 10:45:00 AM -0.08 31.856 0.1 7.45 1.43 15.21
1/11/2022 11:00:00 AM -0.09 31.838 0.1 7.44 1.46 15.22
1/11/2022 11:15:00 AM -0.08 31.856 0.099 7.46 1.43 15.22
1/11/2022 11:30:00 AM -0.08 31.856 0.099 7.45 1.41 15.23
1/11/2022 11:45:00 AM -0.07 31.874 0.099 7.47 1.42 15.23
1/11/2022 12:00:00 PM -0.08 31.856 0.099 7.47 1.47 15.23
1/11/2022 12:15:00 PM -0.08 31.856 0.099 7.46 1.44 15.23
1/11/2022 12:30:00 PM -0.07 31.874 0.099 7.47 1.45 15.22
1/11/2022 12:45:00 PM -0.08 31.856 0.098 7.46 1.59 15.2
1/11/2022 1:00:00 PM -0.09 31.838 0.099 7.46 1.67 15.19
1/11/2022 1:15:00 PM -0.1 31.82 0.098 7.47 1.62 15.19
1/11/2022 1:30:00 PM -0.09 31.838 0.099 7.46 1.63 15.18
1/11/2022 1:45:00 PM -0.1 31.82 0.099 7.47 1.66 15.17
1/11/2022 2:00:00 PM -0.1 31.82 0.099 7.46 1.62 15.15
1/11/2022 2:15:00 PM -0.1 31.82 0.099 7.47 1.65 15.13
1/11/2022 2:30:00 PM -0.1 31.82 0.1 7.46 1.65 15.11
1/11/2022 2:45:00 PM -0.1 31.82 0.1 7.47 1.7 15.1
1/11/2022 3:00:00 PM -0.1 31.82 0.099 7.46 1.75 15.09
1/11/2022 3:15:00 PM -0.1 31.82 0.099 7.46 1.85 15.08
1/11/2022 3:30:00 PM -0.1 31.82 0.099 7.47 1.8 15.08
1/11/2022 3:45:00 PM -0.1 31.82 0.099 7.45 1.91 15.07
1/11/2022 4:00:00 PM -0.1 31.82 0.099 7.46 1.65 15.06
1/11/2022 4:15:00 PM -0.1 31.82 0.1 7.45 1.71 15.04
1/11/2022 4:30:00 PM -0.1 31.82 0.1 7.45 1.67 15.03
1/11/2022 4:45:00 PM -0.1 31.82 0.1 7.44 1.61 15.01
1/11/2022 5:00:00 PM -0.1 31.82 0.1 7.44 1.67 14.98
1/11/2022 5:15:00 PM -0.1 31.82 0.1 7.44 1.62 14.95
1/11/2022 5:30:00 PM -0.1 31.82 0.1 7.42 1.58 14.92
1/11/2022 5:45:00 PM -0.1 31.82 0.1 7.43 1.59 14.9
1/11/2022 6:00:00 PM -0.1 31.82 0.1 7.41 1.55 14.88
1/11/2022 6:15:00 PM -0.1 31.82 0.1 7.41 1.59 14.87
1/11/2022 6:30:00 PM -0.1 31.82 0.1 7.4 1.54 14.86
1/11/2022 6:45:00 PM -0.1 31.82 0.1 7.41 1.59 14.86
1/11/2022 7:00:00 PM -0.1 31.82 0.1 7.4 1.62 14.85
1/11/2022 7:15:00 PM -0.1 31.82 0.1 7.39 1.56 14.84
1/11/2022 7:30:00 PM -0.1 31.82 0.1 7.39 1.55 14.84
1/11/2022 7:45:00 PM -0.1 31.82 0.1 7.39 1.58 14.83
1/11/2022 8:00:00 PM -0.1 31.82 0.1 7.39 1.55 14.83
1/11/2022 8:15:00 PM -0.1 31.82 0.1 7.38 1.55 14.82
1/11/2022 8:30:00 PM -0.1 31.82 0.1 7.39 1.58 14.81
1/11/2022 8:45:00 PM -0.09 31.838 0.1 7.39 1.53 14.8
1/11/2022 9:00:00 PM -0.09 31.838 0.1 7.39 1.61 14.8
1/11/2022 9:15:00 PM -0.09 31.838 0.1 7.38 1.52 14.79
1/11/2022 9:30:00 PM -0.09 31.838 0.1 7.39 1.49 14.79
1/11/2022 9:45:00 PM -0.09 31.838 0.1 7.38 1.5 14.78
1/11/2022 10:00:00 PM -0.09 31.838 0.1 7.39 1.49 14.77
1/11/2022 10:15:00 PM -0.09 31.838 0.1 7.37 1.5 14.77
1/11/2022 10:30:00 PM -0.09 31.838 0.1 7.38 1.52 14.76
1/11/2022 10:45:00 PM -0.09 31.838 0.1 7.39 1.52 14.75
1/11/2022 11:00:00 PM -0.09 31.838 0.1 7.37 1.46 14.75
1/11/2022 11:15:00 PM -0.09 31.838 0.1 7.38 1.44 14.74
1/11/2022 11:30:00 PM -0.09 31.838 0.1 7.38 1.54 14.74
1/11/2022 11:45:00 PM -0.09 31.838 0.1 7.38 1.52 14.74
1/12/2022 12:00:00 AM -0.09 31.838 0.1 7.37 1.49 14.73
1/12/2022 12:15:00 AM -0.09 31.838 0.1 7.37 1.49 14.72
1/12/2022 12:30:00 AM -0.09 31.838 0.1 7.37 1.43 14.72
1/12/2022 12:45:00 AM -0.09 31.838 0.1 7.38 1.44 14.71
1/12/2022 1:00:00 AM -0.09 31.838 0.1 7.37 1.5 14.71
1/12/2022 1:15:00 AM -0.09 31.838 0.1 7.37 1.43 14.7
1/12/2022 1:30:00 AM -0.09 31.838 0.1 7.37 1.46 14.7
1/12/2022 1:45:00 AM -0.09 31.838 0.1 7.37 1.46 14.69
1/12/2022 2:00:00 AM -0.09 31.838 0.1 7.37 1.48 14.69
1/12/2022 2:15:00 AM -0.09 31.838 0.1 7.37 1.5 14.69
1/12/2022 2:30:00 AM -0.09 31.838 0.1 7.37 1.44 14.68
1/12/2022 2:45:00 AM -0.09 31.838 0.1 7.37 1.45 14.68
1/12/2022 3:00:00 AM -0.09 31.838 0.1 7.36 1.52 14.68
1/12/2022 3:15:00 AM -0.09 31.838 0.1 7.37 1.51 14.67
1/12/2022 3:30:00 AM -0.08 31.856 0.1 7.37 1.47 14.66
1/12/2022 3:45:00 AM -0.08 31.856 0.101 7.37 1.47 14.66
1/12/2022 4:00:00 AM -0.08 31.856 0.101 7.36 1.43 14.66
1/12/2022 4:15:00 AM -0.08 31.856 0.101 7.37 1.51 14.65
1/12/2022 4:30:00 AM -0.08 31.856 0.101 7.36 1.45 14.64
1/12/2022 4:45:00 AM -0.08 31.856 0.101 7.37 1.5 14.64
1/12/2022 5:00:00 AM -0.08 31.856 0.101 7.37 1.51 14.64
1/12/2022 5:15:00 AM -0.09 31.838 0.101 7.36 1.53 14.63
1/12/2022 5:30:00 AM -0.09 31.838 0.101 7.36 1.49 14.63
1/12/2022 5:45:00 AM -0.08 31.856 0.101 7.36 1.49 14.62
1/12/2022 6:00:00 AM -0.09 31.838 0.101 7.36 1.53 14.62
1/12/2022 6:15:00 AM -0.08 31.856 0.101 7.37 1.49 14.62
1/12/2022 6:30:00 AM -0.08 31.856 0.101 7.37 1.47 14.61
1/12/2022 6:45:00 AM -0.08 31.856 0.101 7.36 1.5 14.61
1/12/2022 7:00:00 AM -0.09 31.838 0.101 7.37 1.5 14.61
1/12/2022 7:15:00 AM -0.08 31.856 0.101 7.36 1.58 14.61
1/12/2022 7:30:00 AM -0.08 31.856 0.101 7.37 1.58 14.62
1/12/2022 7:45:00 AM -0.08 31.856 0.101 7.36 1.52 14.62
1/12/2022 8:00:00 AM -0.08 31.856 0.101 7.38 1.51 14.64
1/12/2022 8:15:00 AM -0.08 31.856 0.101 7.36 1.56 14.67
1/12/2022 8:30:00 AM -0.08 31.856 0.101 7.38 1.54 14.7
1/12/2022 8:45:00 AM -0.08 31.856 0.101 7.38 1.49 14.74
1/12/2022 9:00:00 AM -0.08 31.856 0.101 7.38 1.58 14.78
1/12/2022 9:15:00 AM -0.08 31.856 0.101 7.4 1.5 14.82
1/12/2022 9:30:00 AM -0.08 31.856 0.101 7.4 1.58 14.85
1/12/2022 9:45:00 AM -0.08 31.856 0.101 7.41 1.57 14.88
1/12/2022 10:00:00 AM -0.07 31.874 0.101 7.42 2.11 14.9
1/12/2022 10:15:00 AM -0.07 31.874 0.101 7.42 1.64 14.93
1/12/2022 10:30:00 AM -0.07 31.874 0.101 7.43 1.58 14.94
1/12/2022 10:45:00 AM -0.07 31.874 0.101 7.43 1.57 14.94
1/12/2022 11:00:00 AM -0.07 31.874 0.101 7.44 1.62 14.95
1/12/2022 11:15:00 AM -0.06 31.892 0.101 7.44 1.66 14.95
1/12/2022 11:30:00 AM -0.06 31.892 0.101 7.45 1.71 14.94
1/12/2022 11:45:00 AM -0.06 31.892 0.101 7.44 1.7 14.94
1/12/2022 12:00:00 PM -0.06 31.892 0.101 7.45 1.66 14.94
1/12/2022 12:15:00 PM -0.06 31.892 0.101 7.46 1.81 14.93
1/12/2022 12:30:00 PM -0.06 31.892 0.1 7.45 1.74 14.92
1/12/2022 12:45:00 PM -0.06 31.892 0.1 7.46 1.87 14.91
1/12/2022 1:00:00 PM -0.06 31.892 0.1 7.47 1.91 14.9
1/12/2022 1:15:00 PM -0.07 31.874 0.1 7.45 1.92 14.89
1/12/2022 1:30:00 PM -0.08 31.856 0.101 7.47 1.95 14.88
1/12/2022 1:45:00 PM -0.08 31.856 0.101 7.46 1.95 14.87
1/12/2022 2:00:00 PM -0.08 31.856 0.101 7.47 1.98 14.87
1/12/2022 2:15:00 PM -0.09 31.838 0.101 7.46 2.13 14.86
1/12/2022 2:30:00 PM -0.08 31.856 0.101 7.47 2.1 14.84
1/12/2022 2:45:00 PM -0.08 31.856 0.102 7.47 2.09 14.84
1/12/2022 3:00:00 PM -0.08 31.856 0.102 7.47 2.29 14.83
1/12/2022 3:15:00 PM -0.08 31.856 0.102 7.47 2.18 14.82
1/12/2022 3:30:00 PM -0.08 31.856 0.102 7.47 2.1 14.81
1/12/2022 3:45:00 PM -0.08 31.856 0.102 7.47 2.22 14.81
1/12/2022 4:00:00 PM -0.09 31.838 0.102 7.47 2.33 14.81
1/12/2022 4:15:00 PM -0.08 31.856 0.102 7.47 2.27 14.79
1/12/2022 4:30:00 PM -0.08 31.856 0.102 7.47 2.09 14.76
1/12/2022 4:45:00 PM -0.08 31.856 0.102 7.46 2.08 14.73
1/12/2022 5:00:00 PM -0.08 31.856 0.102 7.45 2.02 14.7
1/12/2022 5:15:00 PM -0.08 31.856 0.101 7.45 2.08 14.67
1/12/2022 5:30:00 PM -0.08 31.856 0.101 7.45 2.02 14.64
1/12/2022 5:45:00 PM -0.08 31.856 0.101 7.43 2.08 14.62
1/12/2022 6:00:00 PM -0.08 31.856 0.101 7.43 2.06 14.6
1/12/2022 6:15:00 PM -0.08 31.856 0.101 7.42 2.08 14.59
1/12/2022 6:30:00 PM -0.08 31.856 0.101 7.42 2.05 14.58
1/12/2022 6:45:00 PM -0.08 31.856 0.101 7.42 2.25 14.57
1/12/2022 7:00:00 PM -0.08 31.856 0.1 7.4 2.17 14.57
1/12/2022 7:15:00 PM -0.08 31.856 0.1 7.41 1.96 14.56
1/12/2022 7:30:00 PM -0.08 31.856 0.1 7.4 1.95 14.56
1/12/2022 7:45:00 PM -0.08 31.856 0.1 7.4 2.01 14.56
1/12/2022 8:00:00 PM -0.08 31.856 0.1 7.4 2.07 14.55
1/12/2022 8:15:00 PM -0.08 31.856 0.099 7.39 2.08 14.55
1/12/2022 8:30:00 PM -0.08 31.856 0.099 7.4 1.95 14.55
1/12/2022 8:45:00 PM -0.08 31.856 0.099 7.39 1.87 14.54
1/12/2022 9:00:00 PM -0.08 31.856 0.099 7.38 1.88 14.54
1/12/2022 9:15:00 PM -0.08 31.856 0.098 7.38 1.89 14.54
1/12/2022 9:30:00 PM -0.08 31.856 0.098 7.38 1.99 14.54
1/12/2022 9:45:00 PM -0.08 31.856 0.098 7.38 2.04 14.54
1/12/2022 10:00:00 PM -0.08 31.856 0.098 7.38 1.92 14.54
1/12/2022 10:15:00 PM -0.08 31.856 0.098 7.37 2 14.54
1/12/2022 10:30:00 PM -0.08 31.856 0.098 7.37 1.85 14.54
1/12/2022 10:45:00 PM -0.08 31.856 0.098 7.38 1.83 14.54
1/12/2022 11:00:00 PM -0.08 31.856 0.098 7.37 1.84 14.54
1/12/2022 11:15:00 PM -0.08 31.856 0.098 7.38 1.84 14.54
1/12/2022 11:30:00 PM -0.08 31.856 0.098 7.37 1.95 14.54
1/12/2022 11:45:00 PM -0.08 31.856 0.098 7.38 1.9 14.54
1/13/2022 12:00:00 AM -0.08 31.856 0.098 7.38 1.93 14.54
1/13/2022 12:15:00 AM -0.08 31.856 0.098 7.37 1.8 14.54
1/13/2022 12:30:00 AM -0.08 31.856 0.098 7.37 1.81 14.54
1/13/2022 12:45:00 AM -0.08 31.856 0.098 7.38 1.87 14.53
1/13/2022 1:00:00 AM -0.08 31.856 0.098 7.38 1.82 14.53
1/13/2022 1:15:00 AM -0.08 31.856 0.098 7.37 1.97 14.53
1/13/2022 1:30:00 AM -0.07 31.874 0.098 7.38 1.92 14.53
1/13/2022 1:45:00 AM -0.08 31.856 0.098 7.37 2.46 14.53
1/13/2022 2:00:00 AM -0.07 31.874 0.098 7.38 2.04 14.52
1/13/2022 2:15:00 AM -0.07 31.874 0.098 7.38 1.87 14.52
1/13/2022 2:30:00 AM -0.07 31.874 0.098 7.37 1.89 14.52
1/13/2022 2:45:00 AM -0.07 31.874 0.098 7.37 1.84 14.52
1/13/2022 3:00:00 AM -99999.99 -179968 -99999.99 -99999.99 -99999.99 -99999.99
1/13/2022 3:15:00 AM -99999.99 -179968 -99999.99 -99999.99 -99999.99 -99999.99
1/13/2022 3:30:00 AM -99999.99 -179968 -99999.99 -99999.99 -99999.99 -99999.99
1/13/2022 3:45:00 AM -99999.99 -179968 -99999.99 -99999.99 -99999.99 -99999.99
1/13/2022 4:00:00 AM -99999.99 -179968 -99999.99 -99999.99 -99999.99 -99999.99
1/13/2022 4:15:00 AM -99999.99 -179968 -99999.99 -99999.99 -99999.99 -99999.99
1/13/2022 4:30:00 AM -99999.99 -179968 -99999.99 -99999.99 -99999.99 -99999.99
1/13/2022 4:45:00 AM -99999.99 -179968 -99999.99 -99999.99 -99999.99 -99999.99
1/13/2022 5:00:00 AM -99999.99 -179968 -99999.99 -99999.99 -99999.99 -99999.99
1/13/2022 5:15:00 AM -99999.99 -179968 -99999.99 -99999.99 -99999.99 -99999.99
1/13/2022 5:30:00 AM -99999.99 -179968 -99999.99 -99999.99 -99999.99 -99999.99
1/13/2022 5:45:00 AM -99999.99 -179968 -99999.99 -99999.99 -99999.99 -99999.99
1/13/2022 6:00:00 AM -99999.99 -179968 -99999.99 -99999.99 -99999.99 -99999.99
1/13/2022 6:15:00 AM -99999.99 -179968 -99999.99 -99999.99 -99999.99 -99999.99
1/13/2022 6:30:00 AM -99999.99 -179968 -99999.99 -99999.99 -99999.99 -99999.99
1/13/2022 6:45:00 AM -99999.99 -179968 -99999.99 -99999.99 -99999.99 -99999.99
1/13/2022 7:00:00 AM -99999.99 -179968 -99999.99 -99999.99 -99999.99 -99999.99
1/13/2022 7:15:00 AM -99999.99 -179968 -99999.99 -99999.99 -99999.99 -99999.99
1/13/2022 7:30:00 AM -99999.99 -179968 -99999.99 -99999.99 -99999.99 -99999.99
1/13/2022 7:45:00 AM -99999.99 -179968 -99999.99 -99999.99 -99999.99 -99999.99
1/13/2022 8:00:00 AM -99999.99 -179968 -99999.99 -99999.99 -99999.99 -99999.99
1/13/2022 8:15:00 AM -99999.99 -179968 -99999.99 -99999.99 -99999.99 -99999.99
1/13/2022 8:30:00 AM -99999.99 -179968 -99999.99 -99999.99 -99999.99 -99999.99
1/13/2022 8:45:00 AM -99999.99 -179968 -99999.99 -99999.99 -99999.99 -99999.99
1/13/2022 9:00:00 AM -99999.99 -179968 -99999.99 -99999.99 -99999.99 -99999.99
1/13/2022 9:15:00 AM -99999.99 -179968 -99999.99 -99999.99 -99999.99 -99999.99
1/13/2022 9:30:00 AM -99999.99 -179968 -99999.99 -99999.99 -99999.99 -99999.99
1/13/2022 9:45:00 AM -99999.99 -179968 -99999.99 -99999.99 -99999.99 -99999.99
1/13/2022 10:00:00 AM -99999.99 -179968 -99999.99 -99999.99 -99999.99 -99999.99
1/13/2022 10:15:00 AM -99999.99 -179968 -99999.99 -99999.99 -99999.99 -99999.99
1/13/2022 10:30:00 AM -99999.99 -179968 -99999.99 -99999.99 -99999.99 -99999.99
1/13/2022 10:45:00 AM -99999.99 -179968 -99999.99 -99999.99 -99999.99 -99999.99
1/13/2022 11:00:00 AM -99999.99 -179968 -99999.99 -99999.99 -99999.99 -99999.99
1/13/2022 11:15:00 AM -99999.99 -179968 -99999.99 -99999.99 -99999.99 -99999.99
1/13/2022 11:30:00 AM -99999.99 -179968 -99999.99 -99999.99 -99999.99 -99999.99
1/13/2022 11:45:00 AM -99999.99 -179968 -99999.99 -99999.99 -99999.99 -99999.99
1/13/2022 12:00:00 PM -99999.99 -179968 -99999.99 -99999.99 -99999.99 -99999.99
1/13/2022 12:15:00 PM -99999.99 -179968 -99999.99 -99999.99 -99999.99 -99999.99
1/13/2022 12:30:00 PM -99999.99 -179968 -99999.99 -99999.99 -99999.99 -99999.99
1/13/2022 12:45:00 PM -99999.99 -179968 -99999.99 -99999.99 -99999.99 -99999.99
1/13/2022 1:00:00 PM -99999.99 -179968 -99999.99 -99999.99 -99999.99 -99999.99
1/13/2022 1:15:00 PM -99999.99 -179968 -99999.99 -99999.99 -99999.99 -99999.99
1/13/2022 1:30:00 PM -99999.99 -179968 -99999.99 -99999.99 -99999.99 -99999.99
1/13/2022 1:45:00 PM -99999.99 -179968 -99999.99 -99999.99 -99999.99 -99999.99
1/13/2022 2:00:00 PM -99999.99 -179968 -99999.99 -99999.99 -99999.99 -99999.99
1/13/2022 2:15:00 PM -99999.99 -179968 -99999.99 -99999.99 -99999.99 -99999.99
1/13/2022 2:30:00 PM -99999.99 -179968 -99999.99 -99999.99 -99999.99 -99999.99
1/13/2022 2:45:00 PM -99999.99 -179968 -99999.99 -99999.99 -99999.99 -99999.99
1/13/2022 3:00:00 PM -99999.99 -179968 -99999.99 -99999.99 -99999.99 -99999.99
1/13/2022 3:15:00 PM -99999.99 -179968 -99999.99 -99999.99 -99999.99 -99999.99
1/13/2022 3:30:00 PM -99999.99 -179968 -99999.99 -99999.99 -99999.99 -99999.99
1/13/2022 3:45:00 PM -99999.99 -179968 -99999.99 -99999.99 -99999.99 -99999.99
1/13/2022 4:00:00 PM -99999.99 -179968 -99999.99 -99999.99 -99999.99 -99999.99
1/13/2022 4:15:00 PM -99999.99 -179968 -99999.99 -99999.99 -99999.99 -99999.99
1/13/2022 4:30:00 PM -99999.99 -179968 -99999.99 -99999.99 -99999.99 -99999.99
1/13/2022 4:45:00 PM -99999.99 -179968 -99999.99 -99999.99 -99999.99 -99999.99
1/13/2022 5:00:00 PM -99999.99 -179968 -99999.99 -99999.99 -99999.99 -99999.99
1/13/2022 5:15:00 PM -99999.99 -179968 -99999.99 -99999.99 -99999.99 -99999.99
1/13/2022 5:30:00 PM -99999.99 -179968 -99999.99 -99999.99 -99999.99 -99999.99
1/13/2022 5:45:00 PM -99999.99 -179968 -99999.99 -99999.99 -99999.99 -99999.99
1/13/2022 6:00:00 PM -99999.99 -179968 -99999.99 -99999.99 -99999.99 -99999.99
1/13/2022 6:15:00 PM -99999.99 -179968 -99999.99 -99999.99 -99999.99 -99999.99
1/13/2022 6:30:00 PM -99999.99 -179968 -99999.99 -99999.99 -99999.99 -99999.99
1/13/2022 6:45:00 PM -99999.99 -179968 -99999.99 -99999.99 -99999.99 -99999.99
1/13/2022 7:00:00 PM -99999.99 -179968 -99999.99 -99999.99 -99999.99 -99999.99
1/13/2022 7:15:00 PM -99999.99 -179968 -99999.99 -99999.99 -99999.99 -99999.99
1/13/2022 7:30:00 PM -99999.99 -179968 -99999.99 -99999.99 -99999.99 -99999.99
1/13/2022 7:45:00 PM -99999.99 -179968 -99999.99 -99999.99 -99999.99 -99999.99
1/13/2022 8:00:00 PM -99999.99 -179968 -99999.99 -99999.99 -99999.99 -99999.99
1/13/2022 8:15:00 PM -99999.99 -179968 -99999.99 -99999.99 -99999.99 -99999.99
1/13/2022 8:30:00 PM -99999.99 -179968 -99999.99 -99999.99 -99999.99 -99999.99
1/13/2022 8:45:00 PM -99999.99 -179968 -99999.99 -99999.99 -99999.99 -99999.99
1/13/2022 9:00:00 PM -99999.99 -179968 -99999.99 -99999.99 -99999.99 -99999.99
1/13/2022 9:15:00 PM -99999.99 -179968 -99999.99 -99999.99 -99999.99 -99999.99
1/13/2022 9:30:00 PM -99999.99 -179968 -99999.99 -99999.99 -99999.99 -99999.99
1/13/2022 9:45:00 PM -99999.99 -179968 -99999.99 -99999.99 -99999.99 -99999.99
1/13/2022 10:00:00 PM -99999.99 -179968 -99999.99 -99999.99 -99999.99 -99999.99
1/13/2022 10:15:00 PM -99999.99 -179968 -99999.99 -99999.99 -99999.99 -99999.99
1/13/2022 10:30:00 PM -99999.99 -179968 -99999.99 -99999.99 -99999.99 -99999.99
1/13/2022 10:45:00 PM -99999.99 -179968 -99999.99 -99999.99 -99999.99 -99999.99
1/13/2022 11:00:00 PM -99999.99 -179968 -99999.99 -99999.99 -99999.99 -99999.99
1/13/2022 11:15:00 PM -99999.99 -179968 -99999.99 -99999.99 -99999.99 -99999.99
1/13/2022 11:30:00 PM -99999.99 -179968 -99999.99 -99999.99 -99999.99 -99999.99
1/13/2022 11:45:00 PM -99999.99 -179968 -99999.99 -99999.99 -99999.99 -99999.99
1/14/2022 12:00:00 AM -99999.99 -179968 -99999.99 -99999.99 -99999.99 -99999.99
1/14/2022 12:15:00 AM -99999.99 -179968 -99999.99 -99999.99 -99999.99 -99999.99
1/14/2022 12:30:00 AM -99999.99 -179968 -99999.99 -99999.99 -99999.99 -99999.99
1/14/2022 12:45:00 AM -99999.99 -179968 -99999.99 -99999.99 -99999.99 -99999.99
1/14/2022 1:00:00 AM -99999.99 -179968 -99999.99 -99999.99 -99999.99 -99999.99
1/14/2022 1:15:00 AM -99999.99 -179968 -99999.99 -99999.99 -99999.99 -99999.99
1/14/2022 1:30:00 AM -99999.99 -179968 -99999.99 -99999.99 -99999.99 -99999.99
1/14/2022 1:45:00 AM -99999.99 -179968 -99999.99 -99999.99 -99999.99 -99999.99
1/14/2022 2:00:00 AM -99999.99 -179968 -99999.99 -99999.99 -99999.99 -99999.99
1/14/2022 2:15:00 AM -99999.99 -179968 -99999.99 -99999.99 -99999.99 -99999.99
1/14/2022 2:30:00 AM -99999.99 -179968 -99999.99 -99999.99 -99999.99 -99999.99
1/14/2022 2:45:00 AM -99999.99 -179968 -99999.99 -99999.99 -99999.99 -99999.99
1/14/2022 3:00:00 AM -99999.99 -179968 -99999.99 -99999.99 -99999.99 -99999.99
1/14/2022 3:15:00 AM -99999.99 -179968 -99999.99 -99999.99 -99999.99 -99999.99
1/14/2022 3:30:00 AM -99999.99 -179968 -99999.99 -99999.99 -99999.99 -99999.99
1/14/2022 3:45:00 AM -99999.99 -179968 -99999.99 -99999.99 -99999.99 -99999.99
1/14/2022 4:00:00 AM -99999.99 -179968 -99999.99 -99999.99 -99999.99 -99999.99
1/14/2022 4:15:00 AM -99999.99 -179968 -99999.99 -99999.99 -99999.99 -99999.99
1/14/2022 4:30:00 AM -99999.99 -179968 -99999.99 -99999.99 -99999.99 -99999.99
1/14/2022 4:45:00 AM -99999.99 -179968 -99999.99 -99999.99 -99999.99 -99999.99
1/14/2022 5:00:00 AM -99999.99 -179968 -99999.99 -99999.99 -99999.99 -99999.99
1/14/2022 5:15:00 AM -99999.99 -179968 -99999.99 -99999.99 -99999.99 -99999.99
1/14/2022 5:30:00 AM -99999.99 -179968 -99999.99 -99999.99 -99999.99 -99999.99
1/14/2022 5:45:00 AM -99999.99 -179968 -99999.99 -99999.99 -99999.99 -99999.99
1/14/2022 6:00:00 AM -99999.99 -179968 -99999.99 -99999.99 -99999.99 -99999.99
1/14/2022 6:15:00 AM -99999.99 -179968 -99999.99 -99999.99 -99999.99 -99999.99
1/14/2022 6:30:00 AM -99999.99 -179968 -99999.99 -99999.99 -99999.99 -99999.99
1/14/2022 6:45:00 AM -99999.99 -179968 -99999.99 -99999.99 -99999.99 -99999.99
1/14/2022 7:00:00 AM -99999.99 -179968 -99999.99 -99999.99 -99999.99 -99999.99
1/14/2022 7:15:00 AM -99999.99 -179968 -99999.99 -99999.99 -99999.99 -99999.99
1/14/2022 7:30:00 AM -99999.99 -179968 -99999.99 -99999.99 -99999.99 -99999.99
1/14/2022 7:45:00 AM -99999.99 -179968 -99999.99 -99999.99 -99999.99 -99999.99
1/14/2022 8:00:00 AM -99999.99 -179968 -99999.99 -99999.99 -99999.99 -99999.99
1/14/2022 8:15:00 AM -99999.99 -179968 -99999.99 -99999.99 -99999.99 -99999.99
1/14/2022 8:30:00 AM -99999.99 -179968 -99999.99 -99999.99 -99999.99 -99999.99
1/14/2022 8:45:00 AM -99999.99 -179968 -99999.99 -99999.99 -99999.99 -99999.99
1/14/2022 9:00:00 AM -99999.99 -179968 -99999.99 -99999.99 -99999.99 -99999.99
1/14/2022 9:15:00 AM -99999.99 -179968 -99999.99 -99999.99 -99999.99 -99999.99
1/14/2022 9:30:00 AM -99999.99 -179968 -99999.99 -99999.99 -99999.99 -99999.99
1/14/2022 9:45:00 AM -99999.99 -179968 -99999.99 -99999.99 -99999.99 -99999.99
1/14/2022 10:00:00 AM -99999.99 -179968 -99999.99 -99999.99 -99999.99 -99999.99
1/14/2022 10:15:00 AM -99999.99 -179968 -99999.99 -99999.99 -99999.99 -99999.99
1/14/2022 10:30:00 AM -99999.99 -179968 -99999.99 -99999.99 -99999.99 -99999.99
1/14/2022 10:45:00 AM -99999.99 -179968 -99999.99 -99999.99 -99999.99 -99999.99
1/14/2022 11:00:00 AM -99999.99 -179968 -99999.99 -99999.99 -99999.99 -99999.99
1/14/2022 11:15:00 AM -99999.99 -179968 -99999.99 -99999.99 -99999.99 -99999.99
1/14/2022 11:30:00 AM -99999.99 -179968 -99999.99 -99999.99 -99999.99 -99999.99
1/14/2022 11:45:00 AM -99999.99 -179968 -99999.99 -99999.99 -99999.99 -99999.99
1/14/2022 12:00:00 PM -99999.99 -179968 -99999.99 -99999.99 -99999.99 -99999.99
1/14/2022 12:15:00 PM -99999.99 -179968 -99999.99 -99999.99 -99999.99 -99999.99
1/14/2022 12:30:00 PM -99999.99 -179968 -99999.99 -99999.99 -99999.99 -99999.99
1/14/2022 12:45:00 PM -99999.99 -179968 -99999.99 -99999.99 -99999.99 -99999.99
1/14/2022 1:00:00 PM -99999.99 -179968 -99999.99 -99999.99 -99999.99 -99999.99
1/14/2022 1:15:00 PM -99999.99 -179968 -99999.99 -99999.99 -99999.99 -99999.99
1/14/2022 1:30:00 PM -99999.99 -179968 -99999.99 -99999.99 -99999.99 -99999.99
1/14/2022 1:45:00 PM -99999.99 -179968 -99999.99 -99999.99 -99999.99 -99999.99
1/14/2022 2:00:00 PM -99999.99 -179968 -99999.99 -99999.99 -99999.99 -99999.99
1/14/2022 2:15:00 PM -99999.99 -179968 -99999.99 -99999.99 -99999.99 -99999.99
1/14/2022 2:30:00 PM -99999.99 -179968 -99999.99 -99999.99 -99999.99 -99999.99
1/14/2022 2:45:00 PM -99999.99 -179968 -99999.99 -99999.99 -99999.99 -99999.99
1/14/2022 3:00:00 PM -99999.99 -179968 -99999.99 -99999.99 -99999.99 -99999.99
1/14/2022 3:15:00 PM -99999.99 -179968 -99999.99 -99999.99 -99999.99 -99999.99
1/14/2022 3:30:00 PM -99999.99 -179968 -99999.99 -99999.99 -99999.99 -99999.99
1/14/2022 3:45:00 PM -99999.99 -179968 -99999.99 -99999.99 -99999.99 -99999.99
1/14/2022 4:00:00 PM -99999.99 -179968 -99999.99 -99999.99 -99999.99 -99999.99
1/14/2022 4:15:00 PM -99999.99 -179968 -99999.99 -99999.99 -99999.99 -99999.99
1/14/2022 4:30:00 PM -99999.99 -179968 -99999.99 -99999.99 -99999.99 -99999.99
1/14/2022 4:45:00 PM -99999.99 -179968 -99999.99 -99999.99 -99999.99 -99999.99
1/14/2022 5:00:00 PM -99999.99 -179968 -99999.99 -99999.99 -99999.99 -99999.99
1/14/2022 5:15:00 PM -99999.99 -179968 -99999.99 -99999.99 -99999.99 -99999.99
1/14/2022 5:30:00 PM -99999.99 -179968 -99999.99 -99999.99 -99999.99 -99999.99
1/14/2022 5:45:00 PM -99999.99 -179968 -99999.99 -99999.99 -99999.99 -99999.99
1/14/2022 6:00:00 PM -99999.99 -179968 -99999.99 -99999.99 -99999.99 -99999.99
1/14/2022 6:15:00 PM -99999.99 -179968 -99999.99 -99999.99 -99999.99 -99999.99
1/14/2022 6:30:00 PM -99999.99 -179968 -99999.99 -99999.99 -99999.99 -99999.99
1/14/2022 6:45:00 PM -99999.99 -179968 -99999.99 -99999.99 -99999.99 -99999.99
1/14/2022 7:00:00 PM -99999.99 -179968 -99999.99 -99999.99 -99999.99 -99999.99
1/14/2022 7:15:00 PM -99999.99 -179968 -99999.99 -99999.99 -99999.99 -99999.99
1/14/2022 7:30:00 PM -99999.99 -179968 -99999.99 -99999.99 -99999.99 -99999.99
1/14/2022 7:45:00 PM -99999.99 -179968 -99999.99 -99999.99 -99999.99 -99999.99
1/14/2022 8:00:00 PM -99999.99 -179968 -99999.99 -99999.99 -99999.99 -99999.99
1/14/2022 8:15:00 PM -99999.99 -179968 -99999.99 -99999.99 -99999.99 -99999.99
1/14/2022 8:30:00 PM -99999.99 -179968 -99999.99 -99999.99 -99999.99 -99999.99
1/14/2022 8:45:00 PM -99999.99 -179968 -99999.99 -99999.99 -99999.99 -99999.99
1/14/2022 9:00:00 PM -99999.99 -179968 -99999.99 -99999.99 -99999.99 -99999.99
1/14/2022 9:15:00 PM -99999.99 -179968 -99999.99 -99999.99 -99999.99 -99999.99
1/14/2022 9:30:00 PM -99999.99 -179968 -99999.99 -99999.99 -99999.99 -99999.99
1/14/2022 9:45:00 PM -99999.99 -179968 -99999.99 -99999.99 -99999.99 -99999.99
1/14/2022 10:00:00 PM -99999.99 -179968 -99999.99 -99999.99 -99999.99 -99999.99
1/14/2022 10:15:00 PM -99999.99 -179968 -99999.99 -99999.99 -99999.99 -99999.99
1/14/2022 10:30:00 PM -99999.99 -179968 -99999.99 -99999.99 -99999.99 -99999.99
1/14/2022 10:45:00 PM -99999.99 -179968 -99999.99 -99999.99 -99999.99 -99999.99
1/14/2022 11:00:00 PM -99999.99 -179968 -99999.99 -99999.99 -99999.99 -99999.99
1/14/2022 11:15:00 PM -99999.99 -179968 -99999.99 -99999.99 -99999.99 -99999.99
1/14/2022 11:30:00 PM -99999.99 -179968 -99999.99 -99999.99 -99999.99 -99999.99
1/14/2022 11:45:00 PM -99999.99 -179968 -99999.99 -99999.99 -99999.99 -99999.99
1/15/2022 12:00:00 AM -99999.99 -179968 -99999.99 -99999.99 -99999.99 -99999.99
1/15/2022 12:15:00 AM -99999.99 -179968 -99999.99 -99999.99 -99999.99 -99999.99
1/15/2022 12:30:00 AM -99999.99 -179968 -99999.99 -99999.99 -99999.99 -99999.99
1/15/2022 12:45:00 AM -99999.99 -179968 -99999.99 -99999.99 -99999.99 -99999.99
1/15/2022 1:00:00 AM -99999.99 -179968 -99999.99 -99999.99 -99999.99 -99999.99
1/15/2022 1:15:00 AM -99999.99 -179968 -99999.99 -99999.99 -99999.99 -99999.99
1/15/2022 1:30:00 AM -99999.99 -179968 -99999.99 -99999.99 -99999.99 -99999.99
1/15/2022 1:45:00 AM -99999.99 -179968 -99999.99 -99999.99 -99999.99 -99999.99
1/15/2022 2:00:00 AM -99999.99 -179968 -99999.99 -99999.99 -99999.99 -99999.99
1/15/2022 2:15:00 AM -99999.99 -179968 -99999.99 -99999.99 -99999.99 -99999.99
1/15/2022 2:30:00 AM -99999.99 -179968 -99999.99 -99999.99 -99999.99 -99999.99
1/15/2022 2:45:00 AM -99999.99 -179968 -99999.99 -99999.99 -99999.99 -99999.99
1/15/2022 3:00:00 AM -99999.99 -179968 -99999.99 -99999.99 -99999.99 -99999.99
1/15/2022 3:15:00 AM -99999.99 -179968 -99999.99 -99999.99 -99999.99 -99999.99
1/15/2022 3:30:00 AM -99999.99 -179968 -99999.99 -99999.99 -99999.99 -99999.99
1/15/2022 3:45:00 AM -99999.99 -179968 -99999.99 -99999.99 -99999.99 -99999.99
1/15/2022 4:00:00 AM -99999.99 -179968 -99999.99 -99999.99 -99999.99 -99999.99
1/15/2022 4:15:00 AM -99999.99 -179968 -99999.99 -99999.99 -99999.99 -99999.99
1/15/2022 4:30:00 AM -99999.99 -179968 -99999.99 -99999.99 -99999.99 -99999.99
1/15/2022 4:45:00 AM -99999.99 -179968 -99999.99 -99999.99 -99999.99 -99999.99
1/15/2022 5:00:00 AM -99999.99 -179968 -99999.99 -99999.99 -99999.99 -99999.99
1/15/2022 5:15:00 AM -99999.99 -179968 -99999.99 -99999.99 -99999.99 -99999.99
1/15/2022 5:30:00 AM -99999.99 -179968 -99999.99 -99999.99 -99999.99 -99999.99
1/15/2022 5:45:00 AM -99999.99 -179968 -99999.99 -99999.99 -99999.99 -99999.99
1/15/2022 6:00:00 AM -99999.99 -179968 -99999.99 -99999.99 -99999.99 -99999.99
1/15/2022 6:15:00 AM -99999.99 -179968 -99999.99 -99999.99 -99999.99 -99999.99
1/15/2022 6:30:00 AM -99999.99 -179968 -99999.99 -99999.99 -99999.99 -99999.99
1/15/2022 6:45:00 AM -99999.99 -179968 -99999.99 -99999.99 -99999.99 -99999.99
1/15/2022 7:00:00 AM -99999.99 -179968 -99999.99 -99999.99 -99999.99 -99999.99
1/15/2022 7:15:00 AM -99999.99 -179968 -99999.99 -99999.99 -99999.99 -99999.99
1/15/2022 7:30:00 AM -99999.99 -179968 -99999.99 -99999.99 -99999.99 -99999.99
1/15/2022 7:45:00 AM -99999.99 -179968 -99999.99 -99999.99 -99999.99 -99999.99
1/15/2022 8:00:00 AM -99999.99 -179968 -99999.99 -99999.99 -99999.99 -99999.99
1/15/2022 8:15:00 AM -99999.99 -179968 -99999.99 -99999.99 -99999.99 -99999.99
1/15/2022 8:30:00 AM -99999.99 -179968 -99999.99 -99999.99 -99999.99 -99999.99
1/15/2022 8:45:00 AM -99999.99 -179968 -99999.99 -99999.99 -99999.99 -99999.99
1/15/2022 9:00:00 AM -99999.99 -179968 -99999.99 -99999.99 -99999.99 -99999.99
1/15/2022 9:15:00 AM -99999.99 -179968 -99999.99 -99999.99 -99999.99 -99999.99
1/15/2022 9:30:00 AM -99999.99 -179968 -99999.99 -99999.99 -99999.99 -99999.99
1/15/2022 9:45:00 AM -99999.99 -179968 -99999.99 -99999.99 -99999.99 -99999.99
1/15/2022 10:00:00 AM -99999.99 -179968 -99999.99 -99999.99 -99999.99 -99999.99
1/15/2022 10:15:00 AM -99999.99 -179968 -99999.99 -99999.99 -99999.99 -99999.99
1/15/2022 10:30:00 AM -99999.99 -179968 -99999.99 -99999.99 -99999.99 -99999.99
1/15/2022 10:45:00 AM -99999.99 -179968 -99999.99 -99999.99 -99999.99 -99999.99
1/15/2022 11:00:00 AM -99999.99 -179968 -99999.99 -99999.99 -99999.99 -99999.99
1/15/2022 11:15:00 AM -99999.99 -179968 -99999.99 -99999.99 -99999.99 -99999.99
1/15/2022 11:30:00 AM -99999.99 -179968 -99999.99 -99999.99 -99999.99 -99999.99
1/15/2022 11:45:00 AM -99999.99 -179968 -99999.99 -99999.99 -99999.99 -99999.99
1/15/2022 12:00:00 PM -99999.99 -179968 -99999.99 -99999.99 -99999.99 -99999.99
1/15/2022 12:15:00 PM -99999.99 -179968 -99999.99 -99999.99 -99999.99 -99999.99
1/15/2022 12:30:00 PM -99999.99 -179968 -99999.99 -99999.99 -99999.99 -99999.99
1/15/2022 12:45:00 PM -99999.99 -179968 -99999.99 -99999.99 -99999.99 -99999.99
1/15/2022 1:00:00 PM -99999.99 -179968 -99999.99 -99999.99 -99999.99 -99999.99
1/15/2022 1:15:00 PM -99999.99 -179968 -99999.99 -99999.99 -99999.99 -99999.99
1/15/2022 1:30:00 PM -99999.99 -179968 -99999.99 -99999.99 -99999.99 -99999.99
1/15/2022 1:45:00 PM -99999.99 -179968 -99999.99 -99999.99 -99999.99 -99999.99
1/15/2022 2:00:00 PM -99999.99 -179968 -99999.99 -99999.99 -99999.99 -99999.99
1/15/2022 2:15:00 PM -99999.99 -179968 -99999.99 -99999.99 -99999.99 -99999.99
1/15/2022 2:30:00 PM -99999.99 -179968 -99999.99 -99999.99 -99999.99 -99999.99
1/15/2022 2:45:00 PM -99999.99 -179968 -99999.99 -99999.99 -99999.99 -99999.99
1/15/2022 3:00:00 PM -99999.99 -179968 -99999.99 -99999.99 -99999.99 -99999.99
1/15/2022 3:15:00 PM -99999.99 -179968 -99999.99 -99999.99 -99999.99 -99999.99
1/15/2022 3:30:00 PM -99999.99 -179968 -99999.99 -99999.99 -99999.99 -99999.99
1/15/2022 3:45:00 PM -99999.99 -179968 -99999.99 -99999.99 -99999.99 -99999.99
1/15/2022 4:00:00 PM -99999.99 -179968 -99999.99 -99999.99 -99999.99 -99999.99
1/15/2022 4:15:00 PM -99999.99 -179968 -99999.99 -99999.99 -99999.99 -99999.99
1/15/2022 4:30:00 PM -99999.99 -179968 -99999.99 -99999.99 -99999.99 -99999.99
1/15/2022 4:45:00 PM -99999.99 -179968 -99999.99 -99999.99 -99999.99 -99999.99
1/15/2022 5:00:00 PM -99999.99 -179968 -99999.99 -99999.99 -99999.99 -99999.99
1/15/2022 5:15:00 PM -99999.99 -179968 -99999.99 -99999.99 -99999.99 -99999.99
1/15/2022 5:30:00 PM -99999.99 -179968 -99999.99 -99999.99 -99999.99 -99999.99
1/15/2022 5:45:00 PM -99999.99 -179968 -99999.99 -99999.99 -99999.99 -99999.99
1/15/2022 6:00:00 PM -99999.99 -179968 -99999.99 -99999.99 -99999.99 -99999.99
1/15/2022 6:15:00 PM -99999.99 -179968 -99999.99 -99999.99 -99999.99 -99999.99
1/15/2022 6:30:00 PM -99999.99 -179968 -99999.99 -99999.99 -99999.99 -99999.99
1/15/2022 6:45:00 PM -99999.99 -179968 -99999.99 -99999.99 -99999.99 -99999.99
1/15/2022 7:00:00 PM -99999.99 -179968 -99999.99 -99999.99 -99999.99 -99999.99
1/15/2022 7:15:00 PM -99999.99 -179968 -99999.99 -99999.99 -99999.99 -99999.99
1/15/2022 7:30:00 PM -99999.99 -179968 -99999.99 -99999.99 -99999.99 -99999.99
1/15/2022 7:45:00 PM -99999.99 -179968 -99999.99 -99999.99 -99999.99 -99999.99
1/15/2022 8:00:00 PM -99999.99 -179968 -99999.99 -99999.99 -99999.99 -99999.99
1/15/2022 8:15:00 PM -99999.99 -179968 -99999.99 -99999.99 -99999.99 -99999.99
1/15/2022 8:30:00 PM -99999.99 -179968 -99999.99 -99999.99 -99999.99 -99999.99
1/15/2022 8:45:00 PM -99999.99 -179968 -99999.99 -99999.99 -99999.99 -99999.99
1/15/2022 9:00:00 PM -99999.99 -179968 -99999.99 -99999.99 -99999.99 -99999.99
1/15/2022 9:15:00 PM -99999.99 -179968 -99999.99 -99999.99 -99999.99 -99999.99
1/15/2022 9:30:00 PM -99999.99 -179968 -99999.99 -99999.99 -99999.99 -99999.99
1/15/2022 9:45:00 PM -99999.99 -179968 -99999.99 -99999.99 -99999.99 -99999.99
1/15/2022 10:00:00 PM -99999.99 -179968 -99999.99 -99999.99 -99999.99 -99999.99
1/15/2022 10:15:00 PM -99999.99 -179968 -99999.99 -99999.99 -99999.99 -99999.99
1/15/2022 10:30:00 PM -99999.99 -179968 -99999.99 -99999.99 -99999.99 -99999.99
1/15/2022 10:45:00 PM -99999.99 -179968 -99999.99 -99999.99 -99999.99 -99999.99
1/15/2022 11:00:00 PM -99999.99 -179968 -99999.99 -99999.99 -99999.99 -99999.99
1/15/2022 11:15:00 PM -99999.99 -179968 -99999.99 -99999.99 -99999.99 -99999.99
1/15/2022 11:30:00 PM -99999.99 -179968 -99999.99 -99999.99 -99999.99 -99999.99
1/15/2022 11:45:00 PM -99999.99 -179968 -99999.99 -99999.99 -99999.99 -99999.99
1/16/2022 12:00:00 AM -99999.99 -179968 -99999.99 -99999.99 -99999.99 -99999.99
1/16/2022 12:15:00 AM -99999.99 -179968 -99999.99 -99999.99 -99999.99 -99999.99
1/16/2022 12:30:00 AM -99999.99 -179968 -99999.99 -99999.99 -99999.99 -99999.99
1/16/2022 12:45:00 AM -99999.99 -179968 -99999.99 -99999.99 -99999.99 -99999.99
1/16/2022 1:00:00 AM -99999.99 -179968 -99999.99 -99999.99 -99999.99 -99999.99
1/16/2022 1:15:00 AM -99999.99 -179968 -99999.99 -99999.99 -99999.99 -99999.99
1/16/2022 1:30:00 AM -99999.99 -179968 -99999.99 -99999.99 -99999.99 -99999.99
1/16/2022 1:45:00 AM -99999.99 -179968 -99999.99 -99999.99 -99999.99 -99999.99
1/16/2022 2:00:00 AM -99999.99 -179968 -99999.99 -99999.99 -99999.99 -99999.99
1/16/2022 2:15:00 AM -99999.99 -179968 -99999.99 -99999.99 -99999.99 -99999.99
1/16/2022 2:30:00 AM -99999.99 -179968 -99999.99 -99999.99 -99999.99 -99999.99
1/16/2022 2:45:00 AM -99999.99 -179968 -99999.99 -99999.99 -99999.99 -99999.99
1/16/2022 3:00:00 AM -99999.99 -179968 -99999.99 -99999.99 -99999.99 -99999.99
1/16/2022 3:15:00 AM -99999.99 -179968 -99999.99 -99999.99 -99999.99 -99999.99
1/16/2022 3:30:00 AM -99999.99 -179968 -99999.99 -99999.99 -99999.99 -99999.99
1/16/2022 3:45:00 AM -99999.99 -179968 -99999.99 -99999.99 -99999.99 -99999.99
1/16/2022 4:00:00 AM -99999.99 -179968 -99999.99 -99999.99 -99999.99 -99999.99
1/16/2022 4:15:00 AM -99999.99 -179968 -99999.99 -99999.99 -99999.99 -99999.99
1/16/2022 4:30:00 AM -99999.99